<?xml version="1.0" encoding="UTF-8" standalone="no" ?>
<gpx xmlns="http://www.topografix.com/GPX/1/1" xmlns:xsi="http://www.w3.org/2001/XMLSchema-instance" xsi:schemaLocation="http://www.topografix.com/GPX/1/1 http://www.topografix.com/GPX/1/1/gpx.xsd" version="1.1" creator="VisuGPX - https://www.visugpx.com">
  <metadata>
    <name>ESTIBETTE FN</name>
    <desc><![CDATA[Randonnée hivernale pour ce pic de l'Estibette en face nord depuis La Hérrère.]]></desc>
  </metadata>
  <trk>
    <name><![CDATA[2017-04-07 09:11:19]]></name>
    <trkseg>
      <trkpt lat="43.0386" lon="-0.25989">
        <ele>450.82</ele>
        <time>2017-04-06T05:54:44Z</time>
      </trkpt>
      <trkpt lat="43.03855" lon="-0.25981">
        <ele>449.55</ele>
        <time>2017-04-06T05:55:06Z</time>
      </trkpt>
      <trkpt lat="43.03855" lon="-0.25986">
        <ele>450.3</ele>
        <time>2017-04-06T05:55:19Z</time>
      </trkpt>
      <trkpt lat="43.03857" lon="-0.26">
        <ele>451.42</ele>
        <time>2017-04-06T05:55:44Z</time>
      </trkpt>
      <trkpt lat="43.03856" lon="-0.26">
        <ele>451.63</ele>
        <time>2017-04-06T05:55:46Z</time>
      </trkpt>
      <trkpt lat="43.03864" lon="-0.26004">
        <ele>450.48</ele>
        <time>2017-04-06T05:56:05Z</time>
      </trkpt>
      <trkpt lat="43.03882" lon="-0.26008">
        <ele>450.15</ele>
        <time>2017-04-06T05:56:26Z</time>
      </trkpt>
      <trkpt lat="43.03895" lon="-0.26012">
        <ele>451.84</ele>
        <time>2017-04-06T05:56:45Z</time>
      </trkpt>
      <trkpt lat="43.03892" lon="-0.26013">
        <ele>455.09</ele>
        <time>2017-04-06T05:57:07Z</time>
      </trkpt>
      <trkpt lat="43.03892" lon="-0.26014">
        <ele>455.34</ele>
        <time>2017-04-06T05:57:08Z</time>
      </trkpt>
      <trkpt lat="43.03891" lon="-0.2602">
        <ele>461.03</ele>
        <time>2017-04-06T05:57:33Z</time>
      </trkpt>
      <trkpt lat="43.03896" lon="-0.2602">
        <ele>460.56</ele>
        <time>2017-04-06T05:57:37Z</time>
      </trkpt>
      <trkpt lat="43.03908" lon="-0.26013">
        <ele>457.67</ele>
        <time>2017-04-06T05:57:48Z</time>
      </trkpt>
      <trkpt lat="43.03921" lon="-0.26001">
        <ele>455.76</ele>
        <time>2017-04-06T05:58:04Z</time>
      </trkpt>
      <trkpt lat="43.03929" lon="-0.25989">
        <ele>454.28</ele>
        <time>2017-04-06T05:58:20Z</time>
      </trkpt>
      <trkpt lat="43.03933" lon="-0.25995">
        <ele>452.09</ele>
        <time>2017-04-06T05:58:41Z</time>
      </trkpt>
      <trkpt lat="43.03934" lon="-0.25994">
        <ele>452.15</ele>
        <time>2017-04-06T05:58:43Z</time>
      </trkpt>
      <trkpt lat="43.03935" lon="-0.25984">
        <ele>452.62</ele>
        <time>2017-04-06T05:59:02Z</time>
      </trkpt>
      <trkpt lat="43.03942" lon="-0.25984">
        <ele>453.01</ele>
        <time>2017-04-06T05:59:22Z</time>
      </trkpt>
      <trkpt lat="43.03947" lon="-0.25978">
        <ele>453.99</ele>
        <time>2017-04-06T05:59:39Z</time>
      </trkpt>
      <trkpt lat="43.03955" lon="-0.25971">
        <ele>455.99</ele>
        <time>2017-04-06T05:59:55Z</time>
      </trkpt>
      <trkpt lat="43.03962" lon="-0.25971">
        <ele>457.07</ele>
        <time>2017-04-06T06:00:11Z</time>
      </trkpt>
      <trkpt lat="43.03962" lon="-0.25971">
        <ele>457.18</ele>
        <time>2017-04-06T06:00:16Z</time>
      </trkpt>
      <trkpt lat="43.03969" lon="-0.25969">
        <ele>458.1</ele>
        <time>2017-04-06T06:00:30Z</time>
      </trkpt>
      <trkpt lat="43.03972" lon="-0.25965">
        <ele>459.01</ele>
        <time>2017-04-06T06:00:43Z</time>
      </trkpt>
      <trkpt lat="43.03981" lon="-0.25967">
        <ele>460.26</ele>
        <time>2017-04-06T06:00:55Z</time>
      </trkpt>
      <trkpt lat="43.03984" lon="-0.25967">
        <ele>461.04</ele>
        <time>2017-04-06T06:01:04Z</time>
      </trkpt>
      <trkpt lat="43.03986" lon="-0.25958">
        <ele>462.47</ele>
        <time>2017-04-06T06:01:22Z</time>
      </trkpt>
      <trkpt lat="43.03979" lon="-0.25942">
        <ele>464.71</ele>
        <time>2017-04-06T06:01:41Z</time>
      </trkpt>
      <trkpt lat="43.03975" lon="-0.25937">
        <ele>465.43</ele>
        <time>2017-04-06T06:01:51Z</time>
      </trkpt>
      <trkpt lat="43.03969" lon="-0.25934">
        <ele>465.92</ele>
        <time>2017-04-06T06:02:03Z</time>
      </trkpt>
      <trkpt lat="43.03966" lon="-0.25928">
        <ele>467.26</ele>
        <time>2017-04-06T06:02:24Z</time>
      </trkpt>
      <trkpt lat="43.03968" lon="-0.25927">
        <ele>468.49</ele>
        <time>2017-04-06T06:02:37Z</time>
      </trkpt>
      <trkpt lat="43.03977" lon="-0.25928">
        <ele>470.69</ele>
        <time>2017-04-06T06:02:53Z</time>
      </trkpt>
      <trkpt lat="43.0398" lon="-0.25929">
        <ele>471.32</ele>
        <time>2017-04-06T06:02:58Z</time>
      </trkpt>
      <trkpt lat="43.03989" lon="-0.25925">
        <ele>473.25</ele>
        <time>2017-04-06T06:03:13Z</time>
      </trkpt>
      <trkpt lat="43.03993" lon="-0.25921">
        <ele>475.35</ele>
        <time>2017-04-06T06:03:28Z</time>
      </trkpt>
      <trkpt lat="43.03994" lon="-0.25918">
        <ele>475.98</ele>
        <time>2017-04-06T06:03:33Z</time>
      </trkpt>
      <trkpt lat="43.03998" lon="-0.25908">
        <ele>477.65</ele>
        <time>2017-04-06T06:03:50Z</time>
      </trkpt>
      <trkpt lat="43.03998" lon="-0.25908">
        <ele>477.84</ele>
        <time>2017-04-06T06:03:51Z</time>
      </trkpt>
      <trkpt lat="43.04007" lon="-0.25908">
        <ele>479.73</ele>
        <time>2017-04-06T06:04:10Z</time>
      </trkpt>
      <trkpt lat="43.04011" lon="-0.25905">
        <ele>480.12</ele>
        <time>2017-04-06T06:04:20Z</time>
      </trkpt>
      <trkpt lat="43.04019" lon="-0.25905">
        <ele>480.67</ele>
        <time>2017-04-06T06:04:35Z</time>
      </trkpt>
      <trkpt lat="43.04029" lon="-0.25909">
        <ele>480.87</ele>
        <time>2017-04-06T06:04:48Z</time>
      </trkpt>
      <trkpt lat="43.04035" lon="-0.25914">
        <ele>481.22</ele>
        <time>2017-04-06T06:04:55Z</time>
      </trkpt>
      <trkpt lat="43.04047" lon="-0.2592">
        <ele>482.14</ele>
        <time>2017-04-06T06:05:08Z</time>
      </trkpt>
      <trkpt lat="43.04054" lon="-0.25922">
        <ele>483.71</ele>
        <time>2017-04-06T06:05:20Z</time>
      </trkpt>
      <trkpt lat="43.04061" lon="-0.25919">
        <ele>488.5</ele>
        <time>2017-04-06T06:05:33Z</time>
      </trkpt>
      <trkpt lat="43.04065" lon="-0.25916">
        <ele>490.77</ele>
        <time>2017-04-06T06:05:51Z</time>
      </trkpt>
      <trkpt lat="43.04072" lon="-0.25924">
        <ele>496.3</ele>
        <time>2017-04-06T06:06:10Z</time>
      </trkpt>
      <trkpt lat="43.04075" lon="-0.2593">
        <ele>499.47</ele>
        <time>2017-04-06T06:06:23Z</time>
      </trkpt>
      <trkpt lat="43.0408" lon="-0.25937">
        <ele>501.51</ele>
        <time>2017-04-06T06:06:37Z</time>
      </trkpt>
      <trkpt lat="43.04084" lon="-0.2594">
        <ele>505.42</ele>
        <time>2017-04-06T06:06:55Z</time>
      </trkpt>
      <trkpt lat="43.04091" lon="-0.25947">
        <ele>508.7</ele>
        <time>2017-04-06T06:07:10Z</time>
      </trkpt>
      <trkpt lat="43.04097" lon="-0.25954">
        <ele>511.32</ele>
        <time>2017-04-06T06:07:27Z</time>
      </trkpt>
      <trkpt lat="43.04103" lon="-0.25964">
        <ele>514.75</ele>
        <time>2017-04-06T06:07:45Z</time>
      </trkpt>
      <trkpt lat="43.04113" lon="-0.25974">
        <ele>513.72</ele>
        <time>2017-04-06T06:08:00Z</time>
      </trkpt>
      <trkpt lat="43.04119" lon="-0.25971">
        <ele>513.91</ele>
        <time>2017-04-06T06:08:16Z</time>
      </trkpt>
      <trkpt lat="43.04117" lon="-0.25949">
        <ele>517.12</ele>
        <time>2017-04-06T06:08:39Z</time>
      </trkpt>
      <trkpt lat="43.04116" lon="-0.25933">
        <ele>518.73</ele>
        <time>2017-04-06T06:08:58Z</time>
      </trkpt>
      <trkpt lat="43.04118" lon="-0.25929">
        <ele>522.49</ele>
        <time>2017-04-06T06:09:21Z</time>
      </trkpt>
      <trkpt lat="43.04122" lon="-0.25907">
        <ele>526.17</ele>
        <time>2017-04-06T06:09:45Z</time>
      </trkpt>
      <trkpt lat="43.04122" lon="-0.25905">
        <ele>527.17</ele>
        <time>2017-04-06T06:09:50Z</time>
      </trkpt>
      <trkpt lat="43.04126" lon="-0.25896">
        <ele>531.39</ele>
        <time>2017-04-06T06:10:10Z</time>
      </trkpt>
      <trkpt lat="43.04129" lon="-0.25882">
        <ele>534.74</ele>
        <time>2017-04-06T06:10:30Z</time>
      </trkpt>
      <trkpt lat="43.04135" lon="-0.25869">
        <ele>538.93</ele>
        <time>2017-04-06T06:10:50Z</time>
      </trkpt>
      <trkpt lat="43.04141" lon="-0.25872">
        <ele>541.62</ele>
        <time>2017-04-06T06:11:05Z</time>
      </trkpt>
      <trkpt lat="43.04145" lon="-0.25867">
        <ele>544</ele>
        <time>2017-04-06T06:11:19Z</time>
      </trkpt>
      <trkpt lat="43.04153" lon="-0.25857">
        <ele>546.51</ele>
        <time>2017-04-06T06:11:41Z</time>
      </trkpt>
      <trkpt lat="43.0416" lon="-0.25851">
        <ele>546.46</ele>
        <time>2017-04-06T06:11:50Z</time>
      </trkpt>
      <trkpt lat="43.04164" lon="-0.25843">
        <ele>549.05</ele>
        <time>2017-04-06T06:12:11Z</time>
      </trkpt>
      <trkpt lat="43.04162" lon="-0.25843">
        <ele>549.31</ele>
        <time>2017-04-06T06:12:14Z</time>
      </trkpt>
      <trkpt lat="43.04156" lon="-0.25845">
        <ele>549.69</ele>
        <time>2017-04-06T06:12:28Z</time>
      </trkpt>
      <trkpt lat="43.04157" lon="-0.25848">
        <ele>551.3</ele>
        <time>2017-04-06T06:13:00Z</time>
      </trkpt>
      <trkpt lat="43.04161" lon="-0.25833">
        <ele>549.1</ele>
        <time>2017-04-06T06:13:32Z</time>
      </trkpt>
      <trkpt lat="43.04162" lon="-0.25832">
        <ele>549.14</ele>
        <time>2017-04-06T06:13:34Z</time>
      </trkpt>
      <trkpt lat="43.04167" lon="-0.25815">
        <ele>551.78</ele>
        <time>2017-04-06T06:13:55Z</time>
      </trkpt>
      <trkpt lat="43.04163" lon="-0.25808">
        <ele>552.41</ele>
        <time>2017-04-06T06:14:04Z</time>
      </trkpt>
      <trkpt lat="43.04167" lon="-0.25811">
        <ele>554.39</ele>
        <time>2017-04-06T06:14:26Z</time>
      </trkpt>
      <trkpt lat="43.04168" lon="-0.25811">
        <ele>554.66</ele>
        <time>2017-04-06T06:14:27Z</time>
      </trkpt>
      <trkpt lat="43.04176" lon="-0.25812">
        <ele>556.86</ele>
        <time>2017-04-06T06:14:38Z</time>
      </trkpt>
      <trkpt lat="43.04178" lon="-0.25811">
        <ele>557.01</ele>
        <time>2017-04-06T06:14:40Z</time>
      </trkpt>
      <trkpt lat="43.04185" lon="-0.25793">
        <ele>559.65</ele>
        <time>2017-04-06T06:15:01Z</time>
      </trkpt>
      <trkpt lat="43.04192" lon="-0.25794">
        <ele>562.36</ele>
        <time>2017-04-06T06:15:20Z</time>
      </trkpt>
      <trkpt lat="43.04195" lon="-0.25781">
        <ele>563.58</ele>
        <time>2017-04-06T06:15:39Z</time>
      </trkpt>
      <trkpt lat="43.04198" lon="-0.25776">
        <ele>563.23</ele>
        <time>2017-04-06T06:15:47Z</time>
      </trkpt>
      <trkpt lat="43.04202" lon="-0.25772">
        <ele>562.97</ele>
        <time>2017-04-06T06:15:54Z</time>
      </trkpt>
      <trkpt lat="43.04204" lon="-0.25764">
        <ele>564.99</ele>
        <time>2017-04-06T06:16:01Z</time>
      </trkpt>
      <trkpt lat="43.04196" lon="-0.25767">
        <ele>568.32</ele>
        <time>2017-04-06T06:16:17Z</time>
      </trkpt>
      <trkpt lat="43.04202" lon="-0.25763">
        <ele>571.16</ele>
        <time>2017-04-06T06:16:38Z</time>
      </trkpt>
      <trkpt lat="43.0421" lon="-0.25755">
        <ele>573.88</ele>
        <time>2017-04-06T06:16:57Z</time>
      </trkpt>
      <trkpt lat="43.04222" lon="-0.25747">
        <ele>576.17</ele>
        <time>2017-04-06T06:17:14Z</time>
      </trkpt>
      <trkpt lat="43.04222" lon="-0.25739">
        <ele>575.84</ele>
        <time>2017-04-06T06:17:21Z</time>
      </trkpt>
      <trkpt lat="43.04235" lon="-0.25727">
        <ele>574.64</ele>
        <time>2017-04-06T06:17:41Z</time>
      </trkpt>
      <trkpt lat="43.04246" lon="-0.25716">
        <ele>573.47</ele>
        <time>2017-04-06T06:18:02Z</time>
      </trkpt>
      <trkpt lat="43.04265" lon="-0.25707">
        <ele>578.13</ele>
        <time>2017-04-06T06:18:23Z</time>
      </trkpt>
      <trkpt lat="43.04264" lon="-0.25704">
        <ele>578.87</ele>
        <time>2017-04-06T06:18:43Z</time>
      </trkpt>
      <trkpt lat="43.04282" lon="-0.25707">
        <ele>583.79</ele>
        <time>2017-04-06T06:19:01Z</time>
      </trkpt>
      <trkpt lat="43.04296" lon="-0.25714">
        <ele>594.8</ele>
        <time>2017-04-06T06:19:21Z</time>
      </trkpt>
      <trkpt lat="43.04295" lon="-0.25716">
        <ele>599.87</ele>
        <time>2017-04-06T06:19:36Z</time>
      </trkpt>
      <trkpt lat="43.04297" lon="-0.25722">
        <ele>607.87</ele>
        <time>2017-04-06T06:19:49Z</time>
      </trkpt>
      <trkpt lat="43.04309" lon="-0.25711">
        <ele>614.56</ele>
        <time>2017-04-06T06:20:08Z</time>
      </trkpt>
      <trkpt lat="43.04318" lon="-0.25704">
        <ele>619.98</ele>
        <time>2017-04-06T06:20:30Z</time>
      </trkpt>
      <trkpt lat="43.04316" lon="-0.25718">
        <ele>625.73</ele>
        <time>2017-04-06T06:20:49Z</time>
      </trkpt>
      <trkpt lat="43.04308" lon="-0.25723">
        <ele>628.7</ele>
        <time>2017-04-06T06:21:05Z</time>
      </trkpt>
      <trkpt lat="43.04309" lon="-0.25727">
        <ele>629</ele>
        <time>2017-04-06T06:21:08Z</time>
      </trkpt>
      <trkpt lat="43.04312" lon="-0.25731">
        <ele>629.3</ele>
        <time>2017-04-06T06:21:11Z</time>
      </trkpt>
      <trkpt lat="43.04317" lon="-0.25726">
        <ele>629.98</ele>
        <time>2017-04-06T06:21:16Z</time>
      </trkpt>
      <trkpt lat="43.04328" lon="-0.25719">
        <ele>632.92</ele>
        <time>2017-04-06T06:21:35Z</time>
      </trkpt>
      <trkpt lat="43.04332" lon="-0.25705">
        <ele>636.88</ele>
        <time>2017-04-06T06:21:53Z</time>
      </trkpt>
      <trkpt lat="43.04342" lon="-0.25698">
        <ele>640.61</ele>
        <time>2017-04-06T06:22:13Z</time>
      </trkpt>
      <trkpt lat="43.0435" lon="-0.25684">
        <ele>643.42</ele>
        <time>2017-04-06T06:22:31Z</time>
      </trkpt>
      <trkpt lat="43.04351" lon="-0.25682">
        <ele>643.92</ele>
        <time>2017-04-06T06:22:34Z</time>
      </trkpt>
      <trkpt lat="43.0435" lon="-0.257">
        <ele>647.38</ele>
        <time>2017-04-06T06:22:56Z</time>
      </trkpt>
      <trkpt lat="43.04344" lon="-0.25693">
        <ele>649.22</ele>
        <time>2017-04-06T06:23:09Z</time>
      </trkpt>
      <trkpt lat="43.04344" lon="-0.25715">
        <ele>653.05</ele>
        <time>2017-04-06T06:23:27Z</time>
      </trkpt>
      <trkpt lat="43.04343" lon="-0.25724">
        <ele>655.1</ele>
        <time>2017-04-06T06:23:34Z</time>
      </trkpt>
      <trkpt lat="43.04347" lon="-0.25756">
        <ele>659.08</ele>
        <time>2017-04-06T06:23:55Z</time>
      </trkpt>
      <trkpt lat="43.04348" lon="-0.25761">
        <ele>659.54</ele>
        <time>2017-04-06T06:24:11Z</time>
      </trkpt>
      <trkpt lat="43.04353" lon="-0.25749">
        <ele>662.98</ele>
        <time>2017-04-06T06:24:21Z</time>
      </trkpt>
      <trkpt lat="43.04362" lon="-0.25747">
        <ele>672.06</ele>
        <time>2017-04-06T06:24:42Z</time>
      </trkpt>
      <trkpt lat="43.04366" lon="-0.2574">
        <ele>674.81</ele>
        <time>2017-04-06T06:24:58Z</time>
      </trkpt>
      <trkpt lat="43.04371" lon="-0.25734">
        <ele>678.63</ele>
        <time>2017-04-06T06:25:19Z</time>
      </trkpt>
      <trkpt lat="43.04378" lon="-0.25727">
        <ele>682.38</ele>
        <time>2017-04-06T06:25:40Z</time>
      </trkpt>
      <trkpt lat="43.04385" lon="-0.25722">
        <ele>685.6</ele>
        <time>2017-04-06T06:26:00Z</time>
      </trkpt>
      <trkpt lat="43.04391" lon="-0.25714">
        <ele>687.84</ele>
        <time>2017-04-06T06:26:21Z</time>
      </trkpt>
      <trkpt lat="43.04398" lon="-0.25707">
        <ele>690.74</ele>
        <time>2017-04-06T06:26:42Z</time>
      </trkpt>
      <trkpt lat="43.04409" lon="-0.25696">
        <ele>690.9</ele>
        <time>2017-04-06T06:27:01Z</time>
      </trkpt>
      <trkpt lat="43.04417" lon="-0.25685">
        <ele>690.92</ele>
        <time>2017-04-06T06:27:17Z</time>
      </trkpt>
      <trkpt lat="43.0442" lon="-0.25679">
        <ele>691.41</ele>
        <time>2017-04-06T06:27:22Z</time>
      </trkpt>
      <trkpt lat="43.04425" lon="-0.25665">
        <ele>692.89</ele>
        <time>2017-04-06T06:27:39Z</time>
      </trkpt>
      <trkpt lat="43.04427" lon="-0.25672">
        <ele>696.58</ele>
        <time>2017-04-06T06:28:00Z</time>
      </trkpt>
      <trkpt lat="43.04427" lon="-0.2568">
        <ele>701.1</ele>
        <time>2017-04-06T06:28:21Z</time>
      </trkpt>
      <trkpt lat="43.04427" lon="-0.25695">
        <ele>705.05</ele>
        <time>2017-04-06T06:28:38Z</time>
      </trkpt>
      <trkpt lat="43.04424" lon="-0.25713">
        <ele>709.17</ele>
        <time>2017-04-06T06:28:57Z</time>
      </trkpt>
      <trkpt lat="43.04424" lon="-0.2573">
        <ele>712.03</ele>
        <time>2017-04-06T06:29:13Z</time>
      </trkpt>
      <trkpt lat="43.04421" lon="-0.25741">
        <ele>715.59</ele>
        <time>2017-04-06T06:29:31Z</time>
      </trkpt>
      <trkpt lat="43.04419" lon="-0.25746">
        <ele>722.97</ele>
        <time>2017-04-06T06:30:04Z</time>
      </trkpt>
      <trkpt lat="43.04415" lon="-0.2574">
        <ele>727.29</ele>
        <time>2017-04-06T06:30:31Z</time>
      </trkpt>
      <trkpt lat="43.04412" lon="-0.25737">
        <ele>722.16</ele>
        <time>2017-04-06T06:31:06Z</time>
      </trkpt>
      <trkpt lat="43.04414" lon="-0.25739">
        <ele>725.37</ele>
        <time>2017-04-06T06:31:39Z</time>
      </trkpt>
      <trkpt lat="43.04416" lon="-0.25744">
        <ele>724.92</ele>
        <time>2017-04-06T06:31:59Z</time>
      </trkpt>
      <trkpt lat="43.04416" lon="-0.25756">
        <ele>724.39</ele>
        <time>2017-04-06T06:32:16Z</time>
      </trkpt>
      <trkpt lat="43.0442" lon="-0.25768">
        <ele>723.87</ele>
        <time>2017-04-06T06:32:34Z</time>
      </trkpt>
      <trkpt lat="43.04424" lon="-0.25763">
        <ele>727.41</ele>
        <time>2017-04-06T06:32:55Z</time>
      </trkpt>
      <trkpt lat="43.04434" lon="-0.2575">
        <ele>729.3</ele>
        <time>2017-04-06T06:33:13Z</time>
      </trkpt>
      <trkpt lat="43.04442" lon="-0.25743">
        <ele>733.25</ele>
        <time>2017-04-06T06:33:29Z</time>
      </trkpt>
      <trkpt lat="43.04451" lon="-0.25732">
        <ele>736.01</ele>
        <time>2017-04-06T06:33:46Z</time>
      </trkpt>
      <trkpt lat="43.04461" lon="-0.25721">
        <ele>739.64</ele>
        <time>2017-04-06T06:34:02Z</time>
      </trkpt>
      <trkpt lat="43.04468" lon="-0.25708">
        <ele>743.57</ele>
        <time>2017-04-06T06:34:20Z</time>
      </trkpt>
      <trkpt lat="43.04475" lon="-0.25695">
        <ele>747.66</ele>
        <time>2017-04-06T06:34:39Z</time>
      </trkpt>
      <trkpt lat="43.04485" lon="-0.25683">
        <ele>751.41</ele>
        <time>2017-04-06T06:34:59Z</time>
      </trkpt>
      <trkpt lat="43.0449" lon="-0.25671">
        <ele>753.63</ele>
        <time>2017-04-06T06:35:17Z</time>
      </trkpt>
      <trkpt lat="43.04496" lon="-0.25655">
        <ele>755</ele>
        <time>2017-04-06T06:35:38Z</time>
      </trkpt>
      <trkpt lat="43.04506" lon="-0.25651">
        <ele>757.37</ele>
        <time>2017-04-06T06:35:57Z</time>
      </trkpt>
      <trkpt lat="43.04507" lon="-0.25668">
        <ele>759.6</ele>
        <time>2017-04-06T06:36:16Z</time>
      </trkpt>
      <trkpt lat="43.04505" lon="-0.25688">
        <ele>762.87</ele>
        <time>2017-04-06T06:36:34Z</time>
      </trkpt>
      <trkpt lat="43.04505" lon="-0.25708">
        <ele>766.75</ele>
        <time>2017-04-06T06:36:55Z</time>
      </trkpt>
      <trkpt lat="43.04503" lon="-0.25724">
        <ele>771.36</ele>
        <time>2017-04-06T06:37:12Z</time>
      </trkpt>
      <trkpt lat="43.04502" lon="-0.25739">
        <ele>775.81</ele>
        <time>2017-04-06T06:37:28Z</time>
      </trkpt>
      <trkpt lat="43.04503" lon="-0.25754">
        <ele>779.9</ele>
        <time>2017-04-06T06:37:44Z</time>
      </trkpt>
      <trkpt lat="43.0451" lon="-0.25763">
        <ele>784.23</ele>
        <time>2017-04-06T06:38:00Z</time>
      </trkpt>
      <trkpt lat="43.04513" lon="-0.25759">
        <ele>788.51</ele>
        <time>2017-04-06T06:38:15Z</time>
      </trkpt>
      <trkpt lat="43.04514" lon="-0.25746">
        <ele>793.33</ele>
        <time>2017-04-06T06:38:30Z</time>
      </trkpt>
      <trkpt lat="43.04522" lon="-0.25738">
        <ele>798.47</ele>
        <time>2017-04-06T06:38:47Z</time>
      </trkpt>
      <trkpt lat="43.04529" lon="-0.2573">
        <ele>802.35</ele>
        <time>2017-04-06T06:39:02Z</time>
      </trkpt>
      <trkpt lat="43.04535" lon="-0.25718">
        <ele>804.9</ele>
        <time>2017-04-06T06:39:18Z</time>
      </trkpt>
      <trkpt lat="43.04542" lon="-0.25707">
        <ele>807.17</ele>
        <time>2017-04-06T06:39:33Z</time>
      </trkpt>
      <trkpt lat="43.0455" lon="-0.25696">
        <ele>809.3</ele>
        <time>2017-04-06T06:39:49Z</time>
      </trkpt>
      <trkpt lat="43.04558" lon="-0.25687">
        <ele>811.49</ele>
        <time>2017-04-06T06:40:07Z</time>
      </trkpt>
      <trkpt lat="43.04568" lon="-0.25676">
        <ele>813.65</ele>
        <time>2017-04-06T06:40:28Z</time>
      </trkpt>
      <trkpt lat="43.04576" lon="-0.25668">
        <ele>815.43</ele>
        <time>2017-04-06T06:40:49Z</time>
      </trkpt>
      <trkpt lat="43.04586" lon="-0.25661">
        <ele>817.5</ele>
        <time>2017-04-06T06:41:10Z</time>
      </trkpt>
      <trkpt lat="43.04595" lon="-0.25652">
        <ele>818.84</ele>
        <time>2017-04-06T06:41:28Z</time>
      </trkpt>
      <trkpt lat="43.04601" lon="-0.25648">
        <ele>819.93</ele>
        <time>2017-04-06T06:41:45Z</time>
      </trkpt>
      <trkpt lat="43.04595" lon="-0.25658">
        <ele>820.79</ele>
        <time>2017-04-06T06:42:03Z</time>
      </trkpt>
      <trkpt lat="43.04591" lon="-0.2568">
        <ele>824.19</ele>
        <time>2017-04-06T06:42:25Z</time>
      </trkpt>
      <trkpt lat="43.04604" lon="-0.25673">
        <ele>826.59</ele>
        <time>2017-04-06T06:42:47Z</time>
      </trkpt>
      <trkpt lat="43.04616" lon="-0.25658">
        <ele>826.7</ele>
        <time>2017-04-06T06:43:11Z</time>
      </trkpt>
      <trkpt lat="43.04626" lon="-0.25647">
        <ele>829.19</ele>
        <time>2017-04-06T06:43:34Z</time>
      </trkpt>
      <trkpt lat="43.04637" lon="-0.25632">
        <ele>830.78</ele>
        <time>2017-04-06T06:43:55Z</time>
      </trkpt>
      <trkpt lat="43.04637" lon="-0.25619">
        <ele>831.64</ele>
        <time>2017-04-06T06:44:17Z</time>
      </trkpt>
      <trkpt lat="43.04632" lon="-0.25603">
        <ele>830.01</ele>
        <time>2017-04-06T06:44:38Z</time>
      </trkpt>
      <trkpt lat="43.04627" lon="-0.25586">
        <ele>830.37</ele>
        <time>2017-04-06T06:45:02Z</time>
      </trkpt>
      <trkpt lat="43.04622" lon="-0.25565">
        <ele>832.64</ele>
        <time>2017-04-06T06:45:20Z</time>
      </trkpt>
      <trkpt lat="43.04627" lon="-0.25558">
        <ele>833.65</ele>
        <time>2017-04-06T06:45:40Z</time>
      </trkpt>
      <trkpt lat="43.04629" lon="-0.25558">
        <ele>836.79</ele>
        <time>2017-04-06T06:45:59Z</time>
      </trkpt>
      <trkpt lat="43.04637" lon="-0.25549">
        <ele>839.09</ele>
        <time>2017-04-06T06:46:20Z</time>
      </trkpt>
      <trkpt lat="43.04644" lon="-0.25554">
        <ele>841.91</ele>
        <time>2017-04-06T06:46:40Z</time>
      </trkpt>
      <trkpt lat="43.0465" lon="-0.25567">
        <ele>845.12</ele>
        <time>2017-04-06T06:46:57Z</time>
      </trkpt>
      <trkpt lat="43.04658" lon="-0.25578">
        <ele>848.5</ele>
        <time>2017-04-06T06:47:18Z</time>
      </trkpt>
      <trkpt lat="43.04666" lon="-0.25575">
        <ele>851.67</ele>
        <time>2017-04-06T06:47:39Z</time>
      </trkpt>
      <trkpt lat="43.04677" lon="-0.25582">
        <ele>854.75</ele>
        <time>2017-04-06T06:47:56Z</time>
      </trkpt>
      <trkpt lat="43.04685" lon="-0.25593">
        <ele>859.47</ele>
        <time>2017-04-06T06:48:15Z</time>
      </trkpt>
      <trkpt lat="43.04697" lon="-0.25604">
        <ele>863.58</ele>
        <time>2017-04-06T06:48:33Z</time>
      </trkpt>
      <trkpt lat="43.04707" lon="-0.25614">
        <ele>867.26</ele>
        <time>2017-04-06T06:48:50Z</time>
      </trkpt>
      <trkpt lat="43.0472" lon="-0.25627">
        <ele>872.35</ele>
        <time>2017-04-06T06:49:10Z</time>
      </trkpt>
      <trkpt lat="43.04732" lon="-0.25628">
        <ele>877.71</ele>
        <time>2017-04-06T06:49:29Z</time>
      </trkpt>
      <trkpt lat="43.04744" lon="-0.25623">
        <ele>883.44</ele>
        <time>2017-04-06T06:49:47Z</time>
      </trkpt>
      <trkpt lat="43.04742" lon="-0.25621">
        <ele>885.11</ele>
        <time>2017-04-06T06:50:09Z</time>
      </trkpt>
      <trkpt lat="43.04746" lon="-0.25621">
        <ele>885.1</ele>
        <time>2017-04-06T06:50:36Z</time>
      </trkpt>
      <trkpt lat="43.04747" lon="-0.25623">
        <ele>885.81</ele>
        <time>2017-04-06T06:51:00Z</time>
      </trkpt>
      <trkpt lat="43.04747" lon="-0.25621">
        <ele>887.74</ele>
        <time>2017-04-06T06:51:26Z</time>
      </trkpt>
      <trkpt lat="43.04746" lon="-0.2562">
        <ele>889.41</ele>
        <time>2017-04-06T06:51:53Z</time>
      </trkpt>
      <trkpt lat="43.04746" lon="-0.25621">
        <ele>889.28</ele>
        <time>2017-04-06T06:52:21Z</time>
      </trkpt>
      <trkpt lat="43.04748" lon="-0.25621">
        <ele>889.77</ele>
        <time>2017-04-06T06:52:55Z</time>
      </trkpt>
      <trkpt lat="43.04748" lon="-0.25623">
        <ele>890.05</ele>
        <time>2017-04-06T06:53:25Z</time>
      </trkpt>
      <trkpt lat="43.04748" lon="-0.2562">
        <ele>888.45</ele>
        <time>2017-04-06T06:53:53Z</time>
      </trkpt>
      <trkpt lat="43.04747" lon="-0.25622">
        <ele>887.23</ele>
        <time>2017-04-06T06:54:22Z</time>
      </trkpt>
      <trkpt lat="43.04749" lon="-0.25621">
        <ele>885.73</ele>
        <time>2017-04-06T06:54:53Z</time>
      </trkpt>
      <trkpt lat="43.04748" lon="-0.25623">
        <ele>884.51</ele>
        <time>2017-04-06T06:55:24Z</time>
      </trkpt>
      <trkpt lat="43.04747" lon="-0.25619">
        <ele>884.54</ele>
        <time>2017-04-06T06:55:58Z</time>
      </trkpt>
      <trkpt lat="43.04748" lon="-0.25613">
        <ele>883.85</ele>
        <time>2017-04-06T06:56:13Z</time>
      </trkpt>
      <trkpt lat="43.0475" lon="-0.25595">
        <ele>884.7</ele>
        <time>2017-04-06T06:56:30Z</time>
      </trkpt>
      <trkpt lat="43.0475" lon="-0.25579">
        <ele>886.99</ele>
        <time>2017-04-06T06:56:47Z</time>
      </trkpt>
      <trkpt lat="43.0475" lon="-0.25565">
        <ele>889.68</ele>
        <time>2017-04-06T06:57:05Z</time>
      </trkpt>
      <trkpt lat="43.04752" lon="-0.25554">
        <ele>892.9</ele>
        <time>2017-04-06T06:57:24Z</time>
      </trkpt>
      <trkpt lat="43.04757" lon="-0.25544">
        <ele>895.69</ele>
        <time>2017-04-06T06:57:43Z</time>
      </trkpt>
      <trkpt lat="43.04753" lon="-0.25534">
        <ele>898.18</ele>
        <time>2017-04-06T06:58:00Z</time>
      </trkpt>
      <trkpt lat="43.04753" lon="-0.25524">
        <ele>901.17</ele>
        <time>2017-04-06T06:58:21Z</time>
      </trkpt>
      <trkpt lat="43.04754" lon="-0.25516">
        <ele>902.75</ele>
        <time>2017-04-06T06:58:41Z</time>
      </trkpt>
      <trkpt lat="43.04759" lon="-0.25507">
        <ele>903.39</ele>
        <time>2017-04-06T06:59:02Z</time>
      </trkpt>
      <trkpt lat="43.04757" lon="-0.25496">
        <ele>904.19</ele>
        <time>2017-04-06T06:59:21Z</time>
      </trkpt>
      <trkpt lat="43.04765" lon="-0.25494">
        <ele>905.57</ele>
        <time>2017-04-06T06:59:41Z</time>
      </trkpt>
      <trkpt lat="43.0477" lon="-0.25481">
        <ele>906.83</ele>
        <time>2017-04-06T06:59:59Z</time>
      </trkpt>
      <trkpt lat="43.04776" lon="-0.25474">
        <ele>908.11</ele>
        <time>2017-04-06T07:00:17Z</time>
      </trkpt>
      <trkpt lat="43.04779" lon="-0.25461">
        <ele>910.17</ele>
        <time>2017-04-06T07:00:39Z</time>
      </trkpt>
      <trkpt lat="43.04776" lon="-0.25451">
        <ele>912.93</ele>
        <time>2017-04-06T07:00:59Z</time>
      </trkpt>
      <trkpt lat="43.04784" lon="-0.25442">
        <ele>914.93</ele>
        <time>2017-04-06T07:01:19Z</time>
      </trkpt>
      <trkpt lat="43.04784" lon="-0.25433">
        <ele>916.58</ele>
        <time>2017-04-06T07:01:37Z</time>
      </trkpt>
      <trkpt lat="43.04788" lon="-0.25421">
        <ele>920.04</ele>
        <time>2017-04-06T07:01:59Z</time>
      </trkpt>
      <trkpt lat="43.04794" lon="-0.25412">
        <ele>923.16</ele>
        <time>2017-04-06T07:02:22Z</time>
      </trkpt>
      <trkpt lat="43.04801" lon="-0.25399">
        <ele>925.72</ele>
        <time>2017-04-06T07:02:41Z</time>
      </trkpt>
      <trkpt lat="43.04799" lon="-0.25393">
        <ele>928.67</ele>
        <time>2017-04-06T07:02:59Z</time>
      </trkpt>
      <trkpt lat="43.04803" lon="-0.25386">
        <ele>931.71</ele>
        <time>2017-04-06T07:03:16Z</time>
      </trkpt>
      <trkpt lat="43.04809" lon="-0.25378">
        <ele>933.1</ele>
        <time>2017-04-06T07:03:33Z</time>
      </trkpt>
      <trkpt lat="43.04802" lon="-0.25367">
        <ele>935.94</ele>
        <time>2017-04-06T07:03:58Z</time>
      </trkpt>
      <trkpt lat="43.04801" lon="-0.25359">
        <ele>939.15</ele>
        <time>2017-04-06T07:04:19Z</time>
      </trkpt>
      <trkpt lat="43.04791" lon="-0.25353">
        <ele>943.56</ele>
        <time>2017-04-06T07:04:40Z</time>
      </trkpt>
      <trkpt lat="43.04789" lon="-0.25343">
        <ele>945.75</ele>
        <time>2017-04-06T07:04:58Z</time>
      </trkpt>
      <trkpt lat="43.04783" lon="-0.25334">
        <ele>947.6</ele>
        <time>2017-04-06T07:05:16Z</time>
      </trkpt>
      <trkpt lat="43.04778" lon="-0.25328">
        <ele>948.89</ele>
        <time>2017-04-06T07:05:30Z</time>
      </trkpt>
      <trkpt lat="43.0477" lon="-0.2532">
        <ele>950.69</ele>
        <time>2017-04-06T07:05:48Z</time>
      </trkpt>
      <trkpt lat="43.04758" lon="-0.25315">
        <ele>952.95</ele>
        <time>2017-04-06T07:06:09Z</time>
      </trkpt>
      <trkpt lat="43.04755" lon="-0.25313">
        <ele>953.88</ele>
        <time>2017-04-06T07:06:17Z</time>
      </trkpt>
      <trkpt lat="43.04742" lon="-0.25306">
        <ele>956.25</ele>
        <time>2017-04-06T07:06:37Z</time>
      </trkpt>
      <trkpt lat="43.04735" lon="-0.25291">
        <ele>958.77</ele>
        <time>2017-04-06T07:07:01Z</time>
      </trkpt>
      <trkpt lat="43.04732" lon="-0.25281">
        <ele>960.91</ele>
        <time>2017-04-06T07:07:21Z</time>
      </trkpt>
      <trkpt lat="43.04726" lon="-0.25273">
        <ele>962.57</ele>
        <time>2017-04-06T07:07:38Z</time>
      </trkpt>
      <trkpt lat="43.04722" lon="-0.2526">
        <ele>965.26</ele>
        <time>2017-04-06T07:08:01Z</time>
      </trkpt>
      <trkpt lat="43.04718" lon="-0.25251">
        <ele>966.93</ele>
        <time>2017-04-06T07:08:18Z</time>
      </trkpt>
      <trkpt lat="43.04714" lon="-0.2524">
        <ele>970.93</ele>
        <time>2017-04-06T07:08:40Z</time>
      </trkpt>
      <trkpt lat="43.04708" lon="-0.25227">
        <ele>976.04</ele>
        <time>2017-04-06T07:08:59Z</time>
      </trkpt>
      <trkpt lat="43.04705" lon="-0.25215">
        <ele>979.63</ele>
        <time>2017-04-06T07:09:18Z</time>
      </trkpt>
      <trkpt lat="43.04702" lon="-0.25203">
        <ele>981.49</ele>
        <time>2017-04-06T07:09:40Z</time>
      </trkpt>
      <trkpt lat="43.04703" lon="-0.25202">
        <ele>981.54</ele>
        <time>2017-04-06T07:09:41Z</time>
      </trkpt>
      <trkpt lat="43.04697" lon="-0.25189">
        <ele>985.05</ele>
        <time>2017-04-06T07:10:04Z</time>
      </trkpt>
      <trkpt lat="43.04692" lon="-0.25176">
        <ele>988.38</ele>
        <time>2017-04-06T07:10:25Z</time>
      </trkpt>
      <trkpt lat="43.04684" lon="-0.25163">
        <ele>991.47</ele>
        <time>2017-04-06T07:10:44Z</time>
      </trkpt>
      <trkpt lat="43.04677" lon="-0.25148">
        <ele>996.18</ele>
        <time>2017-04-06T07:11:05Z</time>
      </trkpt>
      <trkpt lat="43.04671" lon="-0.25135">
        <ele>1000.52</ele>
        <time>2017-04-06T07:11:25Z</time>
      </trkpt>
      <trkpt lat="43.04664" lon="-0.25121">
        <ele>1004.23</ele>
        <time>2017-04-06T07:11:46Z</time>
      </trkpt>
      <trkpt lat="43.04657" lon="-0.25112">
        <ele>1008.44</ele>
        <time>2017-04-06T07:12:04Z</time>
      </trkpt>
      <trkpt lat="43.04647" lon="-0.25099">
        <ele>1011.77</ele>
        <time>2017-04-06T07:12:29Z</time>
      </trkpt>
      <trkpt lat="43.04639" lon="-0.25085">
        <ele>1015.75</ele>
        <time>2017-04-06T07:12:51Z</time>
      </trkpt>
      <trkpt lat="43.04633" lon="-0.25076">
        <ele>1019.27</ele>
        <time>2017-04-06T07:13:10Z</time>
      </trkpt>
      <trkpt lat="43.04629" lon="-0.2507">
        <ele>1023.26</ele>
        <time>2017-04-06T07:13:29Z</time>
      </trkpt>
      <trkpt lat="43.04624" lon="-0.25061">
        <ele>1025.99</ele>
        <time>2017-04-06T07:13:49Z</time>
      </trkpt>
      <trkpt lat="43.04616" lon="-0.25056">
        <ele>1028.89</ele>
        <time>2017-04-06T07:14:11Z</time>
      </trkpt>
      <trkpt lat="43.04608" lon="-0.25051">
        <ele>1031.24</ele>
        <time>2017-04-06T07:14:31Z</time>
      </trkpt>
      <trkpt lat="43.04599" lon="-0.25042">
        <ele>1034.03</ele>
        <time>2017-04-06T07:14:53Z</time>
      </trkpt>
      <trkpt lat="43.04591" lon="-0.25033">
        <ele>1036.39</ele>
        <time>2017-04-06T07:15:13Z</time>
      </trkpt>
      <trkpt lat="43.04587" lon="-0.25026">
        <ele>1039.05</ele>
        <time>2017-04-06T07:15:34Z</time>
      </trkpt>
      <trkpt lat="43.04581" lon="-0.25022">
        <ele>1042.2</ele>
        <time>2017-04-06T07:15:54Z</time>
      </trkpt>
      <trkpt lat="43.0457" lon="-0.25024">
        <ele>1046.67</ele>
        <time>2017-04-06T07:16:13Z</time>
      </trkpt>
      <trkpt lat="43.04562" lon="-0.25013">
        <ele>1049.3</ele>
        <time>2017-04-06T07:16:34Z</time>
      </trkpt>
      <trkpt lat="43.04553" lon="-0.25004">
        <ele>1051.77</ele>
        <time>2017-04-06T07:16:56Z</time>
      </trkpt>
      <trkpt lat="43.04544" lon="-0.24999">
        <ele>1054.27</ele>
        <time>2017-04-06T07:17:18Z</time>
      </trkpt>
      <trkpt lat="43.04536" lon="-0.24996">
        <ele>1056.27</ele>
        <time>2017-04-06T07:17:37Z</time>
      </trkpt>
      <trkpt lat="43.04535" lon="-0.25008">
        <ele>1059.4</ele>
        <time>2017-04-06T07:17:56Z</time>
      </trkpt>
      <trkpt lat="43.04521" lon="-0.25002">
        <ele>1065.31</ele>
        <time>2017-04-06T07:18:20Z</time>
      </trkpt>
      <trkpt lat="43.04527" lon="-0.24998">
        <ele>1069.14</ele>
        <time>2017-04-06T07:18:37Z</time>
      </trkpt>
      <trkpt lat="43.04528" lon="-0.24994">
        <ele>1073.64</ele>
        <time>2017-04-06T07:18:53Z</time>
      </trkpt>
      <trkpt lat="43.04531" lon="-0.2499">
        <ele>1076.19</ele>
        <time>2017-04-06T07:19:09Z</time>
      </trkpt>
      <trkpt lat="43.04531" lon="-0.24983">
        <ele>1079.37</ele>
        <time>2017-04-06T07:19:28Z</time>
      </trkpt>
      <trkpt lat="43.04532" lon="-0.24975">
        <ele>1081.83</ele>
        <time>2017-04-06T07:19:44Z</time>
      </trkpt>
      <trkpt lat="43.04539" lon="-0.24971">
        <ele>1084.69</ele>
        <time>2017-04-06T07:20:01Z</time>
      </trkpt>
      <trkpt lat="43.04546" lon="-0.24975">
        <ele>1088.22</ele>
        <time>2017-04-06T07:20:17Z</time>
      </trkpt>
      <trkpt lat="43.04555" lon="-0.24969">
        <ele>1092.65</ele>
        <time>2017-04-06T07:20:36Z</time>
      </trkpt>
      <trkpt lat="43.04562" lon="-0.24964">
        <ele>1096.46</ele>
        <time>2017-04-06T07:20:55Z</time>
      </trkpt>
      <trkpt lat="43.04568" lon="-0.24961">
        <ele>1099.88</ele>
        <time>2017-04-06T07:21:12Z</time>
      </trkpt>
      <trkpt lat="43.04575" lon="-0.24961">
        <ele>1104.15</ele>
        <time>2017-04-06T07:21:29Z</time>
      </trkpt>
      <trkpt lat="43.04579" lon="-0.2496">
        <ele>1107.25</ele>
        <time>2017-04-06T07:21:48Z</time>
      </trkpt>
      <trkpt lat="43.0458" lon="-0.24951">
        <ele>1109.63</ele>
        <time>2017-04-06T07:22:05Z</time>
      </trkpt>
      <trkpt lat="43.04575" lon="-0.24938">
        <ele>1112.66</ele>
        <time>2017-04-06T07:22:25Z</time>
      </trkpt>
      <trkpt lat="43.04578" lon="-0.24933">
        <ele>1116.94</ele>
        <time>2017-04-06T07:22:45Z</time>
      </trkpt>
      <trkpt lat="43.04584" lon="-0.24935">
        <ele>1119.97</ele>
        <time>2017-04-06T07:23:04Z</time>
      </trkpt>
      <trkpt lat="43.0459" lon="-0.24932">
        <ele>1123.95</ele>
        <time>2017-04-06T07:23:21Z</time>
      </trkpt>
      <trkpt lat="43.04585" lon="-0.24922">
        <ele>1126.95</ele>
        <time>2017-04-06T07:23:39Z</time>
      </trkpt>
      <trkpt lat="43.0458" lon="-0.24911">
        <ele>1130.17</ele>
        <time>2017-04-06T07:23:59Z</time>
      </trkpt>
      <trkpt lat="43.04573" lon="-0.24897">
        <ele>1133.92</ele>
        <time>2017-04-06T07:24:18Z</time>
      </trkpt>
      <trkpt lat="43.04567" lon="-0.24886">
        <ele>1137.01</ele>
        <time>2017-04-06T07:24:39Z</time>
      </trkpt>
      <trkpt lat="43.04559" lon="-0.24871">
        <ele>1138.6</ele>
        <time>2017-04-06T07:25:01Z</time>
      </trkpt>
      <trkpt lat="43.04564" lon="-0.24871">
        <ele>1140.67</ele>
        <time>2017-04-06T07:25:18Z</time>
      </trkpt>
      <trkpt lat="43.04571" lon="-0.24871">
        <ele>1147.38</ele>
        <time>2017-04-06T07:25:37Z</time>
      </trkpt>
      <trkpt lat="43.04569" lon="-0.2486">
        <ele>1149.79</ele>
        <time>2017-04-06T07:25:57Z</time>
      </trkpt>
      <trkpt lat="43.04564" lon="-0.2485">
        <ele>1151.89</ele>
        <time>2017-04-06T07:26:18Z</time>
      </trkpt>
      <trkpt lat="43.04562" lon="-0.24834">
        <ele>1154.24</ele>
        <time>2017-04-06T07:26:35Z</time>
      </trkpt>
      <trkpt lat="43.04555" lon="-0.24822">
        <ele>1157.17</ele>
        <time>2017-04-06T07:26:54Z</time>
      </trkpt>
      <trkpt lat="43.04549" lon="-0.24808">
        <ele>1160.01</ele>
        <time>2017-04-06T07:27:14Z</time>
      </trkpt>
      <trkpt lat="43.0454" lon="-0.24795">
        <ele>1163.54</ele>
        <time>2017-04-06T07:27:34Z</time>
      </trkpt>
      <trkpt lat="43.04539" lon="-0.24783">
        <ele>1166.84</ele>
        <time>2017-04-06T07:27:55Z</time>
      </trkpt>
      <trkpt lat="43.04534" lon="-0.24765">
        <ele>1169.31</ele>
        <time>2017-04-06T07:28:19Z</time>
      </trkpt>
      <trkpt lat="43.04527" lon="-0.24752">
        <ele>1169.5</ele>
        <time>2017-04-06T07:28:38Z</time>
      </trkpt>
      <trkpt lat="43.04532" lon="-0.24739">
        <ele>1171.72</ele>
        <time>2017-04-06T07:28:58Z</time>
      </trkpt>
      <trkpt lat="43.04533" lon="-0.24726">
        <ele>1175.62</ele>
        <time>2017-04-06T07:29:19Z</time>
      </trkpt>
      <trkpt lat="43.04529" lon="-0.24722">
        <ele>1178.45</ele>
        <time>2017-04-06T07:29:39Z</time>
      </trkpt>
      <trkpt lat="43.04529" lon="-0.24705">
        <ele>1183.04</ele>
        <time>2017-04-06T07:30:00Z</time>
      </trkpt>
      <trkpt lat="43.04521" lon="-0.24693">
        <ele>1187.64</ele>
        <time>2017-04-06T07:30:21Z</time>
      </trkpt>
      <trkpt lat="43.04524" lon="-0.24681">
        <ele>1190.28</ele>
        <time>2017-04-06T07:30:42Z</time>
      </trkpt>
      <trkpt lat="43.04528" lon="-0.24675">
        <ele>1189.72</ele>
        <time>2017-04-06T07:31:00Z</time>
      </trkpt>
      <trkpt lat="43.0453" lon="-0.24663">
        <ele>1191.44</ele>
        <time>2017-04-06T07:31:21Z</time>
      </trkpt>
      <trkpt lat="43.04525" lon="-0.24655">
        <ele>1192.48</ele>
        <time>2017-04-06T07:31:40Z</time>
      </trkpt>
      <trkpt lat="43.04511" lon="-0.24642">
        <ele>1192.03</ele>
        <time>2017-04-06T07:31:59Z</time>
      </trkpt>
      <trkpt lat="43.04501" lon="-0.24632">
        <ele>1192.47</ele>
        <time>2017-04-06T07:32:18Z</time>
      </trkpt>
      <trkpt lat="43.045" lon="-0.2463">
        <ele>1192.57</ele>
        <time>2017-04-06T07:32:21Z</time>
      </trkpt>
      <trkpt lat="43.04483" lon="-0.24608">
        <ele>1193.62</ele>
        <time>2017-04-06T07:32:44Z</time>
      </trkpt>
      <trkpt lat="43.04479" lon="-0.24601">
        <ele>1194.94</ele>
        <time>2017-04-06T07:33:02Z</time>
      </trkpt>
      <trkpt lat="43.04472" lon="-0.24591">
        <ele>1197.77</ele>
        <time>2017-04-06T07:33:23Z</time>
      </trkpt>
      <trkpt lat="43.04457" lon="-0.24581">
        <ele>1199.25</ele>
        <time>2017-04-06T07:33:43Z</time>
      </trkpt>
      <trkpt lat="43.04448" lon="-0.2457">
        <ele>1200.17</ele>
        <time>2017-04-06T07:33:59Z</time>
      </trkpt>
      <trkpt lat="43.04441" lon="-0.24559">
        <ele>1199.45</ele>
        <time>2017-04-06T07:34:12Z</time>
      </trkpt>
      <trkpt lat="43.04426" lon="-0.24544">
        <ele>1202.66</ele>
        <time>2017-04-06T07:34:30Z</time>
      </trkpt>
      <trkpt lat="43.04419" lon="-0.2453">
        <ele>1207.99</ele>
        <time>2017-04-06T07:34:50Z</time>
      </trkpt>
      <trkpt lat="43.04406" lon="-0.24518">
        <ele>1212.04</ele>
        <time>2017-04-06T07:35:07Z</time>
      </trkpt>
      <trkpt lat="43.04413" lon="-0.24499">
        <ele>1214.54</ele>
        <time>2017-04-06T07:35:28Z</time>
      </trkpt>
      <trkpt lat="43.04413" lon="-0.24491">
        <ele>1216.5</ele>
        <time>2017-04-06T07:35:42Z</time>
      </trkpt>
      <trkpt lat="43.0441" lon="-0.24482">
        <ele>1221.25</ele>
        <time>2017-04-06T07:36:02Z</time>
      </trkpt>
      <trkpt lat="43.04407" lon="-0.24476">
        <ele>1223.19</ele>
        <time>2017-04-06T07:36:13Z</time>
      </trkpt>
      <trkpt lat="43.04406" lon="-0.24471">
        <ele>1229.63</ele>
        <time>2017-04-06T07:36:33Z</time>
      </trkpt>
      <trkpt lat="43.04402" lon="-0.24458">
        <ele>1231.53</ele>
        <time>2017-04-06T07:36:51Z</time>
      </trkpt>
      <trkpt lat="43.04399" lon="-0.24438">
        <ele>1236.7</ele>
        <time>2017-04-06T07:37:15Z</time>
      </trkpt>
      <trkpt lat="43.04402" lon="-0.24425">
        <ele>1239.89</ele>
        <time>2017-04-06T07:37:35Z</time>
      </trkpt>
      <trkpt lat="43.04402" lon="-0.24414">
        <ele>1242.72</ele>
        <time>2017-04-06T07:37:57Z</time>
      </trkpt>
      <trkpt lat="43.044" lon="-0.24406">
        <ele>1244.03</ele>
        <time>2017-04-06T07:38:07Z</time>
      </trkpt>
      <trkpt lat="43.04403" lon="-0.24398">
        <ele>1247.27</ele>
        <time>2017-04-06T07:38:30Z</time>
      </trkpt>
      <trkpt lat="43.04417" lon="-0.24397">
        <ele>1248.83</ele>
        <time>2017-04-06T07:39:01Z</time>
      </trkpt>
      <trkpt lat="43.0442" lon="-0.24402">
        <ele>1253.48</ele>
        <time>2017-04-06T07:39:35Z</time>
      </trkpt>
      <trkpt lat="43.04412" lon="-0.24396">
        <ele>1259.44</ele>
        <time>2017-04-06T07:40:04Z</time>
      </trkpt>
      <trkpt lat="43.04404" lon="-0.24393">
        <ele>1261.17</ele>
        <time>2017-04-06T07:40:28Z</time>
      </trkpt>
      <trkpt lat="43.0441" lon="-0.24396">
        <ele>1262.44</ele>
        <time>2017-04-06T07:41:08Z</time>
      </trkpt>
      <trkpt lat="43.04419" lon="-0.24399">
        <ele>1265.54</ele>
        <time>2017-04-06T07:41:39Z</time>
      </trkpt>
      <trkpt lat="43.04405" lon="-0.244">
        <ele>1264.86</ele>
        <time>2017-04-06T07:42:11Z</time>
      </trkpt>
      <trkpt lat="43.04394" lon="-0.24396">
        <ele>1272.49</ele>
        <time>2017-04-06T07:42:39Z</time>
      </trkpt>
      <trkpt lat="43.04392" lon="-0.24398">
        <ele>1272.72</ele>
        <time>2017-04-06T07:43:10Z</time>
      </trkpt>
      <trkpt lat="43.04398" lon="-0.24402">
        <ele>1272.58</ele>
        <time>2017-04-06T07:43:39Z</time>
      </trkpt>
      <trkpt lat="43.04404" lon="-0.24403">
        <ele>1271.15</ele>
        <time>2017-04-06T07:44:06Z</time>
      </trkpt>
      <trkpt lat="43.04397" lon="-0.24395">
        <ele>1271.19</ele>
        <time>2017-04-06T07:44:31Z</time>
      </trkpt>
      <trkpt lat="43.04403" lon="-0.24386">
        <ele>1271.18</ele>
        <time>2017-04-06T07:44:50Z</time>
      </trkpt>
      <trkpt lat="43.04407" lon="-0.24374">
        <ele>1271.34</ele>
        <time>2017-04-06T07:45:09Z</time>
      </trkpt>
      <trkpt lat="43.0441" lon="-0.24363">
        <ele>1271.97</ele>
        <time>2017-04-06T07:45:30Z</time>
      </trkpt>
      <trkpt lat="43.04407" lon="-0.24341">
        <ele>1273.44</ele>
        <time>2017-04-06T07:45:51Z</time>
      </trkpt>
      <trkpt lat="43.04403" lon="-0.24323">
        <ele>1273.82</ele>
        <time>2017-04-06T07:46:12Z</time>
      </trkpt>
      <trkpt lat="43.04396" lon="-0.24311">
        <ele>1275.24</ele>
        <time>2017-04-06T07:46:32Z</time>
      </trkpt>
      <trkpt lat="43.04397" lon="-0.24299">
        <ele>1278.07</ele>
        <time>2017-04-06T07:46:55Z</time>
      </trkpt>
      <trkpt lat="43.04395" lon="-0.24285">
        <ele>1279.9</ele>
        <time>2017-04-06T07:47:12Z</time>
      </trkpt>
      <trkpt lat="43.04399" lon="-0.24278">
        <ele>1280.97</ele>
        <time>2017-04-06T07:47:19Z</time>
      </trkpt>
      <trkpt lat="43.04402" lon="-0.24266">
        <ele>1282.33</ele>
        <time>2017-04-06T07:47:37Z</time>
      </trkpt>
      <trkpt lat="43.04406" lon="-0.24252">
        <ele>1285.35</ele>
        <time>2017-04-06T07:47:57Z</time>
      </trkpt>
      <trkpt lat="43.0441" lon="-0.24236">
        <ele>1287.5</ele>
        <time>2017-04-06T07:48:16Z</time>
      </trkpt>
      <trkpt lat="43.04409" lon="-0.24221">
        <ele>1289.46</ele>
        <time>2017-04-06T07:48:36Z</time>
      </trkpt>
      <trkpt lat="43.04405" lon="-0.24212">
        <ele>1295.42</ele>
        <time>2017-04-06T07:48:56Z</time>
      </trkpt>
      <trkpt lat="43.04412" lon="-0.24198">
        <ele>1298.73</ele>
        <time>2017-04-06T07:49:19Z</time>
      </trkpt>
      <trkpt lat="43.04411" lon="-0.24185">
        <ele>1300.26</ele>
        <time>2017-04-06T07:49:34Z</time>
      </trkpt>
      <trkpt lat="43.04414" lon="-0.24166">
        <ele>1306.72</ele>
        <time>2017-04-06T07:49:57Z</time>
      </trkpt>
      <trkpt lat="43.04415" lon="-0.24148">
        <ele>1311.45</ele>
        <time>2017-04-06T07:50:19Z</time>
      </trkpt>
      <trkpt lat="43.0441" lon="-0.24134">
        <ele>1314.16</ele>
        <time>2017-04-06T07:50:36Z</time>
      </trkpt>
      <trkpt lat="43.04403" lon="-0.24119">
        <ele>1314.39</ele>
        <time>2017-04-06T07:50:57Z</time>
      </trkpt>
      <trkpt lat="43.04402" lon="-0.24108">
        <ele>1318.7</ele>
        <time>2017-04-06T07:51:16Z</time>
      </trkpt>
      <trkpt lat="43.04402" lon="-0.24095">
        <ele>1323.7</ele>
        <time>2017-04-06T07:51:34Z</time>
      </trkpt>
      <trkpt lat="43.04402" lon="-0.24091">
        <ele>1325.08</ele>
        <time>2017-04-06T07:51:39Z</time>
      </trkpt>
      <trkpt lat="43.04406" lon="-0.24074">
        <ele>1329.97</ele>
        <time>2017-04-06T07:52:01Z</time>
      </trkpt>
      <trkpt lat="43.04404" lon="-0.24065">
        <ele>1331.9</ele>
        <time>2017-04-06T07:52:14Z</time>
      </trkpt>
      <trkpt lat="43.04401" lon="-0.24052">
        <ele>1334.37</ele>
        <time>2017-04-06T07:52:37Z</time>
      </trkpt>
      <trkpt lat="43.04405" lon="-0.24038">
        <ele>1336.78</ele>
        <time>2017-04-06T07:52:57Z</time>
      </trkpt>
      <trkpt lat="43.04405" lon="-0.24036">
        <ele>1337.25</ele>
        <time>2017-04-06T07:53:00Z</time>
      </trkpt>
      <trkpt lat="43.044" lon="-0.24028">
        <ele>1339.57</ele>
        <time>2017-04-06T07:53:17Z</time>
      </trkpt>
      <trkpt lat="43.04395" lon="-0.24016">
        <ele>1344.69</ele>
        <time>2017-04-06T07:53:37Z</time>
      </trkpt>
      <trkpt lat="43.04393" lon="-0.24008">
        <ele>1347.48</ele>
        <time>2017-04-06T07:53:56Z</time>
      </trkpt>
      <trkpt lat="43.04389" lon="-0.23993">
        <ele>1350.35</ele>
        <time>2017-04-06T07:54:19Z</time>
      </trkpt>
      <trkpt lat="43.04389" lon="-0.2398">
        <ele>1351.85</ele>
        <time>2017-04-06T07:54:39Z</time>
      </trkpt>
      <trkpt lat="43.04388" lon="-0.23972">
        <ele>1353.62</ele>
        <time>2017-04-06T07:54:58Z</time>
      </trkpt>
      <trkpt lat="43.04389" lon="-0.23969">
        <ele>1356.23</ele>
        <time>2017-04-06T07:55:19Z</time>
      </trkpt>
      <trkpt lat="43.04389" lon="-0.23971">
        <ele>1357.5</ele>
        <time>2017-04-06T07:55:59Z</time>
      </trkpt>
      <trkpt lat="43.04387" lon="-0.23968">
        <ele>1357.8</ele>
        <time>2017-04-06T07:56:31Z</time>
      </trkpt>
      <trkpt lat="43.04385" lon="-0.23952">
        <ele>1362.22</ele>
        <time>2017-04-06T07:56:51Z</time>
      </trkpt>
      <trkpt lat="43.04382" lon="-0.23938">
        <ele>1365.94</ele>
        <time>2017-04-06T07:57:09Z</time>
      </trkpt>
      <trkpt lat="43.04375" lon="-0.23923">
        <ele>1369.12</ele>
        <time>2017-04-06T07:57:26Z</time>
      </trkpt>
      <trkpt lat="43.04375" lon="-0.23921">
        <ele>1370.81</ele>
        <time>2017-04-06T07:57:49Z</time>
      </trkpt>
      <trkpt lat="43.04373" lon="-0.23905">
        <ele>1372.77</ele>
        <time>2017-04-06T07:58:07Z</time>
      </trkpt>
      <trkpt lat="43.04371" lon="-0.23889">
        <ele>1375.15</ele>
        <time>2017-04-06T07:58:28Z</time>
      </trkpt>
      <trkpt lat="43.04369" lon="-0.23877">
        <ele>1377.18</ele>
        <time>2017-04-06T07:58:44Z</time>
      </trkpt>
      <trkpt lat="43.04364" lon="-0.23864">
        <ele>1380.53</ele>
        <time>2017-04-06T07:59:06Z</time>
      </trkpt>
      <trkpt lat="43.04359" lon="-0.23849">
        <ele>1382.83</ele>
        <time>2017-04-06T07:59:26Z</time>
      </trkpt>
      <trkpt lat="43.04357" lon="-0.23835">
        <ele>1386.17</ele>
        <time>2017-04-06T07:59:45Z</time>
      </trkpt>
      <trkpt lat="43.0435" lon="-0.23818">
        <ele>1391.87</ele>
        <time>2017-04-06T08:00:10Z</time>
      </trkpt>
      <trkpt lat="43.04343" lon="-0.23804">
        <ele>1396.9</ele>
        <time>2017-04-06T08:00:33Z</time>
      </trkpt>
      <trkpt lat="43.0434" lon="-0.23791">
        <ele>1401.86</ele>
        <time>2017-04-06T08:00:54Z</time>
      </trkpt>
      <trkpt lat="43.04335" lon="-0.23778">
        <ele>1404.86</ele>
        <time>2017-04-06T08:01:13Z</time>
      </trkpt>
      <trkpt lat="43.0433" lon="-0.23762">
        <ele>1408.02</ele>
        <time>2017-04-06T08:01:33Z</time>
      </trkpt>
      <trkpt lat="43.04328" lon="-0.23748">
        <ele>1411.4</ele>
        <time>2017-04-06T08:01:53Z</time>
      </trkpt>
      <trkpt lat="43.04323" lon="-0.23733">
        <ele>1415.17</ele>
        <time>2017-04-06T08:02:13Z</time>
      </trkpt>
      <trkpt lat="43.04315" lon="-0.23718">
        <ele>1418.94</ele>
        <time>2017-04-06T08:02:37Z</time>
      </trkpt>
      <trkpt lat="43.04311" lon="-0.237">
        <ele>1423.3</ele>
        <time>2017-04-06T08:03:00Z</time>
      </trkpt>
      <trkpt lat="43.04311" lon="-0.23685">
        <ele>1426.86</ele>
        <time>2017-04-06T08:03:19Z</time>
      </trkpt>
      <trkpt lat="43.0431" lon="-0.23668">
        <ele>1430.26</ele>
        <time>2017-04-06T08:03:41Z</time>
      </trkpt>
      <trkpt lat="43.04311" lon="-0.23651">
        <ele>1433.72</ele>
        <time>2017-04-06T08:04:01Z</time>
      </trkpt>
      <trkpt lat="43.04309" lon="-0.23636">
        <ele>1436.18</ele>
        <time>2017-04-06T08:04:22Z</time>
      </trkpt>
      <trkpt lat="43.04298" lon="-0.23627">
        <ele>1437.57</ele>
        <time>2017-04-06T08:04:44Z</time>
      </trkpt>
      <trkpt lat="43.04289" lon="-0.23618">
        <ele>1439.53</ele>
        <time>2017-04-06T08:05:06Z</time>
      </trkpt>
      <trkpt lat="43.04283" lon="-0.23608">
        <ele>1441.89</ele>
        <time>2017-04-06T08:05:24Z</time>
      </trkpt>
      <trkpt lat="43.04274" lon="-0.23597">
        <ele>1444.68</ele>
        <time>2017-04-06T08:05:47Z</time>
      </trkpt>
      <trkpt lat="43.04267" lon="-0.23586">
        <ele>1446.49</ele>
        <time>2017-04-06T08:06:07Z</time>
      </trkpt>
      <trkpt lat="43.04261" lon="-0.23572">
        <ele>1449.01</ele>
        <time>2017-04-06T08:06:29Z</time>
      </trkpt>
      <trkpt lat="43.04255" lon="-0.23563">
        <ele>1451.75</ele>
        <time>2017-04-06T08:06:48Z</time>
      </trkpt>
      <trkpt lat="43.04249" lon="-0.2355">
        <ele>1456.37</ele>
        <time>2017-04-06T08:07:10Z</time>
      </trkpt>
      <trkpt lat="43.04243" lon="-0.23532">
        <ele>1459.32</ele>
        <time>2017-04-06T08:07:36Z</time>
      </trkpt>
      <trkpt lat="43.04236" lon="-0.23516">
        <ele>1463.2</ele>
        <time>2017-04-06T08:08:00Z</time>
      </trkpt>
      <trkpt lat="43.04229" lon="-0.23505">
        <ele>1465.08</ele>
        <time>2017-04-06T08:08:22Z</time>
      </trkpt>
      <trkpt lat="43.04227" lon="-0.23506">
        <ele>1465.02</ele>
        <time>2017-04-06T08:08:49Z</time>
      </trkpt>
      <trkpt lat="43.04229" lon="-0.23505">
        <ele>1462.76</ele>
        <time>2017-04-06T08:09:29Z</time>
      </trkpt>
      <trkpt lat="43.04227" lon="-0.23505">
        <ele>1458.75</ele>
        <time>2017-04-06T08:10:19Z</time>
      </trkpt>
      <trkpt lat="43.04226" lon="-0.23506">
        <ele>1457.24</ele>
        <time>2017-04-06T08:11:09Z</time>
      </trkpt>
      <trkpt lat="43.04228" lon="-0.23509">
        <ele>1457.17</ele>
        <time>2017-04-06T08:11:30Z</time>
      </trkpt>
      <trkpt lat="43.0423" lon="-0.23507">
        <ele>1458.4</ele>
        <time>2017-04-06T08:11:59Z</time>
      </trkpt>
      <trkpt lat="43.0423" lon="-0.2351">
        <ele>1460.96</ele>
        <time>2017-04-06T08:12:43Z</time>
      </trkpt>
      <trkpt lat="43.04229" lon="-0.23506">
        <ele>1459.54</ele>
        <time>2017-04-06T08:13:04Z</time>
      </trkpt>
      <trkpt lat="43.04228" lon="-0.23504">
        <ele>1458.64</ele>
        <time>2017-04-06T08:13:34Z</time>
      </trkpt>
      <trkpt lat="43.04229" lon="-0.23505">
        <ele>1456.95</ele>
        <time>2017-04-06T08:14:22Z</time>
      </trkpt>
      <trkpt lat="43.04229" lon="-0.23503">
        <ele>1455.98</ele>
        <time>2017-04-06T08:15:07Z</time>
      </trkpt>
      <trkpt lat="43.04229" lon="-0.23504">
        <ele>1456.96</ele>
        <time>2017-04-06T08:15:39Z</time>
      </trkpt>
      <trkpt lat="43.04228" lon="-0.23504">
        <ele>1456.91</ele>
        <time>2017-04-06T08:16:12Z</time>
      </trkpt>
      <trkpt lat="43.04228" lon="-0.23504">
        <ele>1457.83</ele>
        <time>2017-04-06T08:16:53Z</time>
      </trkpt>
      <trkpt lat="43.04228" lon="-0.23505">
        <ele>1457.93</ele>
        <time>2017-04-06T08:17:25Z</time>
      </trkpt>
      <trkpt lat="43.04227" lon="-0.23505">
        <ele>1459.32</ele>
        <time>2017-04-06T08:18:03Z</time>
      </trkpt>
      <trkpt lat="43.04228" lon="-0.23503">
        <ele>1459.95</ele>
        <time>2017-04-06T08:18:41Z</time>
      </trkpt>
      <trkpt lat="43.0423" lon="-0.23503">
        <ele>1459.46</ele>
        <time>2017-04-06T08:19:50Z</time>
      </trkpt>
      <trkpt lat="43.04226" lon="-0.23498">
        <ele>1459.56</ele>
        <time>2017-04-06T08:20:29Z</time>
      </trkpt>
      <trkpt lat="43.04222" lon="-0.23492">
        <ele>1459.53</ele>
        <time>2017-04-06T08:20:56Z</time>
      </trkpt>
      <trkpt lat="43.04214" lon="-0.2348">
        <ele>1460.91</ele>
        <time>2017-04-06T08:21:15Z</time>
      </trkpt>
      <trkpt lat="43.04206" lon="-0.23469">
        <ele>1462.96</ele>
        <time>2017-04-06T08:21:32Z</time>
      </trkpt>
      <trkpt lat="43.04197" lon="-0.23464">
        <ele>1465.17</ele>
        <time>2017-04-06T08:21:53Z</time>
      </trkpt>
      <trkpt lat="43.04189" lon="-0.23453">
        <ele>1466.99</ele>
        <time>2017-04-06T08:22:12Z</time>
      </trkpt>
      <trkpt lat="43.04182" lon="-0.23445">
        <ele>1468.59</ele>
        <time>2017-04-06T08:22:28Z</time>
      </trkpt>
      <trkpt lat="43.04182" lon="-0.23443">
        <ele>1466.77</ele>
        <time>2017-04-06T08:22:50Z</time>
      </trkpt>
      <trkpt lat="43.04182" lon="-0.23445">
        <ele>1461.91</ele>
        <time>2017-04-06T08:23:25Z</time>
      </trkpt>
      <trkpt lat="43.04179" lon="-0.23441">
        <ele>1461.83</ele>
        <time>2017-04-06T08:23:46Z</time>
      </trkpt>
      <trkpt lat="43.04169" lon="-0.23432">
        <ele>1460.41</ele>
        <time>2017-04-06T08:24:02Z</time>
      </trkpt>
      <trkpt lat="43.04157" lon="-0.23425">
        <ele>1462.98</ele>
        <time>2017-04-06T08:24:18Z</time>
      </trkpt>
      <trkpt lat="43.04148" lon="-0.23416">
        <ele>1464.34</ele>
        <time>2017-04-06T08:24:34Z</time>
      </trkpt>
      <trkpt lat="43.04144" lon="-0.2341">
        <ele>1467.42</ele>
        <time>2017-04-06T08:24:52Z</time>
      </trkpt>
      <trkpt lat="43.04143" lon="-0.23403">
        <ele>1468.77</ele>
        <time>2017-04-06T08:25:13Z</time>
      </trkpt>
      <trkpt lat="43.04137" lon="-0.2339">
        <ele>1469.13</ele>
        <time>2017-04-06T08:25:34Z</time>
      </trkpt>
      <trkpt lat="43.04129" lon="-0.23383">
        <ele>1468.41</ele>
        <time>2017-04-06T08:25:53Z</time>
      </trkpt>
      <trkpt lat="43.04127" lon="-0.23374">
        <ele>1468.66</ele>
        <time>2017-04-06T08:26:15Z</time>
      </trkpt>
      <trkpt lat="43.04123" lon="-0.23367">
        <ele>1467.51</ele>
        <time>2017-04-06T08:26:35Z</time>
      </trkpt>
      <trkpt lat="43.04121" lon="-0.23359">
        <ele>1466.11</ele>
        <time>2017-04-06T08:26:51Z</time>
      </trkpt>
      <trkpt lat="43.0411" lon="-0.23345">
        <ele>1459.8</ele>
        <time>2017-04-06T08:27:10Z</time>
      </trkpt>
      <trkpt lat="43.04104" lon="-0.23326">
        <ele>1453.52</ele>
        <time>2017-04-06T08:27:24Z</time>
      </trkpt>
      <trkpt lat="43.04096" lon="-0.23312">
        <ele>1449.13</ele>
        <time>2017-04-06T08:27:41Z</time>
      </trkpt>
      <trkpt lat="43.04095" lon="-0.23304">
        <ele>1448.43</ele>
        <time>2017-04-06T08:28:00Z</time>
      </trkpt>
      <trkpt lat="43.04093" lon="-0.2329">
        <ele>1452.9</ele>
        <time>2017-04-06T08:28:20Z</time>
      </trkpt>
      <trkpt lat="43.04091" lon="-0.23283">
        <ele>1456.01</ele>
        <time>2017-04-06T08:28:40Z</time>
      </trkpt>
      <trkpt lat="43.04084" lon="-0.23264">
        <ele>1458.03</ele>
        <time>2017-04-06T08:29:02Z</time>
      </trkpt>
      <trkpt lat="43.04082" lon="-0.23253">
        <ele>1459.71</ele>
        <time>2017-04-06T08:29:19Z</time>
      </trkpt>
      <trkpt lat="43.04077" lon="-0.23234">
        <ele>1460.04</ele>
        <time>2017-04-06T08:29:37Z</time>
      </trkpt>
      <trkpt lat="43.04075" lon="-0.23213">
        <ele>1462.67</ele>
        <time>2017-04-06T08:29:57Z</time>
      </trkpt>
      <trkpt lat="43.04069" lon="-0.23196">
        <ele>1461.84</ele>
        <time>2017-04-06T08:30:15Z</time>
      </trkpt>
      <trkpt lat="43.04062" lon="-0.23175">
        <ele>1462.94</ele>
        <time>2017-04-06T08:30:37Z</time>
      </trkpt>
      <trkpt lat="43.04061" lon="-0.23162">
        <ele>1464.75</ele>
        <time>2017-04-06T08:30:54Z</time>
      </trkpt>
      <trkpt lat="43.0406" lon="-0.23141">
        <ele>1465.72</ele>
        <time>2017-04-06T08:31:17Z</time>
      </trkpt>
      <trkpt lat="43.04051" lon="-0.23122">
        <ele>1465.68</ele>
        <time>2017-04-06T08:31:38Z</time>
      </trkpt>
      <trkpt lat="43.04047" lon="-0.23107">
        <ele>1468.64</ele>
        <time>2017-04-06T08:32:01Z</time>
      </trkpt>
      <trkpt lat="43.04046" lon="-0.23096">
        <ele>1468.35</ele>
        <time>2017-04-06T08:32:13Z</time>
      </trkpt>
      <trkpt lat="43.0405" lon="-0.23078">
        <ele>1467.91</ele>
        <time>2017-04-06T08:32:29Z</time>
      </trkpt>
      <trkpt lat="43.04047" lon="-0.23057">
        <ele>1470.73</ele>
        <time>2017-04-06T08:32:50Z</time>
      </trkpt>
      <trkpt lat="43.0405" lon="-0.23039">
        <ele>1473.71</ele>
        <time>2017-04-06T08:33:09Z</time>
      </trkpt>
      <trkpt lat="43.04046" lon="-0.23019">
        <ele>1475.08</ele>
        <time>2017-04-06T08:33:29Z</time>
      </trkpt>
      <trkpt lat="43.04043" lon="-0.23001">
        <ele>1478.18</ele>
        <time>2017-04-06T08:33:49Z</time>
      </trkpt>
      <trkpt lat="43.04042" lon="-0.22985">
        <ele>1478.62</ele>
        <time>2017-04-06T08:34:06Z</time>
      </trkpt>
      <trkpt lat="43.04041" lon="-0.22976">
        <ele>1481.41</ele>
        <time>2017-04-06T08:34:27Z</time>
      </trkpt>
      <trkpt lat="43.04035" lon="-0.22961">
        <ele>1482.35</ele>
        <time>2017-04-06T08:34:46Z</time>
      </trkpt>
      <trkpt lat="43.04029" lon="-0.2295">
        <ele>1482.83</ele>
        <time>2017-04-06T08:35:06Z</time>
      </trkpt>
      <trkpt lat="43.04021" lon="-0.22935">
        <ele>1482.1</ele>
        <time>2017-04-06T08:35:23Z</time>
      </trkpt>
      <trkpt lat="43.04012" lon="-0.22922">
        <ele>1479.39</ele>
        <time>2017-04-06T08:35:41Z</time>
      </trkpt>
      <trkpt lat="43.04004" lon="-0.2291">
        <ele>1476.88</ele>
        <time>2017-04-06T08:36:00Z</time>
      </trkpt>
      <trkpt lat="43.03994" lon="-0.22901">
        <ele>1476.72</ele>
        <time>2017-04-06T08:36:20Z</time>
      </trkpt>
      <trkpt lat="43.03981" lon="-0.22891">
        <ele>1475.61</ele>
        <time>2017-04-06T08:36:41Z</time>
      </trkpt>
      <trkpt lat="43.03971" lon="-0.22878">
        <ele>1476.58</ele>
        <time>2017-04-06T08:36:59Z</time>
      </trkpt>
      <trkpt lat="43.03963" lon="-0.22863">
        <ele>1476.25</ele>
        <time>2017-04-06T08:37:21Z</time>
      </trkpt>
      <trkpt lat="43.03959" lon="-0.22853">
        <ele>1477.47</ele>
        <time>2017-04-06T08:37:40Z</time>
      </trkpt>
      <trkpt lat="43.03955" lon="-0.22845">
        <ele>1478.48</ele>
        <time>2017-04-06T08:37:59Z</time>
      </trkpt>
      <trkpt lat="43.03954" lon="-0.22838">
        <ele>1479.09</ele>
        <time>2017-04-06T08:38:18Z</time>
      </trkpt>
      <trkpt lat="43.03946" lon="-0.22829">
        <ele>1478.94</ele>
        <time>2017-04-06T08:38:38Z</time>
      </trkpt>
      <trkpt lat="43.03941" lon="-0.22814">
        <ele>1480.27</ele>
        <time>2017-04-06T08:39:01Z</time>
      </trkpt>
      <trkpt lat="43.03939" lon="-0.22791">
        <ele>1479.81</ele>
        <time>2017-04-06T08:39:20Z</time>
      </trkpt>
      <trkpt lat="43.0394" lon="-0.2277">
        <ele>1480.14</ele>
        <time>2017-04-06T08:39:38Z</time>
      </trkpt>
      <trkpt lat="43.03948" lon="-0.22758">
        <ele>1482.88</ele>
        <time>2017-04-06T08:39:56Z</time>
      </trkpt>
      <trkpt lat="43.03954" lon="-0.22745">
        <ele>1485.51</ele>
        <time>2017-04-06T08:40:15Z</time>
      </trkpt>
      <trkpt lat="43.03954" lon="-0.2274">
        <ele>1486.07</ele>
        <time>2017-04-06T08:40:34Z</time>
      </trkpt>
      <trkpt lat="43.03954" lon="-0.22736">
        <ele>1488.22</ele>
        <time>2017-04-06T08:40:59Z</time>
      </trkpt>
      <trkpt lat="43.03952" lon="-0.22725">
        <ele>1489.21</ele>
        <time>2017-04-06T08:41:18Z</time>
      </trkpt>
      <trkpt lat="43.03944" lon="-0.22719">
        <ele>1488.16</ele>
        <time>2017-04-06T08:41:37Z</time>
      </trkpt>
      <trkpt lat="43.03939" lon="-0.2271">
        <ele>1489.55</ele>
        <time>2017-04-06T08:41:59Z</time>
      </trkpt>
      <trkpt lat="43.03927" lon="-0.22713">
        <ele>1494.3</ele>
        <time>2017-04-06T08:42:19Z</time>
      </trkpt>
      <trkpt lat="43.03924" lon="-0.22712">
        <ele>1496.75</ele>
        <time>2017-04-06T08:42:39Z</time>
      </trkpt>
      <trkpt lat="43.03922" lon="-0.22705">
        <ele>1499.19</ele>
        <time>2017-04-06T08:43:00Z</time>
      </trkpt>
      <trkpt lat="43.03919" lon="-0.22696">
        <ele>1500.95</ele>
        <time>2017-04-06T08:43:19Z</time>
      </trkpt>
      <trkpt lat="43.0392" lon="-0.22681">
        <ele>1502.98</ele>
        <time>2017-04-06T08:43:43Z</time>
      </trkpt>
      <trkpt lat="43.03919" lon="-0.22672">
        <ele>1504.26</ele>
        <time>2017-04-06T08:44:06Z</time>
      </trkpt>
      <trkpt lat="43.03912" lon="-0.22671">
        <ele>1506.59</ele>
        <time>2017-04-06T08:44:27Z</time>
      </trkpt>
      <trkpt lat="43.03909" lon="-0.22662">
        <ele>1509.13</ele>
        <time>2017-04-06T08:44:47Z</time>
      </trkpt>
      <trkpt lat="43.03906" lon="-0.22656">
        <ele>1509.88</ele>
        <time>2017-04-06T08:45:07Z</time>
      </trkpt>
      <trkpt lat="43.039" lon="-0.22653">
        <ele>1512.74</ele>
        <time>2017-04-06T08:45:31Z</time>
      </trkpt>
      <trkpt lat="43.03897" lon="-0.22648">
        <ele>1514.49</ele>
        <time>2017-04-06T08:45:54Z</time>
      </trkpt>
      <trkpt lat="43.0389" lon="-0.22645">
        <ele>1515.92</ele>
        <time>2017-04-06T08:46:18Z</time>
      </trkpt>
      <trkpt lat="43.03883" lon="-0.22643">
        <ele>1518.47</ele>
        <time>2017-04-06T08:46:37Z</time>
      </trkpt>
      <trkpt lat="43.03881" lon="-0.22641">
        <ele>1521.42</ele>
        <time>2017-04-06T08:46:59Z</time>
      </trkpt>
      <trkpt lat="43.03878" lon="-0.22638">
        <ele>1524.76</ele>
        <time>2017-04-06T08:47:22Z</time>
      </trkpt>
      <trkpt lat="43.03876" lon="-0.22632">
        <ele>1526.13</ele>
        <time>2017-04-06T08:47:41Z</time>
      </trkpt>
      <trkpt lat="43.03876" lon="-0.22625">
        <ele>1528.47</ele>
        <time>2017-04-06T08:48:02Z</time>
      </trkpt>
      <trkpt lat="43.03873" lon="-0.22618">
        <ele>1530.98</ele>
        <time>2017-04-06T08:48:21Z</time>
      </trkpt>
      <trkpt lat="43.03871" lon="-0.22612">
        <ele>1533.08</ele>
        <time>2017-04-06T08:48:42Z</time>
      </trkpt>
      <trkpt lat="43.03864" lon="-0.22603">
        <ele>1537.3</ele>
        <time>2017-04-06T08:49:02Z</time>
      </trkpt>
      <trkpt lat="43.03863" lon="-0.22599">
        <ele>1539.96</ele>
        <time>2017-04-06T08:49:20Z</time>
      </trkpt>
      <trkpt lat="43.03856" lon="-0.22594">
        <ele>1542.03</ele>
        <time>2017-04-06T08:49:43Z</time>
      </trkpt>
      <trkpt lat="43.03849" lon="-0.22592">
        <ele>1543.13</ele>
        <time>2017-04-06T08:49:55Z</time>
      </trkpt>
      <trkpt lat="43.03835" lon="-0.22586">
        <ele>1547.95</ele>
        <time>2017-04-06T08:50:21Z</time>
      </trkpt>
      <trkpt lat="43.03838" lon="-0.22587">
        <ele>1549.29</ele>
        <time>2017-04-06T08:50:27Z</time>
      </trkpt>
      <trkpt lat="43.03843" lon="-0.22584">
        <ele>1550.35</ele>
        <time>2017-04-06T08:50:37Z</time>
      </trkpt>
      <trkpt lat="43.03855" lon="-0.22578">
        <ele>1553.24</ele>
        <time>2017-04-06T08:50:57Z</time>
      </trkpt>
      <trkpt lat="43.03848" lon="-0.22572">
        <ele>1554.77</ele>
        <time>2017-04-06T08:51:18Z</time>
      </trkpt>
      <trkpt lat="43.03844" lon="-0.2257">
        <ele>1555.46</ele>
        <time>2017-04-06T08:51:26Z</time>
      </trkpt>
      <trkpt lat="43.03841" lon="-0.2257">
        <ele>1555.6</ele>
        <time>2017-04-06T08:51:29Z</time>
      </trkpt>
      <trkpt lat="43.03827" lon="-0.2257">
        <ele>1558.23</ele>
        <time>2017-04-06T08:51:52Z</time>
      </trkpt>
      <trkpt lat="43.03826" lon="-0.2257">
        <ele>1558.31</ele>
        <time>2017-04-06T08:51:53Z</time>
      </trkpt>
      <trkpt lat="43.03815" lon="-0.22574">
        <ele>1560.79</ele>
        <time>2017-04-06T08:52:08Z</time>
      </trkpt>
      <trkpt lat="43.03817" lon="-0.22569">
        <ele>1565.59</ele>
        <time>2017-04-06T08:52:31Z</time>
      </trkpt>
      <trkpt lat="43.03825" lon="-0.22565">
        <ele>1567.03</ele>
        <time>2017-04-06T08:52:50Z</time>
      </trkpt>
      <trkpt lat="43.03822" lon="-0.22563">
        <ele>1567.46</ele>
        <time>2017-04-06T08:53:01Z</time>
      </trkpt>
      <trkpt lat="43.03813" lon="-0.22562">
        <ele>1568.84</ele>
        <time>2017-04-06T08:53:13Z</time>
      </trkpt>
      <trkpt lat="43.03805" lon="-0.22568">
        <ele>1573.16</ele>
        <time>2017-04-06T08:53:37Z</time>
      </trkpt>
      <trkpt lat="43.03792" lon="-0.22569">
        <ele>1573.61</ele>
        <time>2017-04-06T08:53:55Z</time>
      </trkpt>
      <trkpt lat="43.03784" lon="-0.22572">
        <ele>1576.81</ele>
        <time>2017-04-06T08:54:16Z</time>
      </trkpt>
      <trkpt lat="43.03781" lon="-0.22578">
        <ele>1579.27</ele>
        <time>2017-04-06T08:54:28Z</time>
      </trkpt>
      <trkpt lat="43.0377" lon="-0.22585">
        <ele>1582.05</ele>
        <time>2017-04-06T08:54:46Z</time>
      </trkpt>
      <trkpt lat="43.03768" lon="-0.22589">
        <ele>1585.25</ele>
        <time>2017-04-06T08:55:08Z</time>
      </trkpt>
      <trkpt lat="43.03767" lon="-0.22588">
        <ele>1586.31</ele>
        <time>2017-04-06T08:55:13Z</time>
      </trkpt>
      <trkpt lat="43.03761" lon="-0.22588">
        <ele>1590.72</ele>
        <time>2017-04-06T08:55:33Z</time>
      </trkpt>
      <trkpt lat="43.03759" lon="-0.22585">
        <ele>1595.17</ele>
        <time>2017-04-06T08:55:56Z</time>
      </trkpt>
      <trkpt lat="43.03763" lon="-0.22579">
        <ele>1597.1</ele>
        <time>2017-04-06T08:56:16Z</time>
      </trkpt>
      <trkpt lat="43.03755" lon="-0.22578">
        <ele>1600.05</ele>
        <time>2017-04-06T08:56:37Z</time>
      </trkpt>
      <trkpt lat="43.03747" lon="-0.22575">
        <ele>1602.03</ele>
        <time>2017-04-06T08:56:57Z</time>
      </trkpt>
      <trkpt lat="43.03736" lon="-0.22581">
        <ele>1605.07</ele>
        <time>2017-04-06T08:57:19Z</time>
      </trkpt>
      <trkpt lat="43.03732" lon="-0.22578">
        <ele>1607.36</ele>
        <time>2017-04-06T08:57:38Z</time>
      </trkpt>
      <trkpt lat="43.03727" lon="-0.22576">
        <ele>1609.15</ele>
        <time>2017-04-06T08:57:56Z</time>
      </trkpt>
      <trkpt lat="43.03721" lon="-0.22578">
        <ele>1611.12</ele>
        <time>2017-04-06T08:58:16Z</time>
      </trkpt>
      <trkpt lat="43.03717" lon="-0.22576">
        <ele>1613.21</ele>
        <time>2017-04-06T08:58:40Z</time>
      </trkpt>
      <trkpt lat="43.03718" lon="-0.22579">
        <ele>1615.32</ele>
        <time>2017-04-06T08:59:01Z</time>
      </trkpt>
      <trkpt lat="43.03713" lon="-0.22576">
        <ele>1618.05</ele>
        <time>2017-04-06T08:59:21Z</time>
      </trkpt>
      <trkpt lat="43.03712" lon="-0.22574">
        <ele>1620.76</ele>
        <time>2017-04-06T08:59:42Z</time>
      </trkpt>
      <trkpt lat="43.0371" lon="-0.22571">
        <ele>1622.37</ele>
        <time>2017-04-06T09:00:07Z</time>
      </trkpt>
      <trkpt lat="43.03706" lon="-0.22567">
        <ele>1623.47</ele>
        <time>2017-04-06T09:00:27Z</time>
      </trkpt>
      <trkpt lat="43.03709" lon="-0.22566">
        <ele>1624.04</ele>
        <time>2017-04-06T09:01:01Z</time>
      </trkpt>
      <trkpt lat="43.0371" lon="-0.22563">
        <ele>1620</ele>
        <time>2017-04-06T09:01:41Z</time>
      </trkpt>
      <trkpt lat="43.03707" lon="-0.22565">
        <ele>1620.48</ele>
        <time>2017-04-06T09:02:16Z</time>
      </trkpt>
      <trkpt lat="43.03706" lon="-0.22568">
        <ele>1623.45</ele>
        <time>2017-04-06T09:02:52Z</time>
      </trkpt>
      <trkpt lat="43.03708" lon="-0.22569">
        <ele>1626.18</ele>
        <time>2017-04-06T09:03:27Z</time>
      </trkpt>
      <trkpt lat="43.03705" lon="-0.22563">
        <ele>1627.06</ele>
        <time>2017-04-06T09:03:47Z</time>
      </trkpt>
      <trkpt lat="43.037" lon="-0.22554">
        <ele>1628.04</ele>
        <time>2017-04-06T09:04:07Z</time>
      </trkpt>
      <trkpt lat="43.03696" lon="-0.22544">
        <ele>1629.27</ele>
        <time>2017-04-06T09:04:27Z</time>
      </trkpt>
      <trkpt lat="43.03701" lon="-0.22534">
        <ele>1632.47</ele>
        <time>2017-04-06T09:04:48Z</time>
      </trkpt>
      <trkpt lat="43.03695" lon="-0.22531">
        <ele>1634.15</ele>
        <time>2017-04-06T09:05:07Z</time>
      </trkpt>
      <trkpt lat="43.03691" lon="-0.22526">
        <ele>1636.38</ele>
        <time>2017-04-06T09:05:28Z</time>
      </trkpt>
      <trkpt lat="43.03696" lon="-0.2252">
        <ele>1638.77</ele>
        <time>2017-04-06T09:05:44Z</time>
      </trkpt>
      <trkpt lat="43.03697" lon="-0.22515">
        <ele>1640.69</ele>
        <time>2017-04-06T09:05:59Z</time>
      </trkpt>
      <trkpt lat="43.03693" lon="-0.22512">
        <ele>1642.33</ele>
        <time>2017-04-06T09:06:17Z</time>
      </trkpt>
      <trkpt lat="43.03693" lon="-0.22506">
        <ele>1645.22</ele>
        <time>2017-04-06T09:06:36Z</time>
      </trkpt>
      <trkpt lat="43.03698" lon="-0.225">
        <ele>1648.76</ele>
        <time>2017-04-06T09:06:54Z</time>
      </trkpt>
      <trkpt lat="43.03701" lon="-0.22496">
        <ele>1651.21</ele>
        <time>2017-04-06T09:07:12Z</time>
      </trkpt>
      <trkpt lat="43.03695" lon="-0.22496">
        <ele>1653.16</ele>
        <time>2017-04-06T09:07:37Z</time>
      </trkpt>
      <trkpt lat="43.03691" lon="-0.22494">
        <ele>1654.63</ele>
        <time>2017-04-06T09:07:57Z</time>
      </trkpt>
      <trkpt lat="43.03689" lon="-0.22488">
        <ele>1656.82</ele>
        <time>2017-04-06T09:08:16Z</time>
      </trkpt>
      <trkpt lat="43.03692" lon="-0.22481">
        <ele>1659.76</ele>
        <time>2017-04-06T09:08:31Z</time>
      </trkpt>
      <trkpt lat="43.03694" lon="-0.22474">
        <ele>1663.47</ele>
        <time>2017-04-06T09:08:50Z</time>
      </trkpt>
      <trkpt lat="43.03691" lon="-0.22468">
        <ele>1667.07</ele>
        <time>2017-04-06T09:09:08Z</time>
      </trkpt>
      <trkpt lat="43.03688" lon="-0.22464">
        <ele>1670.07</ele>
        <time>2017-04-06T09:09:25Z</time>
      </trkpt>
      <trkpt lat="43.03688" lon="-0.22457">
        <ele>1673.67</ele>
        <time>2017-04-06T09:09:42Z</time>
      </trkpt>
      <trkpt lat="43.03686" lon="-0.22452">
        <ele>1677.09</ele>
        <time>2017-04-06T09:10:01Z</time>
      </trkpt>
      <trkpt lat="43.03686" lon="-0.22445">
        <ele>1680.28</ele>
        <time>2017-04-06T09:10:21Z</time>
      </trkpt>
      <trkpt lat="43.03676" lon="-0.22444">
        <ele>1682.09</ele>
        <time>2017-04-06T09:10:40Z</time>
      </trkpt>
      <trkpt lat="43.03677" lon="-0.22434">
        <ele>1686.2</ele>
        <time>2017-04-06T09:10:57Z</time>
      </trkpt>
      <trkpt lat="43.03679" lon="-0.22426">
        <ele>1690.07</ele>
        <time>2017-04-06T09:11:14Z</time>
      </trkpt>
      <trkpt lat="43.03674" lon="-0.22425">
        <ele>1691.95</ele>
        <time>2017-04-06T09:11:32Z</time>
      </trkpt>
      <trkpt lat="43.03669" lon="-0.2242">
        <ele>1694.93</ele>
        <time>2017-04-06T09:11:51Z</time>
      </trkpt>
      <trkpt lat="43.03672" lon="-0.22408">
        <ele>1698.96</ele>
        <time>2017-04-06T09:12:09Z</time>
      </trkpt>
      <trkpt lat="43.03671" lon="-0.22398">
        <ele>1702.89</ele>
        <time>2017-04-06T09:12:30Z</time>
      </trkpt>
      <trkpt lat="43.03662" lon="-0.22394">
        <ele>1706.49</ele>
        <time>2017-04-06T09:12:52Z</time>
      </trkpt>
      <trkpt lat="43.03654" lon="-0.22396">
        <ele>1709.49</ele>
        <time>2017-04-06T09:13:11Z</time>
      </trkpt>
      <trkpt lat="43.03646" lon="-0.22394">
        <ele>1713.46</ele>
        <time>2017-04-06T09:13:33Z</time>
      </trkpt>
      <trkpt lat="43.03642" lon="-0.22387">
        <ele>1717.01</ele>
        <time>2017-04-06T09:13:50Z</time>
      </trkpt>
      <trkpt lat="43.03637" lon="-0.22384">
        <ele>1720.76</ele>
        <time>2017-04-06T09:14:10Z</time>
      </trkpt>
      <trkpt lat="43.03631" lon="-0.22381">
        <ele>1722.62</ele>
        <time>2017-04-06T09:14:31Z</time>
      </trkpt>
      <trkpt lat="43.03627" lon="-0.22376">
        <ele>1724.78</ele>
        <time>2017-04-06T09:14:49Z</time>
      </trkpt>
      <trkpt lat="43.0362" lon="-0.22374">
        <ele>1726.73</ele>
        <time>2017-04-06T09:15:11Z</time>
      </trkpt>
      <trkpt lat="43.03613" lon="-0.22372">
        <ele>1728.74</ele>
        <time>2017-04-06T09:15:31Z</time>
      </trkpt>
      <trkpt lat="43.03606" lon="-0.22366">
        <ele>1731.56</ele>
        <time>2017-04-06T09:15:54Z</time>
      </trkpt>
      <trkpt lat="43.03601" lon="-0.22361">
        <ele>1734.21</ele>
        <time>2017-04-06T09:16:11Z</time>
      </trkpt>
      <trkpt lat="43.036" lon="-0.22362">
        <ele>1736.27</ele>
        <time>2017-04-06T09:16:28Z</time>
      </trkpt>
      <trkpt lat="43.03596" lon="-0.22366">
        <ele>1738.06</ele>
        <time>2017-04-06T09:16:44Z</time>
      </trkpt>
      <trkpt lat="43.03588" lon="-0.22371">
        <ele>1740.59</ele>
        <time>2017-04-06T09:17:01Z</time>
      </trkpt>
      <trkpt lat="43.03584" lon="-0.22372">
        <ele>1743.72</ele>
        <time>2017-04-06T09:17:17Z</time>
      </trkpt>
      <trkpt lat="43.03584" lon="-0.22364">
        <ele>1746.4</ele>
        <time>2017-04-06T09:17:35Z</time>
      </trkpt>
      <trkpt lat="43.03582" lon="-0.22361">
        <ele>1748.31</ele>
        <time>2017-04-06T09:17:55Z</time>
      </trkpt>
      <trkpt lat="43.0358" lon="-0.22367">
        <ele>1750.31</ele>
        <time>2017-04-06T09:18:15Z</time>
      </trkpt>
      <trkpt lat="43.03578" lon="-0.22371">
        <ele>1752.3</ele>
        <time>2017-04-06T09:18:36Z</time>
      </trkpt>
      <trkpt lat="43.03573" lon="-0.22366">
        <ele>1754.32</ele>
        <time>2017-04-06T09:18:53Z</time>
      </trkpt>
      <trkpt lat="43.03567" lon="-0.22369">
        <ele>1755.29</ele>
        <time>2017-04-06T09:19:07Z</time>
      </trkpt>
      <trkpt lat="43.03563" lon="-0.22371">
        <ele>1757.6</ele>
        <time>2017-04-06T09:19:25Z</time>
      </trkpt>
      <trkpt lat="43.03559" lon="-0.22365">
        <ele>1761.08</ele>
        <time>2017-04-06T09:19:45Z</time>
      </trkpt>
      <trkpt lat="43.03557" lon="-0.22356">
        <ele>1764.42</ele>
        <time>2017-04-06T09:20:03Z</time>
      </trkpt>
      <trkpt lat="43.03554" lon="-0.2235">
        <ele>1768.04</ele>
        <time>2017-04-06T09:20:23Z</time>
      </trkpt>
      <trkpt lat="43.03549" lon="-0.22343">
        <ele>1771.15</ele>
        <time>2017-04-06T09:20:43Z</time>
      </trkpt>
      <trkpt lat="43.03545" lon="-0.22341">
        <ele>1775.11</ele>
        <time>2017-04-06T09:21:05Z</time>
      </trkpt>
      <trkpt lat="43.03538" lon="-0.22341">
        <ele>1778.7</ele>
        <time>2017-04-06T09:21:23Z</time>
      </trkpt>
      <trkpt lat="43.03533" lon="-0.22343">
        <ele>1782.17</ele>
        <time>2017-04-06T09:21:39Z</time>
      </trkpt>
      <trkpt lat="43.03528" lon="-0.22346">
        <ele>1787.04</ele>
        <time>2017-04-06T09:21:55Z</time>
      </trkpt>
      <trkpt lat="43.0352" lon="-0.22348">
        <ele>1790.86</ele>
        <time>2017-04-06T09:22:17Z</time>
      </trkpt>
      <trkpt lat="43.03512" lon="-0.22347">
        <ele>1793.34</ele>
        <time>2017-04-06T09:22:38Z</time>
      </trkpt>
      <trkpt lat="43.03504" lon="-0.22349">
        <ele>1796.54</ele>
        <time>2017-04-06T09:22:58Z</time>
      </trkpt>
      <trkpt lat="43.03496" lon="-0.22353">
        <ele>1799.2</ele>
        <time>2017-04-06T09:23:17Z</time>
      </trkpt>
      <trkpt lat="43.03486" lon="-0.22351">
        <ele>1803.12</ele>
        <time>2017-04-06T09:23:37Z</time>
      </trkpt>
      <trkpt lat="43.0348" lon="-0.2235">
        <ele>1808.07</ele>
        <time>2017-04-06T09:23:57Z</time>
      </trkpt>
      <trkpt lat="43.03476" lon="-0.22349">
        <ele>1810.73</ele>
        <time>2017-04-06T09:24:18Z</time>
      </trkpt>
      <trkpt lat="43.0347" lon="-0.22349">
        <ele>1812.78</ele>
        <time>2017-04-06T09:24:36Z</time>
      </trkpt>
      <trkpt lat="43.03462" lon="-0.22348">
        <ele>1815.88</ele>
        <time>2017-04-06T09:25:00Z</time>
      </trkpt>
      <trkpt lat="43.03456" lon="-0.2235">
        <ele>1819.07</ele>
        <time>2017-04-06T09:25:21Z</time>
      </trkpt>
      <trkpt lat="43.03449" lon="-0.22355">
        <ele>1821.52</ele>
        <time>2017-04-06T09:25:40Z</time>
      </trkpt>
      <trkpt lat="43.03442" lon="-0.22364">
        <ele>1823.15</ele>
        <time>2017-04-06T09:26:02Z</time>
      </trkpt>
      <trkpt lat="43.03434" lon="-0.22364">
        <ele>1825.04</ele>
        <time>2017-04-06T09:26:23Z</time>
      </trkpt>
      <trkpt lat="43.03426" lon="-0.22365">
        <ele>1827.28</ele>
        <time>2017-04-06T09:26:43Z</time>
      </trkpt>
      <trkpt lat="43.03418" lon="-0.22368">
        <ele>1828.92</ele>
        <time>2017-04-06T09:27:01Z</time>
      </trkpt>
      <trkpt lat="43.03409" lon="-0.2237">
        <ele>1831.38</ele>
        <time>2017-04-06T09:27:21Z</time>
      </trkpt>
      <trkpt lat="43.03404" lon="-0.22371">
        <ele>1833.65</ele>
        <time>2017-04-06T09:27:40Z</time>
      </trkpt>
      <trkpt lat="43.03398" lon="-0.22369">
        <ele>1836.19</ele>
        <time>2017-04-06T09:27:56Z</time>
      </trkpt>
      <trkpt lat="43.03392" lon="-0.22369">
        <ele>1838.65</ele>
        <time>2017-04-06T09:28:17Z</time>
      </trkpt>
      <trkpt lat="43.03389" lon="-0.22369">
        <ele>1839.48</ele>
        <time>2017-04-06T09:28:36Z</time>
      </trkpt>
      <trkpt lat="43.03386" lon="-0.2237">
        <ele>1839.35</ele>
        <time>2017-04-06T09:29:01Z</time>
      </trkpt>
      <trkpt lat="43.03385" lon="-0.22375">
        <ele>1840.31</ele>
        <time>2017-04-06T09:29:25Z</time>
      </trkpt>
      <trkpt lat="43.03382" lon="-0.22374">
        <ele>1843.11</ele>
        <time>2017-04-06T09:29:46Z</time>
      </trkpt>
      <trkpt lat="43.0338" lon="-0.22375">
        <ele>1845.7</ele>
        <time>2017-04-06T09:30:04Z</time>
      </trkpt>
      <trkpt lat="43.03378" lon="-0.22386">
        <ele>1849.54</ele>
        <time>2017-04-06T09:30:27Z</time>
      </trkpt>
      <trkpt lat="43.03374" lon="-0.2239">
        <ele>1851.5</ele>
        <time>2017-04-06T09:30:49Z</time>
      </trkpt>
      <trkpt lat="43.03377" lon="-0.22393">
        <ele>1853.08</ele>
        <time>2017-04-06T09:31:09Z</time>
      </trkpt>
      <trkpt lat="43.03377" lon="-0.22392">
        <ele>1853.49</ele>
        <time>2017-04-06T09:31:35Z</time>
      </trkpt>
      <trkpt lat="43.03374" lon="-0.22391">
        <ele>1853.99</ele>
        <time>2017-04-06T09:32:06Z</time>
      </trkpt>
      <trkpt lat="43.03374" lon="-0.22393">
        <ele>1854.82</ele>
        <time>2017-04-06T09:32:34Z</time>
      </trkpt>
      <trkpt lat="43.03376" lon="-0.22392">
        <ele>1855.75</ele>
        <time>2017-04-06T09:33:13Z</time>
      </trkpt>
      <trkpt lat="43.03377" lon="-0.22396">
        <ele>1856.38</ele>
        <time>2017-04-06T09:33:36Z</time>
      </trkpt>
      <trkpt lat="43.0338" lon="-0.224">
        <ele>1856.21</ele>
        <time>2017-04-06T09:34:12Z</time>
      </trkpt>
      <trkpt lat="43.03376" lon="-0.22401">
        <ele>1856.24</ele>
        <time>2017-04-06T09:34:38Z</time>
      </trkpt>
      <trkpt lat="43.03376" lon="-0.22401">
        <ele>1854.26</ele>
        <time>2017-04-06T09:35:02Z</time>
      </trkpt>
      <trkpt lat="43.03376" lon="-0.224">
        <ele>1852.41</ele>
        <time>2017-04-06T09:35:35Z</time>
      </trkpt>
      <trkpt lat="43.03375" lon="-0.224">
        <ele>1851.83</ele>
        <time>2017-04-06T09:36:19Z</time>
      </trkpt>
      <trkpt lat="43.03375" lon="-0.224">
        <ele>1851.52</ele>
        <time>2017-04-06T09:36:55Z</time>
      </trkpt>
      <trkpt lat="43.03375" lon="-0.224">
        <ele>1851.5</ele>
        <time>2017-04-06T09:37:29Z</time>
      </trkpt>
      <trkpt lat="43.03375" lon="-0.224">
        <ele>1851.88</ele>
        <time>2017-04-06T09:38:04Z</time>
      </trkpt>
      <trkpt lat="43.03375" lon="-0.22398">
        <ele>1852.53</ele>
        <time>2017-04-06T09:38:42Z</time>
      </trkpt>
      <trkpt lat="43.03373" lon="-0.22398">
        <ele>1853.29</ele>
        <time>2017-04-06T09:39:14Z</time>
      </trkpt>
      <trkpt lat="43.03373" lon="-0.22398">
        <ele>1853.45</ele>
        <time>2017-04-06T09:39:48Z</time>
      </trkpt>
      <trkpt lat="43.03374" lon="-0.22398">
        <ele>1853.52</ele>
        <time>2017-04-06T09:40:21Z</time>
      </trkpt>
      <trkpt lat="43.03374" lon="-0.22398">
        <ele>1853.43</ele>
        <time>2017-04-06T09:40:57Z</time>
      </trkpt>
      <trkpt lat="43.03373" lon="-0.22398">
        <ele>1853.34</ele>
        <time>2017-04-06T09:42:11Z</time>
      </trkpt>
      <trkpt lat="43.03374" lon="-0.22397">
        <ele>1853.01</ele>
        <time>2017-04-06T09:42:43Z</time>
      </trkpt>
      <trkpt lat="43.03373" lon="-0.22396">
        <ele>1853.15</ele>
        <time>2017-04-06T09:43:18Z</time>
      </trkpt>
      <trkpt lat="43.03373" lon="-0.22397">
        <ele>1854.35</ele>
        <time>2017-04-06T09:44:05Z</time>
      </trkpt>
      <trkpt lat="43.03372" lon="-0.22397">
        <ele>1853.87</ele>
        <time>2017-04-06T09:45:44Z</time>
      </trkpt>
      <trkpt lat="43.03373" lon="-0.22396">
        <ele>1853.74</ele>
        <time>2017-04-06T09:46:41Z</time>
      </trkpt>
      <trkpt lat="43.03373" lon="-0.22395">
        <ele>1854.02</ele>
        <time>2017-04-06T09:47:10Z</time>
      </trkpt>
      <trkpt lat="43.03374" lon="-0.22396">
        <ele>1854.11</ele>
        <time>2017-04-06T09:47:49Z</time>
      </trkpt>
      <trkpt lat="43.03373" lon="-0.22396">
        <ele>1854.34</ele>
        <time>2017-04-06T09:48:22Z</time>
      </trkpt>
      <trkpt lat="43.03373" lon="-0.22397">
        <ele>1854.57</ele>
        <time>2017-04-06T09:49:10Z</time>
      </trkpt>
      <trkpt lat="43.03373" lon="-0.22397">
        <ele>1854.15</ele>
        <time>2017-04-06T09:50:31Z</time>
      </trkpt>
      <trkpt lat="43.03373" lon="-0.22397">
        <ele>1854.03</ele>
        <time>2017-04-06T09:51:33Z</time>
      </trkpt>
      <trkpt lat="43.03373" lon="-0.22397">
        <ele>1854.12</ele>
        <time>2017-04-06T09:52:24Z</time>
      </trkpt>
      <trkpt lat="43.03374" lon="-0.22396">
        <ele>1853.09</ele>
        <time>2017-04-06T09:52:52Z</time>
      </trkpt>
      <trkpt lat="43.03373" lon="-0.22396">
        <ele>1853.07</ele>
        <time>2017-04-06T09:53:23Z</time>
      </trkpt>
      <trkpt lat="43.03374" lon="-0.22397">
        <ele>1853.27</ele>
        <time>2017-04-06T09:54:09Z</time>
      </trkpt>
      <trkpt lat="43.03373" lon="-0.22396">
        <ele>1853.71</ele>
        <time>2017-04-06T09:55:04Z</time>
      </trkpt>
      <trkpt lat="43.03373" lon="-0.22397">
        <ele>1852.96</ele>
        <time>2017-04-06T09:56:02Z</time>
      </trkpt>
      <trkpt lat="43.03373" lon="-0.22396">
        <ele>1851.96</ele>
        <time>2017-04-06T09:56:55Z</time>
      </trkpt>
      <trkpt lat="43.03373" lon="-0.22396">
        <ele>1851.78</ele>
        <time>2017-04-06T09:57:31Z</time>
      </trkpt>
      <trkpt lat="43.03373" lon="-0.22396">
        <ele>1852.73</ele>
        <time>2017-04-06T09:58:27Z</time>
      </trkpt>
      <trkpt lat="43.03373" lon="-0.22396">
        <ele>1853.58</ele>
        <time>2017-04-06T09:59:26Z</time>
      </trkpt>
      <trkpt lat="43.03373" lon="-0.22396">
        <ele>1853.91</ele>
        <time>2017-04-06T10:00:12Z</time>
      </trkpt>
      <trkpt lat="43.03373" lon="-0.22395">
        <ele>1853.64</ele>
        <time>2017-04-06T10:00:59Z</time>
      </trkpt>
      <trkpt lat="43.03372" lon="-0.22395">
        <ele>1853.75</ele>
        <time>2017-04-06T10:01:31Z</time>
      </trkpt>
      <trkpt lat="43.03372" lon="-0.22396">
        <ele>1852.65</ele>
        <time>2017-04-06T10:02:18Z</time>
      </trkpt>
      <trkpt lat="43.03373" lon="-0.22395">
        <ele>1851.16</ele>
        <time>2017-04-06T10:02:48Z</time>
      </trkpt>
      <trkpt lat="43.03374" lon="-0.22395">
        <ele>1851.24</ele>
        <time>2017-04-06T10:03:21Z</time>
      </trkpt>
      <trkpt lat="43.03374" lon="-0.22396">
        <ele>1850.87</ele>
        <time>2017-04-06T10:03:51Z</time>
      </trkpt>
      <trkpt lat="43.03374" lon="-0.22397">
        <ele>1850.04</ele>
        <time>2017-04-06T10:04:29Z</time>
      </trkpt>
      <trkpt lat="43.03374" lon="-0.22395">
        <ele>1849.44</ele>
        <time>2017-04-06T10:05:05Z</time>
      </trkpt>
      <trkpt lat="43.03375" lon="-0.22394">
        <ele>1849.12</ele>
        <time>2017-04-06T10:05:40Z</time>
      </trkpt>
      <trkpt lat="43.03375" lon="-0.22394">
        <ele>1849.16</ele>
        <time>2017-04-06T10:06:12Z</time>
      </trkpt>
      <trkpt lat="43.03375" lon="-0.22394">
        <ele>1849.45</ele>
        <time>2017-04-06T10:06:44Z</time>
      </trkpt>
      <trkpt lat="43.03373" lon="-0.22394">
        <ele>1849.17</ele>
        <time>2017-04-06T10:07:15Z</time>
      </trkpt>
      <trkpt lat="43.03374" lon="-0.22394">
        <ele>1849.16</ele>
        <time>2017-04-06T10:07:48Z</time>
      </trkpt>
      <trkpt lat="43.03374" lon="-0.22396">
        <ele>1849.25</ele>
        <time>2017-04-06T10:08:19Z</time>
      </trkpt>
      <trkpt lat="43.03374" lon="-0.22396">
        <ele>1848.99</ele>
        <time>2017-04-06T10:08:53Z</time>
      </trkpt>
      <trkpt lat="43.03374" lon="-0.22396">
        <ele>1848.48</ele>
        <time>2017-04-06T10:09:25Z</time>
      </trkpt>
      <trkpt lat="43.03374" lon="-0.22394">
        <ele>1848.06</ele>
        <time>2017-04-06T10:09:58Z</time>
      </trkpt>
      <trkpt lat="43.03376" lon="-0.22394">
        <ele>1847.76</ele>
        <time>2017-04-06T10:10:24Z</time>
      </trkpt>
      <trkpt lat="43.03375" lon="-0.22394">
        <ele>1847.57</ele>
        <time>2017-04-06T10:10:53Z</time>
      </trkpt>
      <trkpt lat="43.03375" lon="-0.22393">
        <ele>1847.76</ele>
        <time>2017-04-06T10:11:24Z</time>
      </trkpt>
      <trkpt lat="43.03373" lon="-0.22396">
        <ele>1847.72</ele>
        <time>2017-04-06T10:11:52Z</time>
      </trkpt>
      <trkpt lat="43.03374" lon="-0.22395">
        <ele>1848.47</ele>
        <time>2017-04-06T10:12:25Z</time>
      </trkpt>
      <trkpt lat="43.03375" lon="-0.22393">
        <ele>1849.47</ele>
        <time>2017-04-06T10:12:58Z</time>
      </trkpt>
      <trkpt lat="43.03375" lon="-0.22393">
        <ele>1849.99</ele>
        <time>2017-04-06T10:13:32Z</time>
      </trkpt>
      <trkpt lat="43.03375" lon="-0.22394">
        <ele>1850.13</ele>
        <time>2017-04-06T10:14:05Z</time>
      </trkpt>
      <trkpt lat="43.03374" lon="-0.22395">
        <ele>1850.19</ele>
        <time>2017-04-06T10:14:36Z</time>
      </trkpt>
      <trkpt lat="43.03375" lon="-0.22395">
        <ele>1850.45</ele>
        <time>2017-04-06T10:14:49Z</time>
      </trkpt>
      <trkpt lat="43.03376" lon="-0.22392">
        <ele>1849.98</ele>
        <time>2017-04-06T10:15:23Z</time>
      </trkpt>
      <trkpt lat="43.03376" lon="-0.22392">
        <ele>1849.35</ele>
        <time>2017-04-06T10:15:59Z</time>
      </trkpt>
      <trkpt lat="43.03375" lon="-0.22394">
        <ele>1849.35</ele>
        <time>2017-04-06T10:16:32Z</time>
      </trkpt>
      <trkpt lat="43.03376" lon="-0.22392">
        <ele>1849.26</ele>
        <time>2017-04-06T10:16:58Z</time>
      </trkpt>
      <trkpt lat="43.03373" lon="-0.22395">
        <ele>1849.45</ele>
        <time>2017-04-06T10:17:28Z</time>
      </trkpt>
      <trkpt lat="43.03374" lon="-0.22395">
        <ele>1848.56</ele>
        <time>2017-04-06T10:17:59Z</time>
      </trkpt>
      <trkpt lat="43.03374" lon="-0.22396">
        <ele>1848.3</ele>
        <time>2017-04-06T10:18:32Z</time>
      </trkpt>
      <trkpt lat="43.03374" lon="-0.22396">
        <ele>1849.05</ele>
        <time>2017-04-06T10:19:08Z</time>
      </trkpt>
      <trkpt lat="43.03373" lon="-0.22393">
        <ele>1849.73</ele>
        <time>2017-04-06T10:19:39Z</time>
      </trkpt>
      <trkpt lat="43.03374" lon="-0.22393">
        <ele>1850.17</ele>
        <time>2017-04-06T10:20:11Z</time>
      </trkpt>
      <trkpt lat="43.03373" lon="-0.22395">
        <ele>1850.76</ele>
        <time>2017-04-06T10:20:46Z</time>
      </trkpt>
      <trkpt lat="43.03374" lon="-0.22394">
        <ele>1851.27</ele>
        <time>2017-04-06T10:21:20Z</time>
      </trkpt>
      <trkpt lat="43.03374" lon="-0.22394">
        <ele>1851.84</ele>
        <time>2017-04-06T10:21:51Z</time>
      </trkpt>
      <trkpt lat="43.03373" lon="-0.22396">
        <ele>1851.17</ele>
        <time>2017-04-06T10:22:26Z</time>
      </trkpt>
      <trkpt lat="43.03373" lon="-0.22396">
        <ele>1850.9</ele>
        <time>2017-04-06T10:22:56Z</time>
      </trkpt>
      <trkpt lat="43.03373" lon="-0.22396">
        <ele>1851.15</ele>
        <time>2017-04-06T10:23:30Z</time>
      </trkpt>
      <trkpt lat="43.03373" lon="-0.22394">
        <ele>1851.08</ele>
        <time>2017-04-06T10:24:22Z</time>
      </trkpt>
      <trkpt lat="43.03373" lon="-0.22395">
        <ele>1850.52</ele>
        <time>2017-04-06T10:25:09Z</time>
      </trkpt>
      <trkpt lat="43.03373" lon="-0.22396">
        <ele>1850.06</ele>
        <time>2017-04-06T10:25:53Z</time>
      </trkpt>
      <trkpt lat="43.03373" lon="-0.22396">
        <ele>1850.09</ele>
        <time>2017-04-06T10:26:28Z</time>
      </trkpt>
      <trkpt lat="43.03373" lon="-0.22396">
        <ele>1849.9</ele>
        <time>2017-04-06T10:27:02Z</time>
      </trkpt>
      <trkpt lat="43.03374" lon="-0.22399">
        <ele>1849.88</ele>
        <time>2017-04-06T10:27:34Z</time>
      </trkpt>
      <trkpt lat="43.03374" lon="-0.22395">
        <ele>1849.95</ele>
        <time>2017-04-06T10:28:06Z</time>
      </trkpt>
      <trkpt lat="43.03373" lon="-0.22395">
        <ele>1850.04</ele>
        <time>2017-04-06T10:28:34Z</time>
      </trkpt>
      <trkpt lat="43.03374" lon="-0.22393">
        <ele>1849.37</ele>
        <time>2017-04-06T10:29:06Z</time>
      </trkpt>
      <trkpt lat="43.03373" lon="-0.22395">
        <ele>1849.31</ele>
        <time>2017-04-06T10:29:42Z</time>
      </trkpt>
      <trkpt lat="43.03374" lon="-0.22394">
        <ele>1849.69</ele>
        <time>2017-04-06T10:30:18Z</time>
      </trkpt>
      <trkpt lat="43.03374" lon="-0.22395">
        <ele>1849.27</ele>
        <time>2017-04-06T10:30:58Z</time>
      </trkpt>
      <trkpt lat="43.03374" lon="-0.22395">
        <ele>1849.14</ele>
        <time>2017-04-06T10:31:26Z</time>
      </trkpt>
      <trkpt lat="43.03374" lon="-0.22395">
        <ele>1849.61</ele>
        <time>2017-04-06T10:31:59Z</time>
      </trkpt>
      <trkpt lat="43.03374" lon="-0.22396">
        <ele>1849.34</ele>
        <time>2017-04-06T10:32:35Z</time>
      </trkpt>
      <trkpt lat="43.03374" lon="-0.22396">
        <ele>1849.1</ele>
        <time>2017-04-06T10:33:19Z</time>
      </trkpt>
      <trkpt lat="43.03374" lon="-0.22395">
        <ele>1848.71</ele>
        <time>2017-04-06T10:33:54Z</time>
      </trkpt>
      <trkpt lat="43.03374" lon="-0.22394">
        <ele>1849.22</ele>
        <time>2017-04-06T10:34:35Z</time>
      </trkpt>
      <trkpt lat="43.03374" lon="-0.22393">
        <ele>1849.5</ele>
        <time>2017-04-06T10:35:07Z</time>
      </trkpt>
      <trkpt lat="43.03372" lon="-0.22395">
        <ele>1849.95</ele>
        <time>2017-04-06T10:35:48Z</time>
      </trkpt>
      <trkpt lat="43.03372" lon="-0.22397">
        <ele>1850.28</ele>
        <time>2017-04-06T10:36:22Z</time>
      </trkpt>
      <trkpt lat="43.03373" lon="-0.22396">
        <ele>1849.62</ele>
        <time>2017-04-06T10:36:54Z</time>
      </trkpt>
      <trkpt lat="43.03373" lon="-0.22394">
        <ele>1849.24</ele>
        <time>2017-04-06T10:37:25Z</time>
      </trkpt>
      <trkpt lat="43.03373" lon="-0.22394">
        <ele>1849.4</ele>
        <time>2017-04-06T10:37:59Z</time>
      </trkpt>
      <trkpt lat="43.03373" lon="-0.22393">
        <ele>1849.29</ele>
        <time>2017-04-06T10:38:27Z</time>
      </trkpt>
      <trkpt lat="43.03373" lon="-0.22393">
        <ele>1849.54</ele>
        <time>2017-04-06T10:38:56Z</time>
      </trkpt>
      <trkpt lat="43.03373" lon="-0.22393">
        <ele>1849.61</ele>
        <time>2017-04-06T10:39:23Z</time>
      </trkpt>
      <trkpt lat="43.03374" lon="-0.22394">
        <ele>1848.95</ele>
        <time>2017-04-06T10:39:51Z</time>
      </trkpt>
      <trkpt lat="43.03375" lon="-0.22394">
        <ele>1847.81</ele>
        <time>2017-04-06T10:40:20Z</time>
      </trkpt>
      <trkpt lat="43.03376" lon="-0.22396">
        <ele>1847.63</ele>
        <time>2017-04-06T10:40:51Z</time>
      </trkpt>
      <trkpt lat="43.03376" lon="-0.22396">
        <ele>1846.6</ele>
        <time>2017-04-06T10:41:22Z</time>
      </trkpt>
      <trkpt lat="43.03376" lon="-0.22397">
        <ele>1846.9</ele>
        <time>2017-04-06T10:41:59Z</time>
      </trkpt>
      <trkpt lat="43.03376" lon="-0.22397">
        <ele>1847.15</ele>
        <time>2017-04-06T10:42:27Z</time>
      </trkpt>
      <trkpt lat="43.03374" lon="-0.22394">
        <ele>1846.87</ele>
        <time>2017-04-06T10:43:12Z</time>
      </trkpt>
      <trkpt lat="43.03374" lon="-0.22395">
        <ele>1847.5</ele>
        <time>2017-04-06T10:43:46Z</time>
      </trkpt>
      <trkpt lat="43.03374" lon="-0.22395">
        <ele>1847.51</ele>
        <time>2017-04-06T10:44:23Z</time>
      </trkpt>
      <trkpt lat="43.03374" lon="-0.22395">
        <ele>1848.36</ele>
        <time>2017-04-06T10:45:10Z</time>
      </trkpt>
      <trkpt lat="43.03373" lon="-0.22395">
        <ele>1848.69</ele>
        <time>2017-04-06T10:46:01Z</time>
      </trkpt>
      <trkpt lat="43.03375" lon="-0.22396">
        <ele>1848.84</ele>
        <time>2017-04-06T10:47:06Z</time>
      </trkpt>
      <trkpt lat="43.03376" lon="-0.22396">
        <ele>1848.69</ele>
        <time>2017-04-06T10:47:36Z</time>
      </trkpt>
      <trkpt lat="43.03378" lon="-0.22398">
        <ele>1848.51</ele>
        <time>2017-04-06T10:48:01Z</time>
      </trkpt>
      <trkpt lat="43.03377" lon="-0.22398">
        <ele>1847.73</ele>
        <time>2017-04-06T10:48:28Z</time>
      </trkpt>
      <trkpt lat="43.03378" lon="-0.224">
        <ele>1847.97</ele>
        <time>2017-04-06T10:48:50Z</time>
      </trkpt>
      <trkpt lat="43.03379" lon="-0.22399">
        <ele>1849.31</ele>
        <time>2017-04-06T10:49:14Z</time>
      </trkpt>
      <trkpt lat="43.03381" lon="-0.22402">
        <ele>1848.3</ele>
        <time>2017-04-06T10:49:38Z</time>
      </trkpt>
      <trkpt lat="43.03383" lon="-0.22405">
        <ele>1848.16</ele>
        <time>2017-04-06T10:50:05Z</time>
      </trkpt>
      <trkpt lat="43.03383" lon="-0.22406">
        <ele>1847.29</ele>
        <time>2017-04-06T10:50:34Z</time>
      </trkpt>
      <trkpt lat="43.03387" lon="-0.22399">
        <ele>1845.93</ele>
        <time>2017-04-06T10:50:53Z</time>
      </trkpt>
      <trkpt lat="43.03399" lon="-0.22398">
        <ele>1838.16</ele>
        <time>2017-04-06T10:51:11Z</time>
      </trkpt>
      <trkpt lat="43.03407" lon="-0.22395">
        <ele>1833.13</ele>
        <time>2017-04-06T10:51:30Z</time>
      </trkpt>
      <trkpt lat="43.03419" lon="-0.2239">
        <ele>1830.14</ele>
        <time>2017-04-06T10:51:51Z</time>
      </trkpt>
      <trkpt lat="43.03417" lon="-0.22389">
        <ele>1828.38</ele>
        <time>2017-04-06T10:52:19Z</time>
      </trkpt>
      <trkpt lat="43.03418" lon="-0.22389">
        <ele>1824.43</ele>
        <time>2017-04-06T10:53:18Z</time>
      </trkpt>
      <trkpt lat="43.03423" lon="-0.22383">
        <ele>1824.15</ele>
        <time>2017-04-06T10:53:39Z</time>
      </trkpt>
      <trkpt lat="43.03428" lon="-0.22378">
        <ele>1823.66</ele>
        <time>2017-04-06T10:53:59Z</time>
      </trkpt>
      <trkpt lat="43.0343" lon="-0.22377">
        <ele>1821.54</ele>
        <time>2017-04-06T10:54:31Z</time>
      </trkpt>
      <trkpt lat="43.03429" lon="-0.22378">
        <ele>1818.39</ele>
        <time>2017-04-06T10:55:41Z</time>
      </trkpt>
      <trkpt lat="43.03428" lon="-0.2238">
        <ele>1818.58</ele>
        <time>2017-04-06T10:56:28Z</time>
      </trkpt>
      <trkpt lat="43.03427" lon="-0.22378">
        <ele>1818.85</ele>
        <time>2017-04-06T10:56:51Z</time>
      </trkpt>
      <trkpt lat="43.03431" lon="-0.22378">
        <ele>1819.27</ele>
        <time>2017-04-06T10:57:35Z</time>
      </trkpt>
      <trkpt lat="43.03437" lon="-0.22385">
        <ele>1817.72</ele>
        <time>2017-04-06T10:57:55Z</time>
      </trkpt>
      <trkpt lat="43.03437" lon="-0.22383">
        <ele>1815.97</ele>
        <time>2017-04-06T10:58:35Z</time>
      </trkpt>
      <trkpt lat="43.03434" lon="-0.22382">
        <ele>1814.54</ele>
        <time>2017-04-06T10:59:10Z</time>
      </trkpt>
      <trkpt lat="43.03432" lon="-0.22384">
        <ele>1816.87</ele>
        <time>2017-04-06T10:59:43Z</time>
      </trkpt>
      <trkpt lat="43.03435" lon="-0.22384">
        <ele>1814.07</ele>
        <time>2017-04-06T11:00:17Z</time>
      </trkpt>
      <trkpt lat="43.03435" lon="-0.22384">
        <ele>1814.78</ele>
        <time>2017-04-06T11:00:56Z</time>
      </trkpt>
      <trkpt lat="43.03436" lon="-0.22384">
        <ele>1814.97</ele>
        <time>2017-04-06T11:01:46Z</time>
      </trkpt>
      <trkpt lat="43.03433" lon="-0.22386">
        <ele>1815</ele>
        <time>2017-04-06T11:02:36Z</time>
      </trkpt>
      <trkpt lat="43.03433" lon="-0.22397">
        <ele>1811.75</ele>
        <time>2017-04-06T11:03:05Z</time>
      </trkpt>
      <trkpt lat="43.03433" lon="-0.22406">
        <ele>1808</ele>
        <time>2017-04-06T11:03:31Z</time>
      </trkpt>
      <trkpt lat="43.03434" lon="-0.22414">
        <ele>1803.68</ele>
        <time>2017-04-06T11:04:01Z</time>
      </trkpt>
      <trkpt lat="43.03436" lon="-0.22416">
        <ele>1802.01</ele>
        <time>2017-04-06T11:04:25Z</time>
      </trkpt>
      <trkpt lat="43.03445" lon="-0.22421">
        <ele>1797.55</ele>
        <time>2017-04-06T11:04:50Z</time>
      </trkpt>
      <trkpt lat="43.03445" lon="-0.22428">
        <ele>1793.54</ele>
        <time>2017-04-06T11:05:12Z</time>
      </trkpt>
      <trkpt lat="43.03446" lon="-0.22433">
        <ele>1788.06</ele>
        <time>2017-04-06T11:05:36Z</time>
      </trkpt>
      <trkpt lat="43.03449" lon="-0.22434">
        <ele>1784.91</ele>
        <time>2017-04-06T11:05:52Z</time>
      </trkpt>
      <trkpt lat="43.03444" lon="-0.22427">
        <ele>1779.92</ele>
        <time>2017-04-06T11:06:43Z</time>
      </trkpt>
      <trkpt lat="43.03444" lon="-0.22426">
        <ele>1778.84</ele>
        <time>2017-04-06T11:07:36Z</time>
      </trkpt>
      <trkpt lat="43.03442" lon="-0.22424">
        <ele>1777.93</ele>
        <time>2017-04-06T11:08:53Z</time>
      </trkpt>
      <trkpt lat="43.0344" lon="-0.22426">
        <ele>1778.32</ele>
        <time>2017-04-06T11:09:37Z</time>
      </trkpt>
      <trkpt lat="43.03442" lon="-0.2243">
        <ele>1777.99</ele>
        <time>2017-04-06T11:10:11Z</time>
      </trkpt>
      <trkpt lat="43.0344" lon="-0.22428">
        <ele>1778.54</ele>
        <time>2017-04-06T11:10:34Z</time>
      </trkpt>
      <trkpt lat="43.03441" lon="-0.22429">
        <ele>1778.37</ele>
        <time>2017-04-06T11:11:03Z</time>
      </trkpt>
      <trkpt lat="43.0344" lon="-0.22429">
        <ele>1776.81</ele>
        <time>2017-04-06T11:11:40Z</time>
      </trkpt>
      <trkpt lat="43.0344" lon="-0.22428">
        <ele>1776.76</ele>
        <time>2017-04-06T11:12:09Z</time>
      </trkpt>
      <trkpt lat="43.03439" lon="-0.22427">
        <ele>1776.92</ele>
        <time>2017-04-06T11:12:43Z</time>
      </trkpt>
      <trkpt lat="43.0344" lon="-0.22428">
        <ele>1774.58</ele>
        <time>2017-04-06T11:13:16Z</time>
      </trkpt>
      <trkpt lat="43.0344" lon="-0.22429">
        <ele>1775.27</ele>
        <time>2017-04-06T11:13:43Z</time>
      </trkpt>
      <trkpt lat="43.03439" lon="-0.22427">
        <ele>1774.52</ele>
        <time>2017-04-06T11:14:10Z</time>
      </trkpt>
      <trkpt lat="43.03439" lon="-0.22428">
        <ele>1774.89</ele>
        <time>2017-04-06T11:14:37Z</time>
      </trkpt>
      <trkpt lat="43.0344" lon="-0.22429">
        <ele>1776.17</ele>
        <time>2017-04-06T11:15:07Z</time>
      </trkpt>
      <trkpt lat="43.0344" lon="-0.22427">
        <ele>1776.62</ele>
        <time>2017-04-06T11:15:40Z</time>
      </trkpt>
      <trkpt lat="43.0344" lon="-0.22431">
        <ele>1777.1</ele>
        <time>2017-04-06T11:16:14Z</time>
      </trkpt>
      <trkpt lat="43.03439" lon="-0.2243">
        <ele>1776.25</ele>
        <time>2017-04-06T11:16:47Z</time>
      </trkpt>
      <trkpt lat="43.03437" lon="-0.22427">
        <ele>1775.07</ele>
        <time>2017-04-06T11:17:23Z</time>
      </trkpt>
      <trkpt lat="43.03438" lon="-0.2243">
        <ele>1777.24</ele>
        <time>2017-04-06T11:17:51Z</time>
      </trkpt>
      <trkpt lat="43.03438" lon="-0.22431">
        <ele>1777.84</ele>
        <time>2017-04-06T11:18:22Z</time>
      </trkpt>
      <trkpt lat="43.03438" lon="-0.22433">
        <ele>1781.69</ele>
        <time>2017-04-06T11:19:12Z</time>
      </trkpt>
      <trkpt lat="43.03438" lon="-0.2243">
        <ele>1780.16</ele>
        <time>2017-04-06T11:20:07Z</time>
      </trkpt>
      <trkpt lat="43.0344" lon="-0.22431">
        <ele>1778.55</ele>
        <time>2017-04-06T11:20:59Z</time>
      </trkpt>
      <trkpt lat="43.03438" lon="-0.22437">
        <ele>1778.9</ele>
        <time>2017-04-06T11:21:32Z</time>
      </trkpt>
      <trkpt lat="43.03443" lon="-0.22448">
        <ele>1774.58</ele>
        <time>2017-04-06T11:21:45Z</time>
      </trkpt>
      <trkpt lat="43.03462" lon="-0.22471">
        <ele>1765.41</ele>
        <time>2017-04-06T11:21:54Z</time>
      </trkpt>
      <trkpt lat="43.03458" lon="-0.22468">
        <ele>1764.63</ele>
        <time>2017-04-06T11:22:27Z</time>
      </trkpt>
      <trkpt lat="43.03455" lon="-0.22465">
        <ele>1762.19</ele>
        <time>2017-04-06T11:22:59Z</time>
      </trkpt>
      <trkpt lat="43.03458" lon="-0.22466">
        <ele>1758.59</ele>
        <time>2017-04-06T11:23:25Z</time>
      </trkpt>
      <trkpt lat="43.03456" lon="-0.22467">
        <ele>1755.53</ele>
        <time>2017-04-06T11:23:55Z</time>
      </trkpt>
      <trkpt lat="43.03451" lon="-0.22466">
        <ele>1753.15</ele>
        <time>2017-04-06T11:24:23Z</time>
      </trkpt>
      <trkpt lat="43.03446" lon="-0.22469">
        <ele>1751.46</ele>
        <time>2017-04-06T11:24:39Z</time>
      </trkpt>
      <trkpt lat="43.03446" lon="-0.22471">
        <ele>1751.08</ele>
        <time>2017-04-06T11:25:02Z</time>
      </trkpt>
      <trkpt lat="43.03452" lon="-0.22472">
        <ele>1749.06</ele>
        <time>2017-04-06T11:25:26Z</time>
      </trkpt>
      <trkpt lat="43.03463" lon="-0.22475">
        <ele>1743.31</ele>
        <time>2017-04-06T11:25:44Z</time>
      </trkpt>
      <trkpt lat="43.03476" lon="-0.22477">
        <ele>1737.23</ele>
        <time>2017-04-06T11:26:01Z</time>
      </trkpt>
      <trkpt lat="43.03486" lon="-0.22484">
        <ele>1730.63</ele>
        <time>2017-04-06T11:26:18Z</time>
      </trkpt>
      <trkpt lat="43.03496" lon="-0.2249">
        <ele>1719.37</ele>
        <time>2017-04-06T11:26:33Z</time>
      </trkpt>
      <trkpt lat="43.03506" lon="-0.22492">
        <ele>1714.44</ele>
        <time>2017-04-06T11:26:50Z</time>
      </trkpt>
      <trkpt lat="43.03513" lon="-0.22494">
        <ele>1708.59</ele>
        <time>2017-04-06T11:27:00Z</time>
      </trkpt>
      <trkpt lat="43.03522" lon="-0.22497">
        <ele>1699.67</ele>
        <time>2017-04-06T11:27:15Z</time>
      </trkpt>
      <trkpt lat="43.03533" lon="-0.22503">
        <ele>1696.36</ele>
        <time>2017-04-06T11:27:31Z</time>
      </trkpt>
      <trkpt lat="43.03545" lon="-0.22507">
        <ele>1691.01</ele>
        <time>2017-04-06T11:27:46Z</time>
      </trkpt>
      <trkpt lat="43.03556" lon="-0.22509">
        <ele>1688.75</ele>
        <time>2017-04-06T11:27:59Z</time>
      </trkpt>
      <trkpt lat="43.03565" lon="-0.22513">
        <ele>1687.44</ele>
        <time>2017-04-06T11:28:11Z</time>
      </trkpt>
      <trkpt lat="43.03572" lon="-0.22521">
        <ele>1684.32</ele>
        <time>2017-04-06T11:28:23Z</time>
      </trkpt>
      <trkpt lat="43.03581" lon="-0.22527">
        <ele>1683.26</ele>
        <time>2017-04-06T11:28:37Z</time>
      </trkpt>
      <trkpt lat="43.03589" lon="-0.22537">
        <ele>1680.8</ele>
        <time>2017-04-06T11:28:53Z</time>
      </trkpt>
      <trkpt lat="43.03592" lon="-0.22542">
        <ele>1680.37</ele>
        <time>2017-04-06T11:29:07Z</time>
      </trkpt>
      <trkpt lat="43.03595" lon="-0.22537">
        <ele>1681.78</ele>
        <time>2017-04-06T11:29:27Z</time>
      </trkpt>
      <trkpt lat="43.03604" lon="-0.22533">
        <ele>1681.17</ele>
        <time>2017-04-06T11:29:40Z</time>
      </trkpt>
      <trkpt lat="43.03613" lon="-0.22532">
        <ele>1677.35</ele>
        <time>2017-04-06T11:29:57Z</time>
      </trkpt>
      <trkpt lat="43.03622" lon="-0.22533">
        <ele>1671.81</ele>
        <time>2017-04-06T11:30:13Z</time>
      </trkpt>
      <trkpt lat="43.03632" lon="-0.22533">
        <ele>1668.21</ele>
        <time>2017-04-06T11:30:30Z</time>
      </trkpt>
      <trkpt lat="43.0364" lon="-0.22531">
        <ele>1664.66</ele>
        <time>2017-04-06T11:30:45Z</time>
      </trkpt>
      <trkpt lat="43.03648" lon="-0.22532">
        <ele>1660.59</ele>
        <time>2017-04-06T11:31:00Z</time>
      </trkpt>
      <trkpt lat="43.03657" lon="-0.22532">
        <ele>1656.38</ele>
        <time>2017-04-06T11:31:17Z</time>
      </trkpt>
      <trkpt lat="43.03663" lon="-0.22531">
        <ele>1653.96</ele>
        <time>2017-04-06T11:31:30Z</time>
      </trkpt>
      <trkpt lat="43.03669" lon="-0.2253">
        <ele>1651.63</ele>
        <time>2017-04-06T11:31:46Z</time>
      </trkpt>
      <trkpt lat="43.03676" lon="-0.2253">
        <ele>1649.91</ele>
        <time>2017-04-06T11:32:01Z</time>
      </trkpt>
      <trkpt lat="43.03685" lon="-0.22534">
        <ele>1646.33</ele>
        <time>2017-04-06T11:32:19Z</time>
      </trkpt>
      <trkpt lat="43.03693" lon="-0.22539">
        <ele>1641.59</ele>
        <time>2017-04-06T11:32:34Z</time>
      </trkpt>
      <trkpt lat="43.03698" lon="-0.22544">
        <ele>1638.64</ele>
        <time>2017-04-06T11:32:48Z</time>
      </trkpt>
      <trkpt lat="43.03706" lon="-0.22555">
        <ele>1636.27</ele>
        <time>2017-04-06T11:33:03Z</time>
      </trkpt>
      <trkpt lat="43.03711" lon="-0.22561">
        <ele>1633.04</ele>
        <time>2017-04-06T11:33:13Z</time>
      </trkpt>
      <trkpt lat="43.03717" lon="-0.22576">
        <ele>1629.34</ele>
        <time>2017-04-06T11:33:27Z</time>
      </trkpt>
      <trkpt lat="43.03724" lon="-0.22576">
        <ele>1625.89</ele>
        <time>2017-04-06T11:33:40Z</time>
      </trkpt>
      <trkpt lat="43.03732" lon="-0.22576">
        <ele>1622</ele>
        <time>2017-04-06T11:33:56Z</time>
      </trkpt>
      <trkpt lat="43.03744" lon="-0.22579">
        <ele>1616.76</ele>
        <time>2017-04-06T11:34:16Z</time>
      </trkpt>
      <trkpt lat="43.03758" lon="-0.2258">
        <ele>1606.79</ele>
        <time>2017-04-06T11:34:37Z</time>
      </trkpt>
      <trkpt lat="43.03768" lon="-0.22591">
        <ele>1596.96</ele>
        <time>2017-04-06T11:34:55Z</time>
      </trkpt>
      <trkpt lat="43.03773" lon="-0.22591">
        <ele>1594.66</ele>
        <time>2017-04-06T11:35:02Z</time>
      </trkpt>
      <trkpt lat="43.03786" lon="-0.22586">
        <ele>1585.75</ele>
        <time>2017-04-06T11:35:22Z</time>
      </trkpt>
      <trkpt lat="43.038" lon="-0.22591">
        <ele>1577.26</ele>
        <time>2017-04-06T11:35:42Z</time>
      </trkpt>
      <trkpt lat="43.03815" lon="-0.22598">
        <ele>1568.84</ele>
        <time>2017-04-06T11:36:01Z</time>
      </trkpt>
      <trkpt lat="43.03827" lon="-0.22598">
        <ele>1563.83</ele>
        <time>2017-04-06T11:36:21Z</time>
      </trkpt>
      <trkpt lat="43.03837" lon="-0.226">
        <ele>1556.12</ele>
        <time>2017-04-06T11:36:41Z</time>
      </trkpt>
      <trkpt lat="43.0384" lon="-0.22601">
        <ele>1555.65</ele>
        <time>2017-04-06T11:37:01Z</time>
      </trkpt>
      <trkpt lat="43.03841" lon="-0.226">
        <ele>1560.25</ele>
        <time>2017-04-06T11:37:31Z</time>
      </trkpt>
      <trkpt lat="43.03839" lon="-0.22608">
        <ele>1563.92</ele>
        <time>2017-04-06T11:38:05Z</time>
      </trkpt>
      <trkpt lat="43.03835" lon="-0.22617">
        <ele>1565.6</ele>
        <time>2017-04-06T11:38:35Z</time>
      </trkpt>
      <trkpt lat="43.03844" lon="-0.22619">
        <ele>1564.68</ele>
        <time>2017-04-06T11:38:59Z</time>
      </trkpt>
      <trkpt lat="43.0386" lon="-0.22611">
        <ele>1560.12</ele>
        <time>2017-04-06T11:39:18Z</time>
      </trkpt>
      <trkpt lat="43.03871" lon="-0.22616">
        <ele>1553.89</ele>
        <time>2017-04-06T11:39:37Z</time>
      </trkpt>
      <trkpt lat="43.0388" lon="-0.22625">
        <ele>1546.57</ele>
        <time>2017-04-06T11:39:56Z</time>
      </trkpt>
      <trkpt lat="43.03885" lon="-0.22635">
        <ele>1541.33</ele>
        <time>2017-04-06T11:40:15Z</time>
      </trkpt>
      <trkpt lat="43.03889" lon="-0.22644">
        <ele>1537.48</ele>
        <time>2017-04-06T11:40:33Z</time>
      </trkpt>
      <trkpt lat="43.03898" lon="-0.22653">
        <ele>1532.41</ele>
        <time>2017-04-06T11:40:51Z</time>
      </trkpt>
      <trkpt lat="43.03909" lon="-0.22668">
        <ele>1522.47</ele>
        <time>2017-04-06T11:41:11Z</time>
      </trkpt>
      <trkpt lat="43.03916" lon="-0.22676">
        <ele>1516.38</ele>
        <time>2017-04-06T11:41:31Z</time>
      </trkpt>
      <trkpt lat="43.0392" lon="-0.22679">
        <ele>1513.83</ele>
        <time>2017-04-06T11:41:49Z</time>
      </trkpt>
      <trkpt lat="43.03922" lon="-0.22686">
        <ele>1512.63</ele>
        <time>2017-04-06T11:42:05Z</time>
      </trkpt>
      <trkpt lat="43.03923" lon="-0.22697">
        <ele>1514.26</ele>
        <time>2017-04-06T11:42:23Z</time>
      </trkpt>
      <trkpt lat="43.03926" lon="-0.22718">
        <ele>1508.27</ele>
        <time>2017-04-06T11:42:42Z</time>
      </trkpt>
      <trkpt lat="43.03937" lon="-0.22721">
        <ele>1502.96</ele>
        <time>2017-04-06T11:42:58Z</time>
      </trkpt>
      <trkpt lat="43.03946" lon="-0.22726">
        <ele>1498</ele>
        <time>2017-04-06T11:43:17Z</time>
      </trkpt>
      <trkpt lat="43.03952" lon="-0.22738">
        <ele>1492.69</ele>
        <time>2017-04-06T11:43:37Z</time>
      </trkpt>
      <trkpt lat="43.03947" lon="-0.22754">
        <ele>1489.54</ele>
        <time>2017-04-06T11:43:55Z</time>
      </trkpt>
      <trkpt lat="43.03944" lon="-0.22768">
        <ele>1485.82</ele>
        <time>2017-04-06T11:44:12Z</time>
      </trkpt>
      <trkpt lat="43.03943" lon="-0.22782">
        <ele>1483.6</ele>
        <time>2017-04-06T11:44:30Z</time>
      </trkpt>
      <trkpt lat="43.03942" lon="-0.22783">
        <ele>1483.44</ele>
        <time>2017-04-06T11:44:32Z</time>
      </trkpt>
      <trkpt lat="43.03943" lon="-0.22791">
        <ele>1483.59</ele>
        <time>2017-04-06T11:45:07Z</time>
      </trkpt>
      <trkpt lat="43.03946" lon="-0.228">
        <ele>1484.26</ele>
        <time>2017-04-06T11:45:26Z</time>
      </trkpt>
      <trkpt lat="43.03942" lon="-0.22809">
        <ele>1484.04</ele>
        <time>2017-04-06T11:45:45Z</time>
      </trkpt>
      <trkpt lat="43.03939" lon="-0.22818">
        <ele>1484.9</ele>
        <time>2017-04-06T11:46:01Z</time>
      </trkpt>
      <trkpt lat="43.03945" lon="-0.2284">
        <ele>1481.97</ele>
        <time>2017-04-06T11:46:20Z</time>
      </trkpt>
      <trkpt lat="43.03953" lon="-0.22853">
        <ele>1481.18</ele>
        <time>2017-04-06T11:46:37Z</time>
      </trkpt>
      <trkpt lat="43.03958" lon="-0.22863">
        <ele>1482.15</ele>
        <time>2017-04-06T11:46:53Z</time>
      </trkpt>
      <trkpt lat="43.03964" lon="-0.22874">
        <ele>1482.43</ele>
        <time>2017-04-06T11:47:08Z</time>
      </trkpt>
      <trkpt lat="43.0397" lon="-0.22888">
        <ele>1480.59</ele>
        <time>2017-04-06T11:47:28Z</time>
      </trkpt>
      <trkpt lat="43.03978" lon="-0.22898">
        <ele>1480.77</ele>
        <time>2017-04-06T11:47:45Z</time>
      </trkpt>
      <trkpt lat="43.03992" lon="-0.22901">
        <ele>1482.31</ele>
        <time>2017-04-06T11:48:04Z</time>
      </trkpt>
      <trkpt lat="43.04003" lon="-0.22911">
        <ele>1484.33</ele>
        <time>2017-04-06T11:48:26Z</time>
      </trkpt>
      <trkpt lat="43.04003" lon="-0.22912">
        <ele>1484.49</ele>
        <time>2017-04-06T11:48:27Z</time>
      </trkpt>
      <trkpt lat="43.0399" lon="-0.22922">
        <ele>1487.15</ele>
        <time>2017-04-06T11:48:53Z</time>
      </trkpt>
      <trkpt lat="43.03987" lon="-0.22925">
        <ele>1488.51</ele>
        <time>2017-04-06T11:49:24Z</time>
      </trkpt>
      <trkpt lat="43.03988" lon="-0.22924">
        <ele>1489.15</ele>
        <time>2017-04-06T11:49:54Z</time>
      </trkpt>
      <trkpt lat="43.0399" lon="-0.22912">
        <ele>1489.15</ele>
        <time>2017-04-06T11:50:31Z</time>
      </trkpt>
      <trkpt lat="43.03993" lon="-0.22914">
        <ele>1492.01</ele>
        <time>2017-04-06T11:50:57Z</time>
      </trkpt>
      <trkpt lat="43.03992" lon="-0.22917">
        <ele>1495.08</ele>
        <time>2017-04-06T11:51:29Z</time>
      </trkpt>
      <trkpt lat="43.03997" lon="-0.22911">
        <ele>1495.71</ele>
        <time>2017-04-06T11:52:02Z</time>
      </trkpt>
      <trkpt lat="43.04" lon="-0.2291">
        <ele>1496.43</ele>
        <time>2017-04-06T11:52:29Z</time>
      </trkpt>
      <trkpt lat="43.04002" lon="-0.22909">
        <ele>1495.43</ele>
        <time>2017-04-06T11:52:58Z</time>
      </trkpt>
      <trkpt lat="43.04013" lon="-0.2291">
        <ele>1497.07</ele>
        <time>2017-04-06T11:53:26Z</time>
      </trkpt>
      <trkpt lat="43.04013" lon="-0.22911">
        <ele>1495.68</ele>
        <time>2017-04-06T11:53:55Z</time>
      </trkpt>
      <trkpt lat="43.04011" lon="-0.22909">
        <ele>1493.97</ele>
        <time>2017-04-06T11:54:30Z</time>
      </trkpt>
      <trkpt lat="43.04014" lon="-0.22913">
        <ele>1497.18</ele>
        <time>2017-04-06T11:55:03Z</time>
      </trkpt>
      <trkpt lat="43.04018" lon="-0.22915">
        <ele>1496.56</ele>
        <time>2017-04-06T11:55:20Z</time>
      </trkpt>
      <trkpt lat="43.04035" lon="-0.2291">
        <ele>1495.94</ele>
        <time>2017-04-06T11:55:53Z</time>
      </trkpt>
      <trkpt lat="43.04039" lon="-0.22919">
        <ele>1496.43</ele>
        <time>2017-04-06T11:56:09Z</time>
      </trkpt>
      <trkpt lat="43.04038" lon="-0.22941">
        <ele>1491.84</ele>
        <time>2017-04-06T11:56:27Z</time>
      </trkpt>
      <trkpt lat="43.04041" lon="-0.2296">
        <ele>1485.89</ele>
        <time>2017-04-06T11:56:44Z</time>
      </trkpt>
      <trkpt lat="43.0404" lon="-0.22983">
        <ele>1480</ele>
        <time>2017-04-06T11:57:03Z</time>
      </trkpt>
      <trkpt lat="43.04042" lon="-0.23005">
        <ele>1474.4</ele>
        <time>2017-04-06T11:57:23Z</time>
      </trkpt>
      <trkpt lat="43.04043" lon="-0.23028">
        <ele>1471.91</ele>
        <time>2017-04-06T11:57:39Z</time>
      </trkpt>
      <trkpt lat="43.04047" lon="-0.23042">
        <ele>1468.73</ele>
        <time>2017-04-06T11:57:57Z</time>
      </trkpt>
      <trkpt lat="43.04049" lon="-0.23066">
        <ele>1464.65</ele>
        <time>2017-04-06T11:58:16Z</time>
      </trkpt>
      <trkpt lat="43.04049" lon="-0.23066">
        <ele>1464.56</ele>
        <time>2017-04-06T11:58:17Z</time>
      </trkpt>
      <trkpt lat="43.04045" lon="-0.23096">
        <ele>1463.1</ele>
        <time>2017-04-06T11:58:37Z</time>
      </trkpt>
      <trkpt lat="43.04045" lon="-0.23115">
        <ele>1462.16</ele>
        <time>2017-04-06T11:58:54Z</time>
      </trkpt>
      <trkpt lat="43.04049" lon="-0.23135">
        <ele>1461.71</ele>
        <time>2017-04-06T11:59:13Z</time>
      </trkpt>
      <trkpt lat="43.04052" lon="-0.23147">
        <ele>1460.79</ele>
        <time>2017-04-06T11:59:30Z</time>
      </trkpt>
      <trkpt lat="43.04057" lon="-0.23169">
        <ele>1454.97</ele>
        <time>2017-04-06T11:59:47Z</time>
      </trkpt>
      <trkpt lat="43.04067" lon="-0.23189">
        <ele>1451.33</ele>
        <time>2017-04-06T12:00:09Z</time>
      </trkpt>
      <trkpt lat="43.04074" lon="-0.23216">
        <ele>1449.28</ele>
        <time>2017-04-06T12:00:30Z</time>
      </trkpt>
      <trkpt lat="43.04077" lon="-0.23239">
        <ele>1447.85</ele>
        <time>2017-04-06T12:00:49Z</time>
      </trkpt>
      <trkpt lat="43.04078" lon="-0.23263">
        <ele>1447.19</ele>
        <time>2017-04-06T12:01:06Z</time>
      </trkpt>
      <trkpt lat="43.04084" lon="-0.23279">
        <ele>1449.02</ele>
        <time>2017-04-06T12:01:22Z</time>
      </trkpt>
      <trkpt lat="43.0409" lon="-0.23298">
        <ele>1447.87</ele>
        <time>2017-04-06T12:01:42Z</time>
      </trkpt>
      <trkpt lat="43.04097" lon="-0.23307">
        <ele>1449.28</ele>
        <time>2017-04-06T12:02:00Z</time>
      </trkpt>
      <trkpt lat="43.04103" lon="-0.23334">
        <ele>1451.78</ele>
        <time>2017-04-06T12:02:20Z</time>
      </trkpt>
      <trkpt lat="43.04109" lon="-0.23352">
        <ele>1450.84</ele>
        <time>2017-04-06T12:02:38Z</time>
      </trkpt>
      <trkpt lat="43.0412" lon="-0.23366">
        <ele>1455.17</ele>
        <time>2017-04-06T12:02:55Z</time>
      </trkpt>
      <trkpt lat="43.04129" lon="-0.23378">
        <ele>1455.41</ele>
        <time>2017-04-06T12:03:11Z</time>
      </trkpt>
      <trkpt lat="43.04136" lon="-0.23388">
        <ele>1456.26</ele>
        <time>2017-04-06T12:03:27Z</time>
      </trkpt>
      <trkpt lat="43.04145" lon="-0.23399">
        <ele>1458.44</ele>
        <time>2017-04-06T12:03:43Z</time>
      </trkpt>
      <trkpt lat="43.0415" lon="-0.23412">
        <ele>1456.76</ele>
        <time>2017-04-06T12:03:59Z</time>
      </trkpt>
      <trkpt lat="43.04157" lon="-0.23419">
        <ele>1459.91</ele>
        <time>2017-04-06T12:04:13Z</time>
      </trkpt>
      <trkpt lat="43.04164" lon="-0.23428">
        <ele>1461.99</ele>
        <time>2017-04-06T12:04:30Z</time>
      </trkpt>
      <trkpt lat="43.04173" lon="-0.23435">
        <ele>1462.26</ele>
        <time>2017-04-06T12:04:45Z</time>
      </trkpt>
      <trkpt lat="43.04178" lon="-0.23438">
        <ele>1462.51</ele>
        <time>2017-04-06T12:04:59Z</time>
      </trkpt>
      <trkpt lat="43.04184" lon="-0.23446">
        <ele>1463.69</ele>
        <time>2017-04-06T12:05:25Z</time>
      </trkpt>
      <trkpt lat="43.04191" lon="-0.23457">
        <ele>1461.79</ele>
        <time>2017-04-06T12:05:41Z</time>
      </trkpt>
      <trkpt lat="43.04199" lon="-0.23469">
        <ele>1459.22</ele>
        <time>2017-04-06T12:05:56Z</time>
      </trkpt>
      <trkpt lat="43.042" lon="-0.2347">
        <ele>1459.1</ele>
        <time>2017-04-06T12:05:57Z</time>
      </trkpt>
      <trkpt lat="43.04207" lon="-0.23486">
        <ele>1459.3</ele>
        <time>2017-04-06T12:06:13Z</time>
      </trkpt>
      <trkpt lat="43.04212" lon="-0.23502">
        <ele>1458.31</ele>
        <time>2017-04-06T12:06:27Z</time>
      </trkpt>
      <trkpt lat="43.04215" lon="-0.23515">
        <ele>1453.52</ele>
        <time>2017-04-06T12:06:39Z</time>
      </trkpt>
      <trkpt lat="43.04219" lon="-0.23533">
        <ele>1450.11</ele>
        <time>2017-04-06T12:06:53Z</time>
      </trkpt>
      <trkpt lat="43.04224" lon="-0.23545">
        <ele>1450.15</ele>
        <time>2017-04-06T12:07:02Z</time>
      </trkpt>
      <trkpt lat="43.04229" lon="-0.23564">
        <ele>1449.19</ele>
        <time>2017-04-06T12:07:18Z</time>
      </trkpt>
      <trkpt lat="43.04234" lon="-0.23578">
        <ele>1446.69</ele>
        <time>2017-04-06T12:07:30Z</time>
      </trkpt>
      <trkpt lat="43.04235" lon="-0.23585">
        <ele>1445.89</ele>
        <time>2017-04-06T12:07:34Z</time>
      </trkpt>
      <trkpt lat="43.04242" lon="-0.23611">
        <ele>1442.56</ele>
        <time>2017-04-06T12:07:50Z</time>
      </trkpt>
      <trkpt lat="43.04243" lon="-0.23621">
        <ele>1441.52</ele>
        <time>2017-04-06T12:07:56Z</time>
      </trkpt>
      <trkpt lat="43.04246" lon="-0.23643">
        <ele>1438.73</ele>
        <time>2017-04-06T12:08:11Z</time>
      </trkpt>
      <trkpt lat="43.04247" lon="-0.23662">
        <ele>1436.09</ele>
        <time>2017-04-06T12:08:25Z</time>
      </trkpt>
      <trkpt lat="43.04252" lon="-0.23683">
        <ele>1434.47</ele>
        <time>2017-04-06T12:08:38Z</time>
      </trkpt>
      <trkpt lat="43.04254" lon="-0.23696">
        <ele>1431.93</ele>
        <time>2017-04-06T12:08:47Z</time>
      </trkpt>
      <trkpt lat="43.04254" lon="-0.23698">
        <ele>1431.41</ele>
        <time>2017-04-06T12:08:49Z</time>
      </trkpt>
      <trkpt lat="43.04258" lon="-0.23715">
        <ele>1428.35</ele>
        <time>2017-04-06T12:09:02Z</time>
      </trkpt>
      <trkpt lat="43.04258" lon="-0.23721">
        <ele>1426.22</ele>
        <time>2017-04-06T12:09:07Z</time>
      </trkpt>
      <trkpt lat="43.04258" lon="-0.23729">
        <ele>1423.79</ele>
        <time>2017-04-06T12:09:12Z</time>
      </trkpt>
      <trkpt lat="43.04263" lon="-0.23751">
        <ele>1420.19</ele>
        <time>2017-04-06T12:09:28Z</time>
      </trkpt>
      <trkpt lat="43.04266" lon="-0.23762">
        <ele>1418.93</ele>
        <time>2017-04-06T12:09:37Z</time>
      </trkpt>
      <trkpt lat="43.0427" lon="-0.23782">
        <ele>1418.11</ele>
        <time>2017-04-06T12:09:52Z</time>
      </trkpt>
      <trkpt lat="43.04272" lon="-0.23792">
        <ele>1416.89</ele>
        <time>2017-04-06T12:10:00Z</time>
      </trkpt>
      <trkpt lat="43.04275" lon="-0.23814">
        <ele>1414.02</ele>
        <time>2017-04-06T12:10:15Z</time>
      </trkpt>
      <trkpt lat="43.04278" lon="-0.23835">
        <ele>1408.38</ele>
        <time>2017-04-06T12:10:31Z</time>
      </trkpt>
      <trkpt lat="43.04282" lon="-0.23853">
        <ele>1404.8</ele>
        <time>2017-04-06T12:10:45Z</time>
      </trkpt>
      <trkpt lat="43.04285" lon="-0.23871">
        <ele>1402.63</ele>
        <time>2017-04-06T12:10:58Z</time>
      </trkpt>
      <trkpt lat="43.04289" lon="-0.23889">
        <ele>1400.39</ele>
        <time>2017-04-06T12:11:13Z</time>
      </trkpt>
      <trkpt lat="43.04293" lon="-0.23907">
        <ele>1397.55</ele>
        <time>2017-04-06T12:11:25Z</time>
      </trkpt>
      <trkpt lat="43.04301" lon="-0.2392">
        <ele>1393.11</ele>
        <time>2017-04-06T12:11:38Z</time>
      </trkpt>
      <trkpt lat="43.04309" lon="-0.23937">
        <ele>1387.72</ele>
        <time>2017-04-06T12:11:54Z</time>
      </trkpt>
      <trkpt lat="43.04309" lon="-0.23946">
        <ele>1384.8</ele>
        <time>2017-04-06T12:12:07Z</time>
      </trkpt>
      <trkpt lat="43.04308" lon="-0.23945">
        <ele>1384.74</ele>
        <time>2017-04-06T12:12:29Z</time>
      </trkpt>
      <trkpt lat="43.0431" lon="-0.23946">
        <ele>1384.16</ele>
        <time>2017-04-06T12:12:55Z</time>
      </trkpt>
      <trkpt lat="43.04304" lon="-0.23942">
        <ele>1384.12</ele>
        <time>2017-04-06T12:13:53Z</time>
      </trkpt>
      <trkpt lat="43.04312" lon="-0.23947">
        <ele>1384.37</ele>
        <time>2017-04-06T12:14:21Z</time>
      </trkpt>
      <trkpt lat="43.04311" lon="-0.23946">
        <ele>1384.48</ele>
        <time>2017-04-06T12:14:55Z</time>
      </trkpt>
      <trkpt lat="43.04308" lon="-0.2394">
        <ele>1384.32</ele>
        <time>2017-04-06T12:15:22Z</time>
      </trkpt>
      <trkpt lat="43.04312" lon="-0.23938">
        <ele>1385.76</ele>
        <time>2017-04-06T12:15:52Z</time>
      </trkpt>
      <trkpt lat="43.04313" lon="-0.23942">
        <ele>1386.76</ele>
        <time>2017-04-06T12:16:19Z</time>
      </trkpt>
      <trkpt lat="43.04312" lon="-0.23943">
        <ele>1387.3</ele>
        <time>2017-04-06T12:16:47Z</time>
      </trkpt>
      <trkpt lat="43.04311" lon="-0.2394">
        <ele>1388.15</ele>
        <time>2017-04-06T12:17:16Z</time>
      </trkpt>
      <trkpt lat="43.04311" lon="-0.2394">
        <ele>1385.75</ele>
        <time>2017-04-06T12:17:49Z</time>
      </trkpt>
      <trkpt lat="43.04311" lon="-0.2394">
        <ele>1386.48</ele>
        <time>2017-04-06T12:18:19Z</time>
      </trkpt>
      <trkpt lat="43.04314" lon="-0.2394">
        <ele>1386.37</ele>
        <time>2017-04-06T12:18:50Z</time>
      </trkpt>
      <trkpt lat="43.04313" lon="-0.23942">
        <ele>1385.46</ele>
        <time>2017-04-06T12:19:16Z</time>
      </trkpt>
      <trkpt lat="43.04312" lon="-0.23942">
        <ele>1385.15</ele>
        <time>2017-04-06T12:19:45Z</time>
      </trkpt>
      <trkpt lat="43.04312" lon="-0.23942">
        <ele>1385.3</ele>
        <time>2017-04-06T12:20:15Z</time>
      </trkpt>
      <trkpt lat="43.04311" lon="-0.2394">
        <ele>1384.9</ele>
        <time>2017-04-06T12:20:46Z</time>
      </trkpt>
      <trkpt lat="43.04313" lon="-0.23942">
        <ele>1385.34</ele>
        <time>2017-04-06T12:21:17Z</time>
      </trkpt>
      <trkpt lat="43.04313" lon="-0.23942">
        <ele>1385.59</ele>
        <time>2017-04-06T12:21:47Z</time>
      </trkpt>
      <trkpt lat="43.04316" lon="-0.2394">
        <ele>1386.95</ele>
        <time>2017-04-06T12:22:16Z</time>
      </trkpt>
      <trkpt lat="43.04312" lon="-0.23941">
        <ele>1387.38</ele>
        <time>2017-04-06T12:22:46Z</time>
      </trkpt>
      <trkpt lat="43.04311" lon="-0.23943">
        <ele>1387.44</ele>
        <time>2017-04-06T12:23:17Z</time>
      </trkpt>
      <trkpt lat="43.04312" lon="-0.2394">
        <ele>1387.3</ele>
        <time>2017-04-06T12:23:47Z</time>
      </trkpt>
      <trkpt lat="43.0431" lon="-0.23942">
        <ele>1386.98</ele>
        <time>2017-04-06T12:24:16Z</time>
      </trkpt>
      <trkpt lat="43.04312" lon="-0.2394">
        <ele>1387.34</ele>
        <time>2017-04-06T12:24:38Z</time>
      </trkpt>
      <trkpt lat="43.04313" lon="-0.23942">
        <ele>1388.41</ele>
        <time>2017-04-06T12:25:12Z</time>
      </trkpt>
      <trkpt lat="43.04319" lon="-0.23943">
        <ele>1388.08</ele>
        <time>2017-04-06T12:25:38Z</time>
      </trkpt>
      <trkpt lat="43.04331" lon="-0.23947">
        <ele>1382.88</ele>
        <time>2017-04-06T12:25:53Z</time>
      </trkpt>
      <trkpt lat="43.04339" lon="-0.23949">
        <ele>1379.82</ele>
        <time>2017-04-06T12:26:06Z</time>
      </trkpt>
      <trkpt lat="43.04341" lon="-0.2395">
        <ele>1379.82</ele>
        <time>2017-04-06T12:26:08Z</time>
      </trkpt>
      <trkpt lat="43.04347" lon="-0.23953">
        <ele>1378.88</ele>
        <time>2017-04-06T12:26:14Z</time>
      </trkpt>
      <trkpt lat="43.0436" lon="-0.23957">
        <ele>1374.32</ele>
        <time>2017-04-06T12:26:27Z</time>
      </trkpt>
      <trkpt lat="43.04365" lon="-0.23961">
        <ele>1372.19</ele>
        <time>2017-04-06T12:26:34Z</time>
      </trkpt>
      <trkpt lat="43.04371" lon="-0.23967">
        <ele>1370.76</ele>
        <time>2017-04-06T12:26:49Z</time>
      </trkpt>
      <trkpt lat="43.04377" lon="-0.2397">
        <ele>1368.01</ele>
        <time>2017-04-06T12:26:55Z</time>
      </trkpt>
      <trkpt lat="43.04386" lon="-0.23984">
        <ele>1359.3</ele>
        <time>2017-04-06T12:27:08Z</time>
      </trkpt>
      <trkpt lat="43.04391" lon="-0.24002">
        <ele>1346.19</ele>
        <time>2017-04-06T12:27:25Z</time>
      </trkpt>
      <trkpt lat="43.04397" lon="-0.24023">
        <ele>1335.76</ele>
        <time>2017-04-06T12:27:42Z</time>
      </trkpt>
      <trkpt lat="43.04401" lon="-0.24046">
        <ele>1325.07</ele>
        <time>2017-04-06T12:28:02Z</time>
      </trkpt>
      <trkpt lat="43.04404" lon="-0.24063">
        <ele>1316.84</ele>
        <time>2017-04-06T12:28:17Z</time>
      </trkpt>
      <trkpt lat="43.04404" lon="-0.24081">
        <ele>1317.84</ele>
        <time>2017-04-06T12:28:39Z</time>
      </trkpt>
      <trkpt lat="43.04408" lon="-0.24102">
        <ele>1314.24</ele>
        <time>2017-04-06T12:28:57Z</time>
      </trkpt>
      <trkpt lat="43.04408" lon="-0.24111">
        <ele>1312.25</ele>
        <time>2017-04-06T12:29:03Z</time>
      </trkpt>
      <trkpt lat="43.04401" lon="-0.24125">
        <ele>1306.72</ele>
        <time>2017-04-06T12:29:18Z</time>
      </trkpt>
      <trkpt lat="43.04403" lon="-0.24125">
        <ele>1306.93</ele>
        <time>2017-04-06T12:29:23Z</time>
      </trkpt>
      <trkpt lat="43.04414" lon="-0.24132">
        <ele>1308.34</ele>
        <time>2017-04-06T12:29:40Z</time>
      </trkpt>
      <trkpt lat="43.04411" lon="-0.2416">
        <ele>1303.42</ele>
        <time>2017-04-06T12:29:59Z</time>
      </trkpt>
      <trkpt lat="43.04409" lon="-0.24176">
        <ele>1298.95</ele>
        <time>2017-04-06T12:30:16Z</time>
      </trkpt>
      <trkpt lat="43.04406" lon="-0.24204">
        <ele>1290.53</ele>
        <time>2017-04-06T12:30:37Z</time>
      </trkpt>
      <trkpt lat="43.04408" lon="-0.24219">
        <ele>1288.74</ele>
        <time>2017-04-06T12:30:55Z</time>
      </trkpt>
      <trkpt lat="43.0441" lon="-0.24237">
        <ele>1288.03</ele>
        <time>2017-04-06T12:31:13Z</time>
      </trkpt>
      <trkpt lat="43.04402" lon="-0.24257">
        <ele>1286.23</ele>
        <time>2017-04-06T12:31:29Z</time>
      </trkpt>
      <trkpt lat="43.04402" lon="-0.2426">
        <ele>1285.58</ele>
        <time>2017-04-06T12:31:31Z</time>
      </trkpt>
      <trkpt lat="43.04394" lon="-0.24278">
        <ele>1280.81</ele>
        <time>2017-04-06T12:31:49Z</time>
      </trkpt>
      <trkpt lat="43.0439" lon="-0.243">
        <ele>1274.1</ele>
        <time>2017-04-06T12:32:06Z</time>
      </trkpt>
      <trkpt lat="43.04392" lon="-0.24304">
        <ele>1273.06</ele>
        <time>2017-04-06T12:32:09Z</time>
      </trkpt>
      <trkpt lat="43.0439" lon="-0.24326">
        <ele>1267.81</ele>
        <time>2017-04-06T12:32:24Z</time>
      </trkpt>
      <trkpt lat="43.04391" lon="-0.24343">
        <ele>1260.14</ele>
        <time>2017-04-06T12:32:39Z</time>
      </trkpt>
      <trkpt lat="43.04391" lon="-0.24364">
        <ele>1254.91</ele>
        <time>2017-04-06T12:32:55Z</time>
      </trkpt>
      <trkpt lat="43.04389" lon="-0.24384">
        <ele>1249.14</ele>
        <time>2017-04-06T12:33:11Z</time>
      </trkpt>
      <trkpt lat="43.04387" lon="-0.24406">
        <ele>1245.23</ele>
        <time>2017-04-06T12:33:30Z</time>
      </trkpt>
      <trkpt lat="43.04389" lon="-0.24429">
        <ele>1236.94</ele>
        <time>2017-04-06T12:33:49Z</time>
      </trkpt>
      <trkpt lat="43.0439" lon="-0.24441">
        <ele>1235.53</ele>
        <time>2017-04-06T12:34:07Z</time>
      </trkpt>
      <trkpt lat="43.0439" lon="-0.24452">
        <ele>1236.76</ele>
        <time>2017-04-06T12:34:26Z</time>
      </trkpt>
      <trkpt lat="43.04387" lon="-0.24453">
        <ele>1238.82</ele>
        <time>2017-04-06T12:34:56Z</time>
      </trkpt>
      <trkpt lat="43.04387" lon="-0.24456">
        <ele>1244.12</ele>
        <time>2017-04-06T12:35:31Z</time>
      </trkpt>
      <trkpt lat="43.04385" lon="-0.24459">
        <ele>1244.51</ele>
        <time>2017-04-06T12:36:01Z</time>
      </trkpt>
      <trkpt lat="43.04386" lon="-0.24463">
        <ele>1244.02</ele>
        <time>2017-04-06T12:36:29Z</time>
      </trkpt>
      <trkpt lat="43.04389" lon="-0.2446">
        <ele>1245.83</ele>
        <time>2017-04-06T12:37:00Z</time>
      </trkpt>
      <trkpt lat="43.04392" lon="-0.2446">
        <ele>1246.39</ele>
        <time>2017-04-06T12:37:24Z</time>
      </trkpt>
      <trkpt lat="43.0439" lon="-0.24459">
        <ele>1246.07</ele>
        <time>2017-04-06T12:37:26Z</time>
      </trkpt>
      <trkpt lat="43.04389" lon="-0.24462">
        <ele>1246.02</ele>
        <time>2017-04-06T12:37:59Z</time>
      </trkpt>
      <trkpt lat="43.04389" lon="-0.24466">
        <ele>1249</ele>
        <time>2017-04-06T12:38:28Z</time>
      </trkpt>
      <trkpt lat="43.04393" lon="-0.24471">
        <ele>1247.72</ele>
        <time>2017-04-06T12:38:58Z</time>
      </trkpt>
      <trkpt lat="43.04396" lon="-0.24473">
        <ele>1247.05</ele>
        <time>2017-04-06T12:39:25Z</time>
      </trkpt>
      <trkpt lat="43.04395" lon="-0.24478">
        <ele>1248.03</ele>
        <time>2017-04-06T12:39:52Z</time>
      </trkpt>
      <trkpt lat="43.04397" lon="-0.2449">
        <ele>1242.98</ele>
        <time>2017-04-06T12:40:11Z</time>
      </trkpt>
      <trkpt lat="43.04397" lon="-0.24499">
        <ele>1238.79</ele>
        <time>2017-04-06T12:40:29Z</time>
      </trkpt>
      <trkpt lat="43.04405" lon="-0.24518">
        <ele>1232.18</ele>
        <time>2017-04-06T12:40:48Z</time>
      </trkpt>
      <trkpt lat="43.04415" lon="-0.24531">
        <ele>1225.81</ele>
        <time>2017-04-06T12:41:08Z</time>
      </trkpt>
      <trkpt lat="43.04425" lon="-0.24547">
        <ele>1222.24</ele>
        <time>2017-04-06T12:41:26Z</time>
      </trkpt>
      <trkpt lat="43.04427" lon="-0.24549">
        <ele>1221.96</ele>
        <time>2017-04-06T12:41:29Z</time>
      </trkpt>
      <trkpt lat="43.0444" lon="-0.24561">
        <ele>1218.53</ele>
        <time>2017-04-06T12:41:45Z</time>
      </trkpt>
      <trkpt lat="43.04456" lon="-0.24573">
        <ele>1212.15</ele>
        <time>2017-04-06T12:42:05Z</time>
      </trkpt>
      <trkpt lat="43.04466" lon="-0.24584">
        <ele>1209.66</ele>
        <time>2017-04-06T12:42:18Z</time>
      </trkpt>
      <trkpt lat="43.04473" lon="-0.24601">
        <ele>1207.45</ele>
        <time>2017-04-06T12:42:33Z</time>
      </trkpt>
      <trkpt lat="43.04481" lon="-0.24611">
        <ele>1205.95</ele>
        <time>2017-04-06T12:42:41Z</time>
      </trkpt>
      <trkpt lat="43.04492" lon="-0.24624">
        <ele>1203.57</ele>
        <time>2017-04-06T12:42:54Z</time>
      </trkpt>
      <trkpt lat="43.04498" lon="-0.24632">
        <ele>1200.88</ele>
        <time>2017-04-06T12:43:02Z</time>
      </trkpt>
      <trkpt lat="43.04505" lon="-0.24644">
        <ele>1200.85</ele>
        <time>2017-04-06T12:43:12Z</time>
      </trkpt>
      <trkpt lat="43.04516" lon="-0.24654">
        <ele>1200.43</ele>
        <time>2017-04-06T12:43:27Z</time>
      </trkpt>
      <trkpt lat="43.04517" lon="-0.24675">
        <ele>1196.94</ele>
        <time>2017-04-06T12:43:44Z</time>
      </trkpt>
      <trkpt lat="43.04514" lon="-0.24687">
        <ele>1194.41</ele>
        <time>2017-04-06T12:44:01Z</time>
      </trkpt>
      <trkpt lat="43.04519" lon="-0.247">
        <ele>1192.01</ele>
        <time>2017-04-06T12:44:13Z</time>
      </trkpt>
      <trkpt lat="43.04522" lon="-0.24717">
        <ele>1188.27</ele>
        <time>2017-04-06T12:44:27Z</time>
      </trkpt>
      <trkpt lat="43.0452" lon="-0.24733">
        <ele>1188.38</ele>
        <time>2017-04-06T12:44:43Z</time>
      </trkpt>
      <trkpt lat="43.0452" lon="-0.24747">
        <ele>1187.93</ele>
        <time>2017-04-06T12:44:59Z</time>
      </trkpt>
      <trkpt lat="43.04525" lon="-0.24764">
        <ele>1182.84</ele>
        <time>2017-04-06T12:45:14Z</time>
      </trkpt>
      <trkpt lat="43.04527" lon="-0.24768">
        <ele>1182.1</ele>
        <time>2017-04-06T12:45:17Z</time>
      </trkpt>
      <trkpt lat="43.04529" lon="-0.24771">
        <ele>1181.61</ele>
        <time>2017-04-06T12:45:19Z</time>
      </trkpt>
      <trkpt lat="43.04534" lon="-0.24784">
        <ele>1177.99</ele>
        <time>2017-04-06T12:45:30Z</time>
      </trkpt>
      <trkpt lat="43.0454" lon="-0.24801">
        <ele>1171.8</ele>
        <time>2017-04-06T12:45:45Z</time>
      </trkpt>
      <trkpt lat="43.04542" lon="-0.24807">
        <ele>1171.09</ele>
        <time>2017-04-06T12:45:49Z</time>
      </trkpt>
      <trkpt lat="43.04547" lon="-0.24822">
        <ele>1169.38</ele>
        <time>2017-04-06T12:46:01Z</time>
      </trkpt>
      <trkpt lat="43.04554" lon="-0.24831">
        <ele>1165.89</ele>
        <time>2017-04-06T12:46:13Z</time>
      </trkpt>
      <trkpt lat="43.04562" lon="-0.24848">
        <ele>1158.98</ele>
        <time>2017-04-06T12:46:29Z</time>
      </trkpt>
      <trkpt lat="43.04568" lon="-0.24859">
        <ele>1153.16</ele>
        <time>2017-04-06T12:46:42Z</time>
      </trkpt>
      <trkpt lat="43.04558" lon="-0.24866">
        <ele>1147.6</ele>
        <time>2017-04-06T12:46:57Z</time>
      </trkpt>
      <trkpt lat="43.04554" lon="-0.24872">
        <ele>1142.16</ele>
        <time>2017-04-06T12:47:14Z</time>
      </trkpt>
      <trkpt lat="43.04565" lon="-0.24885">
        <ele>1137.05</ele>
        <time>2017-04-06T12:47:31Z</time>
      </trkpt>
      <trkpt lat="43.04573" lon="-0.24901">
        <ele>1135.24</ele>
        <time>2017-04-06T12:47:48Z</time>
      </trkpt>
      <trkpt lat="43.0458" lon="-0.24914">
        <ele>1132.65</ele>
        <time>2017-04-06T12:48:03Z</time>
      </trkpt>
      <trkpt lat="43.04585" lon="-0.24925">
        <ele>1130.31</ele>
        <time>2017-04-06T12:48:19Z</time>
      </trkpt>
      <trkpt lat="43.04582" lon="-0.24927">
        <ele>1121.83</ele>
        <time>2017-04-06T12:48:53Z</time>
      </trkpt>
      <trkpt lat="43.04571" lon="-0.2493">
        <ele>1119.98</ele>
        <time>2017-04-06T12:49:37Z</time>
      </trkpt>
      <trkpt lat="43.04564" lon="-0.24936">
        <ele>1119.89</ele>
        <time>2017-04-06T12:49:55Z</time>
      </trkpt>
      <trkpt lat="43.04567" lon="-0.24943">
        <ele>1122.66</ele>
        <time>2017-04-06T12:50:14Z</time>
      </trkpt>
      <trkpt lat="43.04571" lon="-0.24947">
        <ele>1124.14</ele>
        <time>2017-04-06T12:50:31Z</time>
      </trkpt>
      <trkpt lat="43.04574" lon="-0.24956">
        <ele>1124.29</ele>
        <time>2017-04-06T12:50:44Z</time>
      </trkpt>
      <trkpt lat="43.04562" lon="-0.2496">
        <ele>1121.99</ele>
        <time>2017-04-06T12:51:04Z</time>
      </trkpt>
      <trkpt lat="43.04549" lon="-0.24971">
        <ele>1118.48</ele>
        <time>2017-04-06T12:51:24Z</time>
      </trkpt>
      <trkpt lat="43.04532" lon="-0.24979">
        <ele>1113.27</ele>
        <time>2017-04-06T12:51:46Z</time>
      </trkpt>
      <trkpt lat="43.04523" lon="-0.24989">
        <ele>1111.79</ele>
        <time>2017-04-06T12:52:04Z</time>
      </trkpt>
      <trkpt lat="43.04523" lon="-0.24993">
        <ele>1110.46</ele>
        <time>2017-04-06T12:52:18Z</time>
      </trkpt>
      <trkpt lat="43.04523" lon="-0.25003">
        <ele>1109.17</ele>
        <time>2017-04-06T12:52:33Z</time>
      </trkpt>
      <trkpt lat="43.04519" lon="-0.2501">
        <ele>1106.47</ele>
        <time>2017-04-06T12:52:50Z</time>
      </trkpt>
      <trkpt lat="43.04521" lon="-0.25019">
        <ele>1102.43</ele>
        <time>2017-04-06T12:53:06Z</time>
      </trkpt>
      <trkpt lat="43.04528" lon="-0.25015">
        <ele>1100.24</ele>
        <time>2017-04-06T12:53:21Z</time>
      </trkpt>
      <trkpt lat="43.04536" lon="-0.25015">
        <ele>1097.46</ele>
        <time>2017-04-06T12:53:37Z</time>
      </trkpt>
      <trkpt lat="43.04537" lon="-0.25015">
        <ele>1097.24</ele>
        <time>2017-04-06T12:53:38Z</time>
      </trkpt>
      <trkpt lat="43.04552" lon="-0.25023">
        <ele>1091.64</ele>
        <time>2017-04-06T12:53:55Z</time>
      </trkpt>
      <trkpt lat="43.0456" lon="-0.25036">
        <ele>1085.55</ele>
        <time>2017-04-06T12:54:14Z</time>
      </trkpt>
      <trkpt lat="43.04568" lon="-0.25037">
        <ele>1084.34</ele>
        <time>2017-04-06T12:54:26Z</time>
      </trkpt>
      <trkpt lat="43.04576" lon="-0.25037">
        <ele>1078.93</ele>
        <time>2017-04-06T12:54:40Z</time>
      </trkpt>
      <trkpt lat="43.04583" lon="-0.25045">
        <ele>1074.06</ele>
        <time>2017-04-06T12:54:54Z</time>
      </trkpt>
      <trkpt lat="43.04588" lon="-0.25053">
        <ele>1070.16</ele>
        <time>2017-04-06T12:55:08Z</time>
      </trkpt>
      <trkpt lat="43.04599" lon="-0.25059">
        <ele>1065.08</ele>
        <time>2017-04-06T12:55:24Z</time>
      </trkpt>
      <trkpt lat="43.0461" lon="-0.25063">
        <ele>1061.27</ele>
        <time>2017-04-06T12:55:39Z</time>
      </trkpt>
      <trkpt lat="43.04614" lon="-0.25065">
        <ele>1060.48</ele>
        <time>2017-04-06T12:55:43Z</time>
      </trkpt>
      <trkpt lat="43.04621" lon="-0.25074">
        <ele>1054.03</ele>
        <time>2017-04-06T12:56:01Z</time>
      </trkpt>
      <trkpt lat="43.04628" lon="-0.25087">
        <ele>1049.2</ele>
        <time>2017-04-06T12:56:22Z</time>
      </trkpt>
      <trkpt lat="43.04636" lon="-0.25102">
        <ele>1043.99</ele>
        <time>2017-04-06T12:56:43Z</time>
      </trkpt>
      <trkpt lat="43.04644" lon="-0.25116">
        <ele>1039.73</ele>
        <time>2017-04-06T12:57:02Z</time>
      </trkpt>
      <trkpt lat="43.04655" lon="-0.25129">
        <ele>1035.09</ele>
        <time>2017-04-06T12:57:21Z</time>
      </trkpt>
      <trkpt lat="43.04661" lon="-0.25143">
        <ele>1030.53</ele>
        <time>2017-04-06T12:57:39Z</time>
      </trkpt>
      <trkpt lat="43.04667" lon="-0.25153">
        <ele>1027.51</ele>
        <time>2017-04-06T12:57:53Z</time>
      </trkpt>
      <trkpt lat="43.04675" lon="-0.25173">
        <ele>1022.53</ele>
        <time>2017-04-06T12:58:14Z</time>
      </trkpt>
      <trkpt lat="43.04685" lon="-0.25192">
        <ele>1018.11</ele>
        <time>2017-04-06T12:58:33Z</time>
      </trkpt>
      <trkpt lat="43.04693" lon="-0.25212">
        <ele>1014.02</ele>
        <time>2017-04-06T12:58:49Z</time>
      </trkpt>
      <trkpt lat="43.04698" lon="-0.25232">
        <ele>1009</ele>
        <time>2017-04-06T12:59:08Z</time>
      </trkpt>
      <trkpt lat="43.04705" lon="-0.25255">
        <ele>1001.37</ele>
        <time>2017-04-06T12:59:28Z</time>
      </trkpt>
      <trkpt lat="43.04712" lon="-0.25275">
        <ele>996.22</ele>
        <time>2017-04-06T12:59:48Z</time>
      </trkpt>
      <trkpt lat="43.04723" lon="-0.25295">
        <ele>991.65</ele>
        <time>2017-04-06T13:00:07Z</time>
      </trkpt>
      <trkpt lat="43.04734" lon="-0.25314">
        <ele>986.56</ele>
        <time>2017-04-06T13:00:26Z</time>
      </trkpt>
      <trkpt lat="43.04738" lon="-0.25317">
        <ele>985.42</ele>
        <time>2017-04-06T13:00:30Z</time>
      </trkpt>
      <trkpt lat="43.04752" lon="-0.25322">
        <ele>982.28</ele>
        <time>2017-04-06T13:00:46Z</time>
      </trkpt>
      <trkpt lat="43.04767" lon="-0.25331">
        <ele>978.69</ele>
        <time>2017-04-06T13:01:05Z</time>
      </trkpt>
      <trkpt lat="43.04778" lon="-0.25342">
        <ele>975.07</ele>
        <time>2017-04-06T13:01:23Z</time>
      </trkpt>
      <trkpt lat="43.04786" lon="-0.2536">
        <ele>968.17</ele>
        <time>2017-04-06T13:01:39Z</time>
      </trkpt>
      <trkpt lat="43.04792" lon="-0.25372">
        <ele>963.03</ele>
        <time>2017-04-06T13:01:57Z</time>
      </trkpt>
      <trkpt lat="43.048" lon="-0.25384">
        <ele>957.59</ele>
        <time>2017-04-06T13:02:12Z</time>
      </trkpt>
      <trkpt lat="43.04794" lon="-0.25397">
        <ele>952.48</ele>
        <time>2017-04-06T13:02:31Z</time>
      </trkpt>
      <trkpt lat="43.04794" lon="-0.25405">
        <ele>947.21</ele>
        <time>2017-04-06T13:02:46Z</time>
      </trkpt>
      <trkpt lat="43.04784" lon="-0.25419">
        <ele>940.43</ele>
        <time>2017-04-06T13:03:05Z</time>
      </trkpt>
      <trkpt lat="43.04779" lon="-0.25433">
        <ele>933.73</ele>
        <time>2017-04-06T13:03:23Z</time>
      </trkpt>
      <trkpt lat="43.04774" lon="-0.25442">
        <ele>930.09</ele>
        <time>2017-04-06T13:03:38Z</time>
      </trkpt>
      <trkpt lat="43.04776" lon="-0.25457">
        <ele>927.31</ele>
        <time>2017-04-06T13:03:54Z</time>
      </trkpt>
      <trkpt lat="43.04774" lon="-0.25469">
        <ele>924.27</ele>
        <time>2017-04-06T13:04:08Z</time>
      </trkpt>
      <trkpt lat="43.04768" lon="-0.25479">
        <ele>919.68</ele>
        <time>2017-04-06T13:04:25Z</time>
      </trkpt>
      <trkpt lat="43.04761" lon="-0.25487">
        <ele>915.2</ele>
        <time>2017-04-06T13:04:43Z</time>
      </trkpt>
      <trkpt lat="43.04759" lon="-0.25498">
        <ele>912.55</ele>
        <time>2017-04-06T13:05:02Z</time>
      </trkpt>
      <trkpt lat="43.0475" lon="-0.25512">
        <ele>906.28</ele>
        <time>2017-04-06T13:05:19Z</time>
      </trkpt>
      <trkpt lat="43.04749" lon="-0.25532">
        <ele>901.06</ele>
        <time>2017-04-06T13:05:33Z</time>
      </trkpt>
      <trkpt lat="43.04754" lon="-0.25541">
        <ele>898.05</ele>
        <time>2017-04-06T13:05:43Z</time>
      </trkpt>
      <trkpt lat="43.04756" lon="-0.25554">
        <ele>894.27</ele>
        <time>2017-04-06T13:05:52Z</time>
      </trkpt>
      <trkpt lat="43.04755" lon="-0.25562">
        <ele>892.22</ele>
        <time>2017-04-06T13:05:57Z</time>
      </trkpt>
      <trkpt lat="43.04752" lon="-0.25571">
        <ele>889.52</ele>
        <time>2017-04-06T13:06:01Z</time>
      </trkpt>
      <trkpt lat="43.04746" lon="-0.25594">
        <ele>880.76</ele>
        <time>2017-04-06T13:06:17Z</time>
      </trkpt>
      <trkpt lat="43.04749" lon="-0.25613">
        <ele>876.2</ele>
        <time>2017-04-06T13:06:31Z</time>
      </trkpt>
      <trkpt lat="43.04756" lon="-0.25632">
        <ele>873.85</ele>
        <time>2017-04-06T13:06:46Z</time>
      </trkpt>
      <trkpt lat="43.04761" lon="-0.25649">
        <ele>875.98</ele>
        <time>2017-04-06T13:07:00Z</time>
      </trkpt>
      <trkpt lat="43.0476" lon="-0.25666">
        <ele>879.22</ele>
        <time>2017-04-06T13:07:16Z</time>
      </trkpt>
      <trkpt lat="43.0476" lon="-0.25672">
        <ele>879.84</ele>
        <time>2017-04-06T13:07:22Z</time>
      </trkpt>
      <trkpt lat="43.04756" lon="-0.25687">
        <ele>881.23</ele>
        <time>2017-04-06T13:07:36Z</time>
      </trkpt>
      <trkpt lat="43.04752" lon="-0.25703">
        <ele>885.42</ele>
        <time>2017-04-06T13:07:52Z</time>
      </trkpt>
      <trkpt lat="43.04751" lon="-0.25717">
        <ele>888.16</ele>
        <time>2017-04-06T13:08:07Z</time>
      </trkpt>
      <trkpt lat="43.0475" lon="-0.25736">
        <ele>889.05</ele>
        <time>2017-04-06T13:08:23Z</time>
      </trkpt>
      <trkpt lat="43.04753" lon="-0.25741">
        <ele>889.5</ele>
        <time>2017-04-06T13:08:33Z</time>
      </trkpt>
      <trkpt lat="43.04768" lon="-0.2575">
        <ele>889.24</ele>
        <time>2017-04-06T13:08:50Z</time>
      </trkpt>
      <trkpt lat="43.04783" lon="-0.25762">
        <ele>889.17</ele>
        <time>2017-04-06T13:09:06Z</time>
      </trkpt>
      <trkpt lat="43.04793" lon="-0.25766">
        <ele>886.56</ele>
        <time>2017-04-06T13:09:20Z</time>
      </trkpt>
      <trkpt lat="43.04801" lon="-0.25757">
        <ele>883.36</ele>
        <time>2017-04-06T13:09:40Z</time>
      </trkpt>
      <trkpt lat="43.04803" lon="-0.25758">
        <ele>882.03</ele>
        <time>2017-04-06T13:10:06Z</time>
      </trkpt>
      <trkpt lat="43.04802" lon="-0.25756">
        <ele>881.56</ele>
        <time>2017-04-06T13:10:29Z</time>
      </trkpt>
      <trkpt lat="43.04802" lon="-0.25752">
        <ele>881.44</ele>
        <time>2017-04-06T13:11:01Z</time>
      </trkpt>
      <trkpt lat="43.04802" lon="-0.25756">
        <ele>883.6</ele>
        <time>2017-04-06T13:11:29Z</time>
      </trkpt>
      <trkpt lat="43.04804" lon="-0.2576">
        <ele>887.18</ele>
        <time>2017-04-06T13:11:57Z</time>
      </trkpt>
      <trkpt lat="43.04805" lon="-0.25761">
        <ele>888.47</ele>
        <time>2017-04-06T13:12:28Z</time>
      </trkpt>
      <trkpt lat="43.04804" lon="-0.25761">
        <ele>888.85</ele>
        <time>2017-04-06T13:13:04Z</time>
      </trkpt>
      <trkpt lat="43.04804" lon="-0.25761">
        <ele>889.01</ele>
        <time>2017-04-06T13:13:37Z</time>
      </trkpt>
      <trkpt lat="43.04804" lon="-0.25756">
        <ele>887.54</ele>
        <time>2017-04-06T13:14:05Z</time>
      </trkpt>
      <trkpt lat="43.04803" lon="-0.25755">
        <ele>887.49</ele>
        <time>2017-04-06T13:14:39Z</time>
      </trkpt>
      <trkpt lat="43.04801" lon="-0.25755">
        <ele>889.13</ele>
        <time>2017-04-06T13:15:09Z</time>
      </trkpt>
      <trkpt lat="43.04801" lon="-0.25747">
        <ele>888.38</ele>
        <time>2017-04-06T13:15:41Z</time>
      </trkpt>
      <trkpt lat="43.048" lon="-0.25747">
        <ele>887.01</ele>
        <time>2017-04-06T13:16:09Z</time>
      </trkpt>
      <trkpt lat="43.04802" lon="-0.25753">
        <ele>888.31</ele>
        <time>2017-04-06T13:16:43Z</time>
      </trkpt>
      <trkpt lat="43.04806" lon="-0.25758">
        <ele>889.46</ele>
        <time>2017-04-06T13:17:12Z</time>
      </trkpt>
      <trkpt lat="43.04806" lon="-0.25754">
        <ele>887.83</ele>
        <time>2017-04-06T13:17:40Z</time>
      </trkpt>
      <trkpt lat="43.04805" lon="-0.25755">
        <ele>886.39</ele>
        <time>2017-04-06T13:18:10Z</time>
      </trkpt>
      <trkpt lat="43.04808" lon="-0.25758">
        <ele>887.18</ele>
        <time>2017-04-06T13:18:36Z</time>
      </trkpt>
      <trkpt lat="43.04805" lon="-0.25758">
        <ele>888.7</ele>
        <time>2017-04-06T13:19:07Z</time>
      </trkpt>
      <trkpt lat="43.04809" lon="-0.25761">
        <ele>888.09</ele>
        <time>2017-04-06T13:19:40Z</time>
      </trkpt>
      <trkpt lat="43.04806" lon="-0.25763">
        <ele>889.22</ele>
        <time>2017-04-06T13:20:09Z</time>
      </trkpt>
      <trkpt lat="43.04808" lon="-0.25762">
        <ele>890.52</ele>
        <time>2017-04-06T13:20:42Z</time>
      </trkpt>
      <trkpt lat="43.04806" lon="-0.25749">
        <ele>890.06</ele>
        <time>2017-04-06T13:21:02Z</time>
      </trkpt>
      <trkpt lat="43.04808" lon="-0.25741">
        <ele>889.97</ele>
        <time>2017-04-06T13:21:13Z</time>
      </trkpt>
      <trkpt lat="43.04803" lon="-0.25726">
        <ele>889.93</ele>
        <time>2017-04-06T13:21:26Z</time>
      </trkpt>
      <trkpt lat="43.04793" lon="-0.25717">
        <ele>890.01</ele>
        <time>2017-04-06T13:21:42Z</time>
      </trkpt>
      <trkpt lat="43.04786" lon="-0.25711">
        <ele>889.43</ele>
        <time>2017-04-06T13:21:53Z</time>
      </trkpt>
      <trkpt lat="43.04777" lon="-0.25703">
        <ele>888.97</ele>
        <time>2017-04-06T13:22:06Z</time>
      </trkpt>
      <trkpt lat="43.04766" lon="-0.25695">
        <ele>888.4</ele>
        <time>2017-04-06T13:22:20Z</time>
      </trkpt>
      <trkpt lat="43.04753" lon="-0.25684">
        <ele>886.44</ele>
        <time>2017-04-06T13:22:37Z</time>
      </trkpt>
      <trkpt lat="43.04748" lon="-0.25681">
        <ele>885.7</ele>
        <time>2017-04-06T13:22:44Z</time>
      </trkpt>
      <trkpt lat="43.04743" lon="-0.25679">
        <ele>883.51</ele>
        <time>2017-04-06T13:23:00Z</time>
      </trkpt>
      <trkpt lat="43.04743" lon="-0.25686">
        <ele>880.41</ele>
        <time>2017-04-06T13:23:21Z</time>
      </trkpt>
      <trkpt lat="43.04745" lon="-0.25682">
        <ele>881.5</ele>
        <time>2017-04-06T13:23:47Z</time>
      </trkpt>
      <trkpt lat="43.04748" lon="-0.25676">
        <ele>881.72</ele>
        <time>2017-04-06T13:24:12Z</time>
      </trkpt>
      <trkpt lat="43.04746" lon="-0.25676">
        <ele>882.41</ele>
        <time>2017-04-06T13:24:33Z</time>
      </trkpt>
      <trkpt lat="43.04745" lon="-0.25679">
        <ele>882.94</ele>
        <time>2017-04-06T13:24:52Z</time>
      </trkpt>
      <trkpt lat="43.04744" lon="-0.25685">
        <ele>884.99</ele>
        <time>2017-04-06T13:25:17Z</time>
      </trkpt>
      <trkpt lat="43.04746" lon="-0.25684">
        <ele>885.77</ele>
        <time>2017-04-06T13:25:47Z</time>
      </trkpt>
      <trkpt lat="43.04745" lon="-0.25684">
        <ele>888.36</ele>
        <time>2017-04-06T13:26:23Z</time>
      </trkpt>
      <trkpt lat="43.04745" lon="-0.25687">
        <ele>887.7</ele>
        <time>2017-04-06T13:26:58Z</time>
      </trkpt>
      <trkpt lat="43.04745" lon="-0.25683">
        <ele>885.34</ele>
        <time>2017-04-06T13:27:28Z</time>
      </trkpt>
      <trkpt lat="43.04738" lon="-0.25667">
        <ele>884.04</ele>
        <time>2017-04-06T13:27:57Z</time>
      </trkpt>
      <trkpt lat="43.04735" lon="-0.25663">
        <ele>882.56</ele>
        <time>2017-04-06T13:28:13Z</time>
      </trkpt>
      <trkpt lat="43.04733" lon="-0.25652">
        <ele>880.92</ele>
        <time>2017-04-06T13:28:33Z</time>
      </trkpt>
      <trkpt lat="43.0473" lon="-0.25642">
        <ele>878.24</ele>
        <time>2017-04-06T13:28:45Z</time>
      </trkpt>
      <trkpt lat="43.04723" lon="-0.25624">
        <ele>875.34</ele>
        <time>2017-04-06T13:29:00Z</time>
      </trkpt>
      <trkpt lat="43.04712" lon="-0.25612">
        <ele>872.33</ele>
        <time>2017-04-06T13:29:14Z</time>
      </trkpt>
      <trkpt lat="43.04701" lon="-0.25608">
        <ele>865.33</ele>
        <time>2017-04-06T13:29:29Z</time>
      </trkpt>
      <trkpt lat="43.04687" lon="-0.25595">
        <ele>856.02</ele>
        <time>2017-04-06T13:29:46Z</time>
      </trkpt>
      <trkpt lat="43.04674" lon="-0.25578">
        <ele>850.67</ele>
        <time>2017-04-06T13:30:03Z</time>
      </trkpt>
      <trkpt lat="43.04672" lon="-0.25577">
        <ele>849.89</ele>
        <time>2017-04-06T13:30:05Z</time>
      </trkpt>
      <trkpt lat="43.04662" lon="-0.25572">
        <ele>847.69</ele>
        <time>2017-04-06T13:30:20Z</time>
      </trkpt>
      <trkpt lat="43.0465" lon="-0.25563">
        <ele>840.79</ele>
        <time>2017-04-06T13:30:36Z</time>
      </trkpt>
      <trkpt lat="43.04646" lon="-0.25559">
        <ele>839.35</ele>
        <time>2017-04-06T13:30:42Z</time>
      </trkpt>
      <trkpt lat="43.04638" lon="-0.25553">
        <ele>834.79</ele>
        <time>2017-04-06T13:30:59Z</time>
      </trkpt>
      <trkpt lat="43.04636" lon="-0.25553">
        <ele>834.3</ele>
        <time>2017-04-06T13:31:03Z</time>
      </trkpt>
      <trkpt lat="43.04624" lon="-0.25549">
        <ele>830.82</ele>
        <time>2017-04-06T13:31:19Z</time>
      </trkpt>
      <trkpt lat="43.04618" lon="-0.25557">
        <ele>828.72</ele>
        <time>2017-04-06T13:31:35Z</time>
      </trkpt>
      <trkpt lat="43.04619" lon="-0.25571">
        <ele>827.6</ele>
        <time>2017-04-06T13:31:46Z</time>
      </trkpt>
      <trkpt lat="43.04621" lon="-0.25578">
        <ele>826.28</ele>
        <time>2017-04-06T13:31:50Z</time>
      </trkpt>
      <trkpt lat="43.04624" lon="-0.25582">
        <ele>825.65</ele>
        <time>2017-04-06T13:31:54Z</time>
      </trkpt>
      <trkpt lat="43.04629" lon="-0.25588">
        <ele>825.42</ele>
        <time>2017-04-06T13:31:58Z</time>
      </trkpt>
      <trkpt lat="43.04634" lon="-0.25611">
        <ele>824.56</ele>
        <time>2017-04-06T13:32:14Z</time>
      </trkpt>
      <trkpt lat="43.04628" lon="-0.25631">
        <ele>824.92</ele>
        <time>2017-04-06T13:32:30Z</time>
      </trkpt>
      <trkpt lat="43.04615" lon="-0.25644">
        <ele>823.32</ele>
        <time>2017-04-06T13:32:47Z</time>
      </trkpt>
      <trkpt lat="43.04603" lon="-0.25661">
        <ele>822.22</ele>
        <time>2017-04-06T13:33:00Z</time>
      </trkpt>
      <trkpt lat="43.04589" lon="-0.25667">
        <ele>820.83</ele>
        <time>2017-04-06T13:33:14Z</time>
      </trkpt>
      <trkpt lat="43.04591" lon="-0.2566">
        <ele>820.37</ele>
        <time>2017-04-06T13:33:19Z</time>
      </trkpt>
      <trkpt lat="43.04594" lon="-0.25648">
        <ele>818.89</ele>
        <time>2017-04-06T13:33:37Z</time>
      </trkpt>
      <trkpt lat="43.0459" lon="-0.25647">
        <ele>815.39</ele>
        <time>2017-04-06T13:33:53Z</time>
      </trkpt>
      <trkpt lat="43.0458" lon="-0.25653">
        <ele>815.26</ele>
        <time>2017-04-06T13:34:19Z</time>
      </trkpt>
      <trkpt lat="43.04572" lon="-0.25662">
        <ele>814.86</ele>
        <time>2017-04-06T13:34:37Z</time>
      </trkpt>
      <trkpt lat="43.0456" lon="-0.25671">
        <ele>811.01</ele>
        <time>2017-04-06T13:34:55Z</time>
      </trkpt>
      <trkpt lat="43.04545" lon="-0.25686">
        <ele>807.2</ele>
        <time>2017-04-06T13:35:13Z</time>
      </trkpt>
      <trkpt lat="43.04541" lon="-0.2569">
        <ele>806.68</ele>
        <time>2017-04-06T13:35:17Z</time>
      </trkpt>
      <trkpt lat="43.04526" lon="-0.2571">
        <ele>803.01</ele>
        <time>2017-04-06T13:35:34Z</time>
      </trkpt>
      <trkpt lat="43.04519" lon="-0.25723">
        <ele>796.6</ele>
        <time>2017-04-06T13:35:47Z</time>
      </trkpt>
      <trkpt lat="43.04514" lon="-0.25732">
        <ele>787.64</ele>
        <time>2017-04-06T13:36:02Z</time>
      </trkpt>
      <trkpt lat="43.04508" lon="-0.25747">
        <ele>780.41</ele>
        <time>2017-04-06T13:36:18Z</time>
      </trkpt>
      <trkpt lat="43.04509" lon="-0.25755">
        <ele>778.03</ele>
        <time>2017-04-06T13:36:28Z</time>
      </trkpt>
      <trkpt lat="43.045" lon="-0.25744">
        <ele>773.11</ele>
        <time>2017-04-06T13:36:45Z</time>
      </trkpt>
      <trkpt lat="43.045" lon="-0.25739">
        <ele>771.24</ele>
        <time>2017-04-06T13:36:56Z</time>
      </trkpt>
      <trkpt lat="43.04499" lon="-0.25728">
        <ele>768.37</ele>
        <time>2017-04-06T13:37:12Z</time>
      </trkpt>
      <trkpt lat="43.04499" lon="-0.25723">
        <ele>768.32</ele>
        <time>2017-04-06T13:37:19Z</time>
      </trkpt>
      <trkpt lat="43.045" lon="-0.257">
        <ele>766.77</ele>
        <time>2017-04-06T13:37:33Z</time>
      </trkpt>
      <trkpt lat="43.04499" lon="-0.25682">
        <ele>763.66</ele>
        <time>2017-04-06T13:37:49Z</time>
      </trkpt>
      <trkpt lat="43.04505" lon="-0.2566">
        <ele>759.19</ele>
        <time>2017-04-06T13:38:04Z</time>
      </trkpt>
      <trkpt lat="43.04504" lon="-0.25649">
        <ele>756.68</ele>
        <time>2017-04-06T13:38:19Z</time>
      </trkpt>
      <trkpt lat="43.04493" lon="-0.25659">
        <ele>753.33</ele>
        <time>2017-04-06T13:38:36Z</time>
      </trkpt>
      <trkpt lat="43.04492" lon="-0.25659">
        <ele>753.3</ele>
        <time>2017-04-06T13:38:37Z</time>
      </trkpt>
      <trkpt lat="43.04484" lon="-0.25669">
        <ele>753.25</ele>
        <time>2017-04-06T13:38:57Z</time>
      </trkpt>
      <trkpt lat="43.04473" lon="-0.25685">
        <ele>753.42</ele>
        <time>2017-04-06T13:39:13Z</time>
      </trkpt>
      <trkpt lat="43.04456" lon="-0.25704">
        <ele>752.99</ele>
        <time>2017-04-06T13:39:27Z</time>
      </trkpt>
      <trkpt lat="43.04446" lon="-0.25711">
        <ele>756.24</ele>
        <time>2017-04-06T13:39:43Z</time>
      </trkpt>
      <trkpt lat="43.04446" lon="-0.25711">
        <ele>756.22</ele>
        <time>2017-04-06T13:39:44Z</time>
      </trkpt>
      <trkpt lat="43.04433" lon="-0.25731">
        <ele>754.64</ele>
        <time>2017-04-06T13:40:00Z</time>
      </trkpt>
      <trkpt lat="43.04437" lon="-0.25742">
        <ele>748.58</ele>
        <time>2017-04-06T13:40:16Z</time>
      </trkpt>
      <trkpt lat="43.04436" lon="-0.25742">
        <ele>748.51</ele>
        <time>2017-04-06T13:40:17Z</time>
      </trkpt>
      <trkpt lat="43.04432" lon="-0.25746">
        <ele>748.05</ele>
        <time>2017-04-06T13:40:21Z</time>
      </trkpt>
      <trkpt lat="43.04423" lon="-0.25751">
        <ele>747.31</ele>
        <time>2017-04-06T13:40:30Z</time>
      </trkpt>
      <trkpt lat="43.0442" lon="-0.25754">
        <ele>745.95</ele>
        <time>2017-04-06T13:40:34Z</time>
      </trkpt>
      <trkpt lat="43.04415" lon="-0.2577">
        <ele>737.32</ele>
        <time>2017-04-06T13:40:49Z</time>
      </trkpt>
      <trkpt lat="43.04411" lon="-0.25772">
        <ele>734.21</ele>
        <time>2017-04-06T13:41:00Z</time>
      </trkpt>
      <trkpt lat="43.04417" lon="-0.25761">
        <ele>732.25</ele>
        <time>2017-04-06T13:41:14Z</time>
      </trkpt>
      <trkpt lat="43.04413" lon="-0.25749">
        <ele>729.39</ele>
        <time>2017-04-06T13:41:28Z</time>
      </trkpt>
      <trkpt lat="43.04414" lon="-0.25733">
        <ele>725.03</ele>
        <time>2017-04-06T13:41:40Z</time>
      </trkpt>
      <trkpt lat="43.04418" lon="-0.25724">
        <ele>722.35</ele>
        <time>2017-04-06T13:41:48Z</time>
      </trkpt>
      <trkpt lat="43.04419" lon="-0.2571">
        <ele>719.42</ele>
        <time>2017-04-06T13:42:01Z</time>
      </trkpt>
      <trkpt lat="43.04424" lon="-0.25697">
        <ele>716.16</ele>
        <time>2017-04-06T13:42:18Z</time>
      </trkpt>
      <trkpt lat="43.04426" lon="-0.2568">
        <ele>709.6</ele>
        <time>2017-04-06T13:42:34Z</time>
      </trkpt>
      <trkpt lat="43.04422" lon="-0.25672">
        <ele>705.23</ele>
        <time>2017-04-06T13:42:49Z</time>
      </trkpt>
      <trkpt lat="43.0441" lon="-0.2568">
        <ele>701.2</ele>
        <time>2017-04-06T13:43:07Z</time>
      </trkpt>
      <trkpt lat="43.044" lon="-0.25698">
        <ele>698.28</ele>
        <time>2017-04-06T13:43:23Z</time>
      </trkpt>
      <trkpt lat="43.04389" lon="-0.25711">
        <ele>695.98</ele>
        <time>2017-04-06T13:43:42Z</time>
      </trkpt>
      <trkpt lat="43.0438" lon="-0.25718">
        <ele>691.16</ele>
        <time>2017-04-06T13:43:59Z</time>
      </trkpt>
      <trkpt lat="43.0437" lon="-0.25729">
        <ele>689.62</ele>
        <time>2017-04-06T13:44:19Z</time>
      </trkpt>
      <trkpt lat="43.04358" lon="-0.25739">
        <ele>685.92</ele>
        <time>2017-04-06T13:44:38Z</time>
      </trkpt>
      <trkpt lat="43.04351" lon="-0.25746">
        <ele>683.28</ele>
        <time>2017-04-06T13:45:01Z</time>
      </trkpt>
      <trkpt lat="43.04344" lon="-0.25756">
        <ele>679.49</ele>
        <time>2017-04-06T13:45:15Z</time>
      </trkpt>
      <trkpt lat="43.04341" lon="-0.25748">
        <ele>675.31</ele>
        <time>2017-04-06T13:45:31Z</time>
      </trkpt>
      <trkpt lat="43.04342" lon="-0.25737">
        <ele>673.11</ele>
        <time>2017-04-06T13:45:46Z</time>
      </trkpt>
      <trkpt lat="43.04347" lon="-0.25723">
        <ele>669.06</ele>
        <time>2017-04-06T13:46:03Z</time>
      </trkpt>
      <trkpt lat="43.0435" lon="-0.25706">
        <ele>666.01</ele>
        <time>2017-04-06T13:46:13Z</time>
      </trkpt>
      <trkpt lat="43.04345" lon="-0.25696">
        <ele>662.2</ele>
        <time>2017-04-06T13:46:28Z</time>
      </trkpt>
      <trkpt lat="43.04334" lon="-0.25706">
        <ele>656.39</ele>
        <time>2017-04-06T13:46:47Z</time>
      </trkpt>
      <trkpt lat="43.04325" lon="-0.25715">
        <ele>654.22</ele>
        <time>2017-04-06T13:47:06Z</time>
      </trkpt>
      <trkpt lat="43.04317" lon="-0.25725">
        <ele>652.34</ele>
        <time>2017-04-06T13:47:24Z</time>
      </trkpt>
      <trkpt lat="43.04314" lon="-0.25723">
        <ele>648.04</ele>
        <time>2017-04-06T13:47:41Z</time>
      </trkpt>
      <trkpt lat="43.04313" lon="-0.25706">
        <ele>645.79</ele>
        <time>2017-04-06T13:47:57Z</time>
      </trkpt>
      <trkpt lat="43.04306" lon="-0.25715">
        <ele>642.16</ele>
        <time>2017-04-06T13:48:13Z</time>
      </trkpt>
      <trkpt lat="43.04294" lon="-0.25724">
        <ele>638.97</ele>
        <time>2017-04-06T13:48:31Z</time>
      </trkpt>
      <trkpt lat="43.04292" lon="-0.25717">
        <ele>637.23</ele>
        <time>2017-04-06T13:48:43Z</time>
      </trkpt>
      <trkpt lat="43.04286" lon="-0.25712">
        <ele>637.09</ele>
        <time>2017-04-06T13:49:03Z</time>
      </trkpt>
      <trkpt lat="43.04285" lon="-0.25713">
        <ele>637.95</ele>
        <time>2017-04-06T13:49:12Z</time>
      </trkpt>
      <trkpt lat="43.04283" lon="-0.25718">
        <ele>636.93</ele>
        <time>2017-04-06T13:49:26Z</time>
      </trkpt>
      <trkpt lat="43.04262" lon="-0.25729">
        <ele>636.59</ele>
        <time>2017-04-06T13:49:45Z</time>
      </trkpt>
      <trkpt lat="43.0426" lon="-0.25728">
        <ele>636.2</ele>
        <time>2017-04-06T13:49:50Z</time>
      </trkpt>
      <trkpt lat="43.04245" lon="-0.25745">
        <ele>632.59</ele>
        <time>2017-04-06T13:50:10Z</time>
      </trkpt>
      <trkpt lat="43.04231" lon="-0.25756">
        <ele>629.97</ele>
        <time>2017-04-06T13:50:25Z</time>
      </trkpt>
      <trkpt lat="43.04229" lon="-0.25758">
        <ele>629.56</ele>
        <time>2017-04-06T13:50:28Z</time>
      </trkpt>
      <trkpt lat="43.04219" lon="-0.25766">
        <ele>626.65</ele>
        <time>2017-04-06T13:50:48Z</time>
      </trkpt>
      <trkpt lat="43.04207" lon="-0.25777">
        <ele>623.23</ele>
        <time>2017-04-06T13:51:06Z</time>
      </trkpt>
      <trkpt lat="43.04207" lon="-0.25787">
        <ele>619.39</ele>
        <time>2017-04-06T13:51:24Z</time>
      </trkpt>
      <trkpt lat="43.04205" lon="-0.25791">
        <ele>617.85</ele>
        <time>2017-04-06T13:51:31Z</time>
      </trkpt>
      <trkpt lat="43.042" lon="-0.25795">
        <ele>615.42</ele>
        <time>2017-04-06T13:51:39Z</time>
      </trkpt>
      <trkpt lat="43.0418" lon="-0.25802">
        <ele>605.14</ele>
        <time>2017-04-06T13:51:58Z</time>
      </trkpt>
      <trkpt lat="43.04166" lon="-0.25815">
        <ele>598.73</ele>
        <time>2017-04-06T13:52:18Z</time>
      </trkpt>
      <trkpt lat="43.04157" lon="-0.25817">
        <ele>594.26</ele>
        <time>2017-04-06T13:52:40Z</time>
      </trkpt>
      <trkpt lat="43.04145" lon="-0.25819">
        <ele>591.53</ele>
        <time>2017-04-06T13:53:00Z</time>
      </trkpt>
      <trkpt lat="43.04135" lon="-0.25821">
        <ele>589.96</ele>
        <time>2017-04-06T13:53:23Z</time>
      </trkpt>
      <trkpt lat="43.04124" lon="-0.2582">
        <ele>586.28</ele>
        <time>2017-04-06T13:53:43Z</time>
      </trkpt>
      <trkpt lat="43.04113" lon="-0.2582">
        <ele>584.16</ele>
        <time>2017-04-06T13:53:58Z</time>
      </trkpt>
      <trkpt lat="43.04098" lon="-0.25828">
        <ele>579.42</ele>
        <time>2017-04-06T13:54:18Z</time>
      </trkpt>
      <trkpt lat="43.04092" lon="-0.25831">
        <ele>577.7</ele>
        <time>2017-04-06T13:54:36Z</time>
      </trkpt>
      <trkpt lat="43.04084" lon="-0.25836">
        <ele>576.37</ele>
        <time>2017-04-06T13:54:54Z</time>
      </trkpt>
      <trkpt lat="43.04076" lon="-0.2584">
        <ele>574.58</ele>
        <time>2017-04-06T13:55:14Z</time>
      </trkpt>
      <trkpt lat="43.04065" lon="-0.25848">
        <ele>573.17</ele>
        <time>2017-04-06T13:55:37Z</time>
      </trkpt>
      <trkpt lat="43.04056" lon="-0.25856">
        <ele>571.87</ele>
        <time>2017-04-06T13:55:51Z</time>
      </trkpt>
      <trkpt lat="43.04055" lon="-0.25856">
        <ele>571.68</ele>
        <time>2017-04-06T13:55:54Z</time>
      </trkpt>
      <trkpt lat="43.04044" lon="-0.25861">
        <ele>570.8</ele>
        <time>2017-04-06T13:56:09Z</time>
      </trkpt>
      <trkpt lat="43.04039" lon="-0.25868">
        <ele>569.96</ele>
        <time>2017-04-06T13:56:20Z</time>
      </trkpt>
      <trkpt lat="43.04031" lon="-0.25872">
        <ele>567.83</ele>
        <time>2017-04-06T13:56:39Z</time>
      </trkpt>
      <trkpt lat="43.04029" lon="-0.25879">
        <ele>565.15</ele>
        <time>2017-04-06T13:57:01Z</time>
      </trkpt>
      <trkpt lat="43.04015" lon="-0.25885">
        <ele>563.55</ele>
        <time>2017-04-06T13:57:21Z</time>
      </trkpt>
      <trkpt lat="43.04012" lon="-0.25887">
        <ele>562.76</ele>
        <time>2017-04-06T13:57:27Z</time>
      </trkpt>
      <trkpt lat="43.04005" lon="-0.25895">
        <ele>558.97</ele>
        <time>2017-04-06T13:57:45Z</time>
      </trkpt>
      <trkpt lat="43.04005" lon="-0.25896">
        <ele>558.4</ele>
        <time>2017-04-06T13:57:48Z</time>
      </trkpt>
      <trkpt lat="43.03991" lon="-0.25903">
        <ele>553.98</ele>
        <time>2017-04-06T13:58:09Z</time>
      </trkpt>
      <trkpt lat="43.03984" lon="-0.25905">
        <ele>552.46</ele>
        <time>2017-04-06T13:58:17Z</time>
      </trkpt>
      <trkpt lat="43.0396" lon="-0.25915">
        <ele>543.9</ele>
        <time>2017-04-06T13:58:37Z</time>
      </trkpt>
      <trkpt lat="43.03946" lon="-0.25921">
        <ele>533.66</ele>
        <time>2017-04-06T13:58:58Z</time>
      </trkpt>
      <trkpt lat="43.03927" lon="-0.25925">
        <ele>523.54</ele>
        <time>2017-04-06T13:59:17Z</time>
      </trkpt>
      <trkpt lat="43.03911" lon="-0.25937">
        <ele>510.67</ele>
        <time>2017-04-06T13:59:38Z</time>
      </trkpt>
      <trkpt lat="43.03903" lon="-0.25941">
        <ele>500.57</ele>
        <time>2017-04-06T13:59:54Z</time>
      </trkpt>
      <trkpt lat="43.03905" lon="-0.25937">
        <ele>498.2</ele>
        <time>2017-04-06T14:00:18Z</time>
      </trkpt>
      <trkpt lat="43.03912" lon="-0.25937">
        <ele>495.31</ele>
        <time>2017-04-06T14:00:59Z</time>
      </trkpt>
      <trkpt lat="43.03911" lon="-0.25937">
        <ele>494.84</ele>
        <time>2017-04-06T14:01:03Z</time>
      </trkpt>
      <trkpt lat="43.03895" lon="-0.25933">
        <ele>492.72</ele>
        <time>2017-04-06T14:01:32Z</time>
      </trkpt>
      <trkpt lat="43.03884" lon="-0.2594">
        <ele>487.76</ele>
        <time>2017-04-06T14:01:49Z</time>
      </trkpt>
      <trkpt lat="43.03882" lon="-0.25946">
        <ele>486.08</ele>
        <time>2017-04-06T14:01:52Z</time>
      </trkpt>
      <trkpt lat="43.03875" lon="-0.25962">
        <ele>479.44</ele>
        <time>2017-04-06T14:02:12Z</time>
      </trkpt>
      <trkpt lat="43.03865" lon="-0.25975">
        <ele>471.04</ele>
        <time>2017-04-06T14:02:31Z</time>
      </trkpt>
      <trkpt lat="43.03861" lon="-0.25993">
        <ele>462.55</ele>
        <time>2017-04-06T14:02:49Z</time>
      </trkpt>
      <trkpt lat="43.0386" lon="-0.26001">
        <ele>457.42</ele>
        <time>2017-04-06T14:03:08Z</time>
      </trkpt>
      <trkpt lat="43.03861" lon="-0.25999">
        <ele>450.82</ele>
        <time>2017-04-06T14:03:33Z</time>
      </trkpt>
      <trkpt lat="43.03861" lon="-0.25997">
        <ele>450.08</ele>
        <time>2017-04-06T14:03:37Z</time>
      </trkpt>
    </trkseg>
  </trk>
</gpx>